ftp/pub/palmer/observations_modified/2017/June/AR170625_BASE.txt

Download

Sample DateTime	Unit Id	WS Avg 2min	WD Avg 2min	WGS 10min	WGD 10min	Air Temp	Rel Humidity	Dew Point	Pyranometer	Quantum	Air Pressure	Snow Level	Rainfall	PW Current	Visibility	CBase 1	CBase 2	CBase 3	Vert Vis
2017/06/25 00:00:00	BASE	6.31	15	7.05	11	-3.9	86	-5.9	0	0	991.7	NA	0.0000	-SN	9999	850	0	0	0
2017/06/25 00:01:00	BASE	6.50	14	7.05	17	-3.9	86	-5.9	0	0	991.7	NA	0.0000	-SN	9999	1050	0	0	0
2017/06/25 00:02:00	BASE	6.52	15	7.05	15	-3.9	86	-5.9	0	0	991.7	NA	0.0000	-SN	9999	980	0	0	0
2017/06/25 00:03:00	BASE	6.61	15	7.15	17	-3.9	86	-5.9	0	0	991.7	NA	0.0000	-SN	9999	980	0	0	0
2017/06/25 00:04:00	BASE	6.35	17	7.15	17	-3.9	86	-5.9	0	0	991.7	NA	0.0000	-SN	9999	950	0	0	0
2017/06/25 00:05:00	BASE	6.08	16	7.15	17	-3.9	86	-5.9	0	0	991.6	NA	0.0000	-SN	9999	1050	0	0	0
2017/06/25 00:06:00	BASE	5.94	15	7.15	17	-3.9	86	-5.9	0	0	991.6	NA	0.0000	-SN	9999	1180	0	0	0
2017/06/25 00:07:00	BASE	5.68	17	7.15	17	-3.9	86	-5.9	0	0	991.6	NA	0.0000	-SN	9999	1080	0	0	0
2017/06/25 00:08:00	BASE	5.81	17	7.15	17	-3.9	86	-5.9	0	0	991.6	NA	0.0000	-SN	9999	1050	0	0	0
2017/06/25 00:09:00	BASE	5.90	18	7.15	17	-3.9	86	-5.9	0	0	991.6	NA	0.0000	-SN	9999	1020	0	0	0
2017/06/25 00:10:00	BASE	5.68	18	7.15	17	-3.8	85	-5.9	0	0	991.6	NA	0.0000	-SN	9999	980	0	0	0
2017/06/25 00:11:00	BASE	5.63	17	7.15	17	-3.8	85	-5.9	0	0	991.5	NA	0.0000	-SN	9999	1120	0	0	0
2017/06/25 00:12:00	BASE	5.57	15	7.15	17	-3.8	85	-5.9	0	0	991.5	NA	0.0000	-SN	9999	1020	0	0	0
2017/06/25 00:13:00	BASE	5.46	17	6.79	17	-3.8	86	-5.9	0	0	991.5	NA	0.0000	-SN	9999	1080	0	0	0
2017/06/25 00:14:00	BASE	5.51	18	6.79	17	-3.8	86	-5.8	0	0	991.5	NA	0.0000	-SN	9999	1020	0	0	0
2017/06/25 00:15:00	BASE	5.30	18	6.79	17	-3.8	86	-5.8	0	0	991.4	NA	0.0000	-SN	9999	1080	0	0	0
2017/06/25 00:16:00	BASE	5.26	20	6.79	17	-3.8	86	-5.8	0	0	991.4	NA	0.0000	-SN	9999	1050	0	0	0
2017/06/25 00:17:00	BASE	5.14	19	6.79	17	-3.7	85	-5.8	0	0	991.4	NA	0.0000	-SN	9999	1050	0	0	0
2017/06/25 00:18:00	BASE	4.95	19	6.74	13	-3.7	85	-5.8	0	0	991.4	NA	0.0000	-SN	9999	950	0	0	0
2017/06/25 00:19:00	BASE	5.07	20	6.22	21	-3.7	85	-5.8	0	0	991.3	NA	0.0000	-SN	9999	920	0	0	0
2017/06/25 00:20:00	BASE	5.17	17	6.22	21	-3.6	85	-5.8	0	0	991.3	NA	0.0000	-SN	9999	890	0	0	0
2017/06/25 00:21:00	BASE	5.07	16	5.97	9	-3.6	85	-5.8	0	0	991.3	NA	0.0000	-SN	9999	920	0	0	0
2017/06/25 00:22:00	BASE	4.86	19	5.97	9	-3.6	84	-5.8	0	0	991.3	NA	0.0000	-SN	9999	1540	0	0	0
2017/06/25 00:23:00	BASE	4.79	18	5.97	9	-3.5	84	-5.9	0	0	991.3	NA	0.0000	-SN	9999	1510	0	0	0
2017/06/25 00:24:00	BASE	5.14	17	5.92	14	-3.5	84	-5.9	0	0	991.2	NA	0.0000	-SN	9999	1510	0	0	0
2017/06/25 00:25:00	BASE	5.31	15	5.92	14	-3.4	83	-5.8	0	0	991.3	NA	0.0000	-SN	9999	1480	0	0	0
2017/06/25 00:26:00	BASE	4.90	15	5.92	14	-3.4	83	-5.8	0	0	991.3	NA	0.0000	-SN	9999	1410	0	0	0
2017/06/25 00:27:00	BASE	4.74	12	5.92	14	-3.4	83	-5.8	0	0	991.3	NA	0.0000		9999	1310	0	0	0
2017/06/25 00:28:00	BASE	4.69	10	5.92	14	-3.3	83	-5.8	0	0	991.3	NA	0.0000		9999	1480	0	0	0
2017/06/25 00:29:00	BASE	4.55	10	5.92	14	-3.3	83	-5.8	0	0	991.3	NA	0.0000		9999	1410	0	0	0
2017/06/25 00:30:00	BASE	4.64	5	5.92	14	-3.2	83	-5.8	0	0	991.2	NA	0.0000		9999	1310	0	0	0
2017/06/25 00:31:00	BASE	4.47	2	5.92	14	-3.2	83	-5.7	0	0	991.2	NA	0.0000		9999	1250	0	0	0
2017/06/25 00:32:00	BASE	4.56	1	5.92	14	-3.2	83	-5.7	0	0	991.2	NA	0.0000		9999	1250	0	0	0
2017/06/25 00:33:00	BASE	4.77	1	5.92	14	-3.1	82	-5.7	0	0	991.2	NA	0.0000		9999	1350	0	0	0
2017/06/25 00:34:00	BASE	4.89	1	5.61	9	-3.1	82	-5.6	0	0	991.1	NA	0.0000		9999	1310	0	0	0
2017/06/25 00:35:00	BASE	5.29	358	6.33	355	-3.0	82	-5.6	0	0	991.0	NA	0.0000		9999	1380	0	0	0
2017/06/25 00:36:00	BASE	5.73	356	6.58	354	-2.9	82	-5.5	0	0	991.0	NA	0.0000		9999	1380	0	0	0
2017/06/25 00:37:00	BASE	5.76	347	6.58	354	-2.8	82	-5.4	0	0	991.0	NA	0.0000		9999	1350	0	0	0
2017/06/25 00:38:00	BASE	5.44	344	6.58	354	-2.7	82	-5.3	0	0	991.1	NA	0.0000		9999	1380	0	0	0
2017/06/25 00:39:00	BASE	4.99	345	6.58	354	-2.7	82	-5.3	0	0	991.1	NA	0.0000		9999	1410	0	0	0
2017/06/25 00:40:00	BASE	4.85	344	6.58	354	-2.6	82	-5.3	0	0	991.0	NA	0.0000		9999	1410	0	0	0
2017/06/25 00:41:00	BASE	5.02	339	6.58	354	-2.6	82	-5.3	0	0	991.0	NA	0.0000		9999	1440	0	0	0
2017/06/25 00:42:00	BASE	4.71	337	6.58	354	-2.6	82	-5.3	0	0	991.0	NA	0.0000		9999	1350	0	0	0
2017/06/25 00:43:00	BASE	4.41	334	6.58	354	-2.6	82	-5.3	0	0	991.0	NA	0.0000		9999	1310	0	0	0
2017/06/25 00:44:00	BASE	4.25	330	6.58	354	-2.6	82	-5.3	0	0	991.0	NA	0.0000		9999	0	0	0	3120
2017/06/25 00:45:00	BASE	4.05	323	6.58	354	-2.6	82	-5.3	0	0	991.0	NA	0.0000		9999	1250	0	0	0
2017/06/25 00:46:00	BASE	3.83	314	6.12	345	-2.6	82	-5.2	0	0	991.0	NA	0.0000		9999	0	0	0	3180
2017/06/25 00:47:00	BASE	3.76	311	6.12	345	-2.6	82	-5.2	0	0	991.0	NA	0.0000		9999	1670	0	0	0
2017/06/25 00:48:00	BASE	3.98	310	5.86	333	-2.6	82	-5.2	0	0	991.0	NA	0.0000		9999	0	0	0	3180
2017/06/25 00:49:00	BASE	4.12	313	5.86	333	-2.6	82	-5.2	0	0	991.0	NA	0.0000		9999	3510	0	0	0
2017/06/25 00:50:00	BASE	3.95	316	5.56	343	-2.5	83	-5.1	0	0	991.0	NA	0.0000		9999	0	0	0	3180
2017/06/25 00:51:00	BASE	3.69	317	5.04	321	-2.5	83	-5.1	0	0	990.9	NA	0.0000		9999	2170	0	0	0
2017/06/25 00:52:00	BASE	3.93	328	5.04	321	-2.5	83	-5.0	0	0	990.9	NA	0.0000		9999	2130	0	0	0
2017/06/25 00:53:00	BASE	3.86	330	4.84	338	-2.5	83	-5.0	0	0	990.9	NA	0.0000		9999	2200	0	0	0
2017/06/25 00:54:00	BASE	3.53	329	4.84	338	-2.5	83	-5.0	0	0	990.9	NA	0.0000		9999	2360	0	0	0
2017/06/25 00:55:00	BASE	3.76	333	4.84	338	-2.5	83	-5.0	0	0	990.9	NA	0.0000		9999	2170	2920	0	0
2017/06/25 00:56:00	BASE	3.75	331	4.84	338	-2.4	83	-4.9	0	0	990.9	NA	0.0000		9999	2300	3120	0	0
2017/06/25 00:57:00	BASE	3.34	326	4.84	338	-2.4	83	-4.9	0	0	990.8	NA	0.0000		9999	2170	3310	0	0
2017/06/25 00:58:00	BASE	3.37	325	4.84	338	-2.4	83	-4.8	0	0	990.8	NA	0.0000		9999	2260	3350	0	0
2017/06/25 00:59:00	BASE	3.51	324	4.84	338	-2.4	84	-4.8	0	0	990.8	NA	0.0000		9999	2460	3410	0	0
2017/06/25 01:00:00	BASE	3.48	326	4.84	338	-2.3	84	-4.7	0	0	990.8	NA	0.0000		9999	2300	0	0	0
2017/06/25 01:01:00	BASE	3.55	334	4.84	338	-2.3	84	-4.7	0	0	990.8	NA	0.0000		9999	1840	2360	0	0
2017/06/25 01:02:00	BASE	3.55	332	4.48	325	-2.3	84	-4.7	0	0	990.8	NA	0.0000		9999	2490	3120	3840	0
2017/06/25 01:03:00	BASE	3.77	323	4.89	318	-2.3	84	-4.7	0	0	990.7	NA	0.0000		9999	2070	3480	0	0
2017/06/25 01:04:00	BASE	4.61	318	5.50	319	-2.3	84	-4.6	0	0	990.7	NA	0.0000		9999	1770	3480	0	0
2017/06/25 01:05:00	BASE	5.21	319	5.50	319	-2.3	84	-4.6	0	0	990.7	NA	0.0000		9999	1510	0	0	0
2017/06/25 01:06:00	BASE	4.82	323	5.50	319	-2.2	84	-4.6	0	0	990.7	NA	0.0000		9999	1640	0	0	0
2017/06/25 01:07:00	BASE	4.42	325	5.50	319	-2.2	84	-4.5	0	0	990.6	NA	0.0000		9999	1710	0	0	0
2017/06/25 01:08:00	BASE	4.70	326	5.50	319	-2.1	84	-4.4	0	0	990.5	NA	0.0000		9999	0	0	0	4490
2017/06/25 01:09:00	BASE	5.19	327	6.43	326	-2.1	84	-4.4	0	0	990.5	NA	0.0000		9999	2000	2620	0	0
2017/06/25 01:10:00	BASE	5.76	324	6.48	323	-2.0	84	-4.4	0	0	990.5	NA	0.0000		9999	2230	0	0	0
2017/06/25 01:11:00	BASE	5.78	317	6.48	323	-2.0	84	-4.3	0	0	990.5	NA	0.0000		9999	2100	0	0	0
2017/06/25 01:12:00	BASE	5.27	315	6.48	323	-2.0	84	-4.3	0	0	990.5	NA	0.0000		9999	890	3640	0	0
2017/06/25 01:13:00	BASE	4.93	318	6.48	323	-2.0	84	-4.3	0	0	990.5	NA	0.0000		9999	1020	0	0	0
2017/06/25 01:14:00	BASE	5.02	327	6.48	323	-2.0	84	-4.3	0	0	990.4	NA	0.0000		9999	690	0	0	0
2017/06/25 01:15:00	BASE	5.53	332	6.48	323	-2.0	84	-4.3	0	0	990.4	NA	0.0000		9999	1900	0	0	0
2017/06/25 01:16:00	BASE	6.21	333	7.97	343	-2.0	84	-4.3	0	0	990.4	NA	0.0000		9999	1050	0	0	0
2017/06/25 01:17:00	BASE	6.70	339	7.97	343	-1.9	84	-4.3	0	0	990.3	NA	0.0000		9999	2300	0	0	0
2017/06/25 01:18:00	BASE	7.24	341	8.90	347	-1.9	84	-4.3	0	0	990.3	NA	0.0000		9999	2000	0	0	0
2017/06/25 01:19:00	BASE	8.25	342	9.62	344	-1.9	84	-4.2	0	0	990.2	NA	0.0000		9999	620	0	0	0
2017/06/25 01:20:00	BASE	8.58	342	9.62	344	-1.9	84	-4.2	0	0	990.2	NA	0.0000		9999	920	0	0	0
2017/06/25 01:21:00	BASE	8.45	341	9.62	344	-1.9	84	-4.2	0	0	990.2	NA	0.0000		9999	460	0	0	0
2017/06/25 01:22:00	BASE	8.22	340	9.62	344	-1.8	84	-4.2	0	0	990.2	NA	0.0000		9999	1280	0	0	0
2017/06/25 01:23:00	BASE	7.85	339	9.62	344	-1.8	84	-4.1	0	0	990.2	NA	0.0000		9999	1210	0	0	0
2017/06/25 01:24:00	BASE	7.91	341	9.62	344	-1.8	84	-4.1	0	0	990.2	NA	0.0000		9999	1410	0	0	0
2017/06/25 01:25:00	BASE	7.80	343	9.62	344	-1.8	84	-4.1	0	0	990.1	NA	0.0000		9999	1310	0	0	0
2017/06/25 01:26:00	BASE	8.14	339	9.62	344	-1.7	84	-4.1	0	0	990.1	NA	0.0000		9999	1940	0	0	0
2017/06/25 01:27:00	BASE	8.69	338	9.67	341	-1.7	84	-4.1	0	0	990.1	NA	0.0000		9999	2000	0	0	0
2017/06/25 01:28:00	BASE	8.59	344	9.67	341	-1.7	84	-4.0	0	0	990.1	NA	0.0000		9999	1740	0	0	0
2017/06/25 01:29:00	BASE	8.30	344	9.67	341	-1.7	84	-4.0	0	0	990.1	NA	0.0000		9999	2070	0	0	0
2017/06/25 01:30:00	BASE	8.51	343	10.03	332	-1.7	85	-4.0	0	0	990.0	NA	0.0000		9999	1570	0	0	0
2017/06/25 01:31:00	BASE	8.67	343	10.03	332	-1.7	85	-4.0	0	0	990.0	NA	0.0000		9999	4330	0	0	0
2017/06/25 01:32:00	BASE	8.14	342	10.03	332	-1.7	84	-4.0	0	0	990.0	NA	0.0000		9999	3350	0	0	0
2017/06/25 01:33:00	BASE	7.85	343	10.03	332	-1.7	84	-4.0	0	0	990.0	NA	0.0000		9999	0	0	0	4070
2017/06/25 01:34:00	BASE	8.18	341	10.03	332	-1.7	84	-4.0	0	0	989.9	NA	0.0000		9999	0	0	0	4000
2017/06/25 01:35:00	BASE	8.33	338	10.03	332	-1.6	84	-4.0	0	0	989.9	NA	0.0000		9999	0	0	0	4040
2017/06/25 01:36:00	BASE	7.50	339	10.03	332	-1.6	84	-4.0	0	0	990.0	NA	0.0000		9999	3050	0	0	0
2017/06/25 01:37:00	BASE	7.27	337	10.03	332	-1.6	84	-4.0	0	0	990.0	NA	0.0000		9999	3080	0	0	0
2017/06/25 01:38:00	BASE	7.74	338	10.03	332	-1.6	84	-3.9	0	0	989.9	NA	0.0000		9999	3150	0	0	0
2017/06/25 01:39:00	BASE	7.87	339	10.03	332	-1.6	84	-3.9	0	0	989.9	NA	0.0000		9999	3180	0	0	0
2017/06/25 01:40:00	BASE	7.67	339	10.03	332	-1.6	84	-3.9	0	0	990.0	NA	0.0000		9999	2300	3120	0	0
2017/06/25 01:41:00	BASE	7.86	340	9.41	331	-1.6	84	-3.9	0	0	989.9	NA	0.0000		9999	2170	0	0	0
2017/06/25 01:42:00	BASE	8.35	338	9.41	331	-1.6	84	-3.9	0	0	989.9	NA	0.0000		9999	2070	0	0	0
2017/06/25 01:43:00	BASE	7.87	337	9.41	331	-1.6	84	-3.9	0	0	989.9	NA	0.0000		9999	2200	3120	0	0
2017/06/25 01:44:00	BASE	7.65	339	9.41	331	-1.6	84	-3.9	0	0	989.9	NA	0.0000		9999	2490	0	0	0
2017/06/25 01:45:00	BASE	7.54	339	9.41	331	-1.6	84	-3.9	0	0	989.9	NA	0.0000		9999	2330	3120	0	0
2017/06/25 01:46:00	BASE	7.30	341	9.41	331	-1.6	84	-3.9	0	0	989.9	NA	0.0000		9999	3180	0	0	0
2017/06/25 01:47:00	BASE	7.64	342	9.41	331	-1.5	84	-3.9	0	0	989.9	NA	0.0000		9999	2720	0	0	0
2017/06/25 01:48:00	BASE	7.56	341	9.41	331	-1.5	84	-3.9	0	0	989.9	NA	0.0000		9999	0	0	0	4200
2017/06/25 01:49:00	BASE	7.55	340	9.41	331	-1.6	84	-3.9	0	0	989.9	NA	0.0000		9999	2200	0	0	0
2017/06/25 01:50:00	BASE	7.93	341	9.41	331	-1.6	84	-3.9	0	0	989.9	NA	0.0000		9999	2200	0	0	0
2017/06/25 01:51:00	BASE	8.16	342	9.31	341	-1.6	84	-3.9	0	0	989.9	NA	0.0000		9999	2300	0	0	0
2017/06/25 01:52:00	BASE	8.29	342	9.11	346	-1.6	85	-3.9	0	0	989.8	NA	0.0000		9999	2300	0	0	0
2017/06/25 01:53:00	BASE	7.99	343	9.11	346	-1.7	85	-3.9	0	0	989.9	NA	0.0000		9999	2430	0	0	0
2017/06/25 01:54:00	BASE	7.56	342	9.11	346	-1.7	85	-3.9	0	0	989.9	NA	0.0000		9999	0	0	0	4360
2017/06/25 01:55:00	BASE	7.69	344	9.11	346	-1.7	85	-3.9	0	0	989.8	NA	0.0000		9999	0	0	0	4230
2017/06/25 01:56:00	BASE	8.01	346	9.11	346	-1.8	86	-3.8	0	0	989.8	NA	0.0000		9999	0	0	0	3250
2017/06/25 01:57:00	BASE	8.28	346	9.31	347	-1.8	86	-3.8	0	0	989.7	NA	0.0000		9999	0	0	0	2920
2017/06/25 01:58:00	BASE	8.31	346	9.31	347	-1.8	87	-3.7	0	0	989.8	NA	0.0000		9999	0	0	0	2720
2017/06/25 01:59:00	BASE	8.00	344	9.31	347	-1.8	87	-3.7	0	0	989.8	NA	0.0000		9999	0	0	0	2850
2017/06/25 02:00:00	BASE	7.82	343	9.31	347	-1.8	87	-3.6	0	0	989.8	NA	0.0000		9999	0	0	0	3250
2017/06/25 02:01:00	BASE	8.13	343	9.31	337	-1.8	88	-3.6	0	0	989.7	NA	0.0000		9999	0	0	0	2530
2017/06/25 02:02:00	BASE	8.29	343	9.31	337	-1.8	88	-3.5	0	0	989.7	NA	0.0000		9999	0	0	0	3150
2017/06/25 02:03:00	BASE	8.24	342	9.62	333	-1.8	88	-3.5	0	0	989.7	NA	0.0000		9999	0	0	0	3310
2017/06/25 02:04:00	BASE	8.43	343	9.77	337	-1.8	89	-3.4	0	0	989.7	NA	0.0000		9999	0	0	0	3870
2017/06/25 02:05:00	BASE	8.33	343	9.77	337	-1.8	89	-3.4	0	0	989.7	NA	0.0000		9999	0	0	0	3810
2017/06/25 02:06:00	BASE	8.04	342	9.77	337	-1.8	90	-3.3	0	0	989.7	NA	0.0000		9999	0	0	0	3640
2017/06/25 02:07:00	BASE	7.65	340	9.77	337	-1.8	90	-3.2	0	0	989.7	NA	0.0000		9999	0	0	0	3250
2017/06/25 02:08:00	BASE	7.51	341	9.77	337	-1.8	90	-3.2	0	0	989.7	NA	0.0000		9999	0	0	0	3050
2017/06/25 02:09:00	BASE	7.99	341	9.77	337	-1.9	91	-3.2	0	0	989.7	NA	0.0000		9999	0	0	0	2890
2017/06/25 02:10:00	BASE	8.24	340	9.77	337	-1.9	91	-3.2	0	0	989.7	NA	0.0000		9999	0	0	0	2720
2017/06/25 02:11:00	BASE	8.31	342	9.77	337	-1.9	91	-3.2	0	0	989.7	NA	0.0000		9999	0	0	0	2360
2017/06/25 02:12:00	BASE	8.31	344	9.77	337	-1.9	91	-3.2	0	0	989.6	NA	0.0000		9999	0	0	0	2000
2017/06/25 02:13:00	BASE	8.11	343	9.77	337	-2.0	91	-3.2	0	0	989.6	NA	0.0000		9999	0	0	0	1770
2017/06/25 02:14:00	BASE	7.82	341	9.47	343	-2.0	91	-3.2	0	0	989.7	NA	0.0000		9999	0	0	0	1900
2017/06/25 02:15:00	BASE	7.74	340	9.47	343	-2.0	92	-3.2	0	0	989.6	NA	0.0000		9999	0	0	0	2200
2017/06/25 02:16:00	BASE	7.71	339	9.47	343	-2.0	92	-3.1	0	0	989.6	NA	0.0000		9999	0	0	0	3080
2017/06/25 02:17:00	BASE	7.40	338	9.47	343	-2.0	92	-3.1	0	0	989.6	NA	0.0000	UP	9999	0	0	0	2950
2017/06/25 02:18:00	BASE	7.24	337	9.47	343	-1.9	92	-3.1	0	0	989.6	NA	0.0000	UP	9999	0	0	0	2100
2017/06/25 02:19:00	BASE	7.36	336	9.47	343	-1.9	92	-3.0	0	0	989.6	NA	0.0000	UP	9999	0	0	0	2760
2017/06/25 02:20:00	BASE	7.49	335	9.47	343	-1.9	92	-3.0	0	0	989.5	NA	0.0000	UP	9999	0	0	0	2720
2017/06/25 02:21:00	BASE	7.56	335	9.47	343	-1.9	92	-2.9	0	0	989.5	NA	0.0000	UP	9999	0	0	0	2430
2017/06/25 02:22:00	BASE	7.78	333	9.00	324	-1.8	93	-2.9	0	0	989.5	NA	0.0000	UP	9999	0	0	0	2360
2017/06/25 02:23:00	BASE	7.68	334	9.00	324	-1.8	93	-2.8	0	0	989.5	NA	0.0000	UP	9999	0	0	0	2590
2017/06/25 02:24:00	BASE	7.24	333	9.00	324	-1.8	93	-2.8	0	0	989.5	NA	0.0000	UP	9999	0	0	0	2760
2017/06/25 02:25:00	BASE	7.51	332	9.67	336	-1.8	93	-2.8	0	0	989.4	NA	0.0000	UP	9999	0	0	0	1940
2017/06/25 02:26:00	BASE	8.31	334	9.98	333	-1.7	93	-2.7	0	0	989.4	NA	0.0000	UP	9999	300	0	0	0
2017/06/25 02:27:00	BASE	8.32	335	9.98	333	-1.7	93	-2.7	0	0	989.4	NA	0.0000	UP	9999	0	0	0	2660
2017/06/25 02:28:00	BASE	8.05	336	9.98	333	-1.7	93	-2.6	0	0	989.4	NA	0.0000	UP	9999	0	0	0	2430
2017/06/25 02:29:00	BASE	8.05	336	9.98	333	-1.6	94	-2.5	0	0	989.4	NA	0.0000	UP	9999	0	0	0	2070
2017/06/25 02:30:00	BASE	7.58	336	9.98	333	-1.6	94	-2.5	0	0	989.4	NA	0.0000	UP	9999	0	0	0	1870
2017/06/25 02:31:00	BASE	7.72	333	9.98	333	-1.7	94	-2.5	0	0	989.4	NA	0.0000	UP	9999	0	0	0	2230
2017/06/25 02:32:00	BASE	7.75	333	9.98	333	-1.7	94	-2.5	0	0	989.4	NA	0.0000	UP	9999	0	0	0	1770
2017/06/25 02:33:00	BASE	7.63	328	9.98	333	-1.7	94	-2.5	0	0	989.4	NA	0.0000	UP	9999	0	0	0	1770
2017/06/25 02:34:00	BASE	7.54	331	9.98	333	-1.7	94	-2.5	0	0	989.4	NA	0.0000	UP	9999	0	0	0	1770
2017/06/25 02:35:00	BASE	7.08	338	9.98	333	-1.7	94	-2.5	0	0	989.4	NA	0.0000	UP	9999	0	0	0	1610
2017/06/25 02:36:00	BASE	7.36	333	9.11	329	-1.7	95	-2.4	0	0	989.4	NA	0.0000	UP	9999	0	0	0	1710
2017/06/25 02:37:00	BASE	7.66	330	9.47	328	-1.7	95	-2.4	0	0	989.3	NA	0.0000	UP	9999	0	0	0	1740
2017/06/25 02:38:00	BASE	8.16	333	9.47	328	-1.7	95	-2.4	0	0	989.3	NA	0.0000	UP	9999	0	0	0	1840
2017/06/25 02:39:00	BASE	8.42	336	9.67	343	-1.7	95	-2.4	0	0	989.3	NA	0.0000	UP	9999	0	0	0	1800
2017/06/25 02:40:00	BASE	8.48	335	9.98	335	-1.6	95	-2.3	0	0	989.3	NA	0.0000	UP	9999	0	0	0	1840
2017/06/25 02:41:00	BASE	8.87	336	9.98	335	-1.6	95	-2.3	0	0	989.3	NA	0.0000	UP	9999	0	0	0	1410
2017/06/25 02:42:00	BASE	8.93	335	9.98	335	-1.6	95	-2.3	0	0	989.3	NA	0.0000	UP	9999	0	0	0	1480
2017/06/25 02:43:00	BASE	8.16	335	9.98	335	-1.6	95	-2.2	0	0	989.4	NA	0.0000	UP	9999	0	0	0	1800
2017/06/25 02:44:00	BASE	7.62	335	9.98	335	-1.6	96	-2.2	0	0	989.4	NA	0.0000	UP	9999	0	0	0	1940
2017/06/25 02:45:00	BASE	8.28	333	9.98	335	-1.6	96	-2.2	0	0	989.4	NA	0.0000	UP	9999	0	0	0	1770
2017/06/25 02:46:00	BASE	8.67	329	9.98	335	-1.6	96	-2.2	0	0	989.4	NA	0.0000	UP	9999	0	0	0	1840
2017/06/25 02:47:00	BASE	7.99	325	9.98	335	-1.6	96	-2.2	0	0	989.4	NA	0.0000	UP	9999	0	0	0	1710
2017/06/25 02:48:00	BASE	8.08	325	9.98	335	-1.7	96	-2.2	0	0	989.4	NA	0.0000	UP	9999	0	0	0	2000
2017/06/25 02:49:00	BASE	8.73	323	9.98	335	-1.7	96	-2.2	0	0	989.3	NA	0.0000	UP	9999	0	0	0	2000
2017/06/25 02:50:00	BASE	8.42	324	9.93	328	-1.7	96	-2.2	0	0	989.4	NA	0.0000	UP	9999	0	0	0	2030
2017/06/25 02:51:00	BASE	7.82	326	9.93	328	-1.7	96	-2.2	0	0	989.4	NA	0.0000	UP	9999	0	0	0	1940
2017/06/25 02:52:00	BASE	8.15	325	9.93	328	-1.6	96	-2.2	0	0	989.4	NA	0.0000	UP	9999	0	0	0	2030
2017/06/25 02:53:00	BASE	8.56	325	9.93	328	-1.6	96	-2.2	0	0	989.4	NA	0.0000	UP	9999	0	0	0	2070
2017/06/25 02:54:00	BASE	8.58	320	9.93	328	-1.6	96	-2.2	0	0	989.3	NA	0.0000	UP	9999	0	0	0	1940
2017/06/25 02:55:00	BASE	8.42	321	9.77	317	-1.7	96	-2.2	0	0	989.4	NA	0.0000	UP	9999	0	0	0	1870
2017/06/25 02:56:00	BASE	8.07	326	9.77	317	-1.7	96	-2.2	0	0	989.4	NA	0.0000	UP	9999	0	0	0	1740
2017/06/25 02:57:00	BASE	7.72	327	9.77	317	-1.7	96	-2.2	0	0	989.4	NA	0.0000	UP	9999	0	0	0	1710
2017/06/25 02:58:00	BASE	7.41	329	9.77	317	-1.7	96	-2.2	0	0	989.4	NA	0.0000	UP	9999	0	0	0	1740
2017/06/25 02:59:00	BASE	7.31	332	9.77	317	-1.7	96	-2.3	0	0	989.4	NA	0.0000	UP	9999	0	0	0	1710
2017/06/25 03:00:00	BASE	7.32	332	9.77	317	-1.7	96	-2.3	0	0	989.4	NA	0.0000	UP	9999	0	0	0	1770
2017/06/25 03:01:00	BASE	7.65	331	9.77	317	-1.7	96	-2.3	0	0	989.4	NA	0.0000	UP	9999	0	0	0	1670
2017/06/25 03:02:00	BASE	7.90	335	9.77	317	-1.7	96	-2.2	0	0	989.3	NA	0.0000	UP	9999	0	0	0	1540
2017/06/25 03:03:00	BASE	7.94	334	9.77	317	-1.7	96	-2.2	0	0	989.4	NA	0.0000	UP	9999	0	0	0	1440
2017/06/25 03:04:00	BASE	7.92	329	8.95	325	-1.7	96	-2.2	0	0	989.4	NA	0.0000	UP	9999	0	0	0	1210
2017/06/25 03:05:00	BASE	8.48	331	9.62	336	-1.7	96	-2.2	0	0	989.3	NA	0.0000	UP	9999	0	0	0	1210
2017/06/25 03:06:00	BASE	8.58	332	9.62	336	-1.7	96	-2.2	0	0	989.3	NA	0.0000	UP	9999	0	0	0	1210
2017/06/25 03:07:00	BASE	8.47	329	10.44	324	-1.7	96	-2.3	0	0	989.3	NA	0.0000	UP	9999	0	0	0	1180
2017/06/25 03:08:00	BASE	8.63	329	10.44	324	-1.7	96	-2.3	0	0	989.4	NA	0.0000	UP	9999	0	0	0	1050
2017/06/25 03:09:00	BASE	8.35	329	10.44	324	-1.7	96	-2.2	0	0	989.3	NA	0.0000	UP	9999	0	0	0	1020
2017/06/25 03:10:00	BASE	8.56	324	10.44	324	-1.7	96	-2.2	0	0	989.2	NA	0.0000	UP	9000	0	0	0	950
2017/06/25 03:11:00	BASE	9.19	321	11.42	317	-1.7	96	-2.2	0	0	989.2	NA	0.0000	UP	7000	0	0	0	850
2017/06/25 03:12:00	BASE	9.66	320	11.42	317	-1.7	96	-2.2	0	0	989.2	NA	0.0000	UP	7000	0	0	0	890
2017/06/25 03:13:00	BASE	9.54	320	11.42	317	-1.6	96	-2.2	0	0	989.2	NA	0.0000	UP	8000	0	0	0	920
2017/06/25 03:14:00	BASE	9.20	320	11.42	317	-1.6	96	-2.2	0	0	989.2	NA	0.0000	UP BR	7000	0	0	0	890
2017/06/25 03:15:00	BASE	8.87	322	11.42	317	-1.6	96	-2.1	0	0	989.2	NA	0.0000	UP BR	7000	0	0	0	920
2017/06/25 03:16:01	BASE	8.33	326	11.42	317	-1.6	97	-2.1	0	0	989.2	NA	0.0000	UP BR	8000	0	0	0	980
2017/06/25 03:17:00	BASE	8.46	328	11.42	317	-1.6	97	-2.1	0	0	989.2	NA	0.0000	UP BR	9999	0	0	0	950
2017/06/25 03:18:00	BASE	8.75	326	11.42	317	-1.6	97	-2.1	0	0	989.2	NA	0.0000	UP BR	9999	0	0	0	950
2017/06/25 03:19:00	BASE	8.65	327	11.42	317	-1.7	97	-2.1	0	0	989.2	NA	0.0000	UP BR	9999	0	0	0	950
2017/06/25 03:20:00	BASE	9.04	327	11.42	317	-1.7	97	-2.1	0	0	989.2	NA	0.0000	UP BR	9000	0	0	0	1050
2017/06/25 03:21:00	BASE	9.17	326	10.75	324	-1.7	97	-2.1	0	0	989.2	NA	0.0000	UP BR	9000	0	0	0	1080
2017/06/25 03:22:00	BASE	8.41	326	9.98	330	-1.7	97	-2.1	0	0	989.2	NA	0.0000	UP BR	9000	0	0	0	1080
2017/06/25 03:23:00	BASE	7.96	330	9.98	330	-1.7	97	-2.1	0	0	989.2	NA	0.0000	UP BR	9999	0	0	0	1020
2017/06/25 03:24:00	BASE	7.93	329	9.98	330	-1.7	97	-2.1	0	0	989.2	NA	0.0000	UP BR	9999	0	0	0	1050
2017/06/25 03:25:00	BASE	7.83	327	9.98	330	-1.7	97	-2.1	0	0	989.2	NA	0.0000	UP BR	9999	0	0	0	1020
2017/06/25 03:26:00	BASE	7.73	324	9.98	330	-1.7	97	-2.1	0	0	989.2	NA	0.0000	UP	9999	0	0	0	1120
2017/06/25 03:27:00	BASE	7.82	321	9.98	330	-1.7	97	-2.1	0	0	989.2	NA	0.0000	UP BR	9999	0	0	0	1150
2017/06/25 03:28:00	BASE	8.34	320	9.98	330	-1.7	97	-2.1	0	0	989.2	NA	0.0000	UP BR	8000	0	0	0	1180
2017/06/25 03:29:00	BASE	7.90	323	9.98	330	-1.7	97	-2.1	0	0	989.2	NA	0.0000	UP BR	7000	0	0	0	1150
2017/06/25 03:30:00	BASE	7.35	327	9.88	321	-1.7	97	-2.1	0	0	989.2	NA	0.0000	UP BR	7000	0	0	0	1080
2017/06/25 03:31:00	BASE	7.94	331	9.36	319	-1.7	97	-2.1	0	0	989.2	NA	0.0000	UP BR	9999	0	0	0	1020
2017/06/25 03:32:00	BASE	7.99	331	9.36	319	-1.7	97	-2.1	0	0	989.2	NA	0.0000	UP BR	9999	0	0	0	980
2017/06/25 03:33:00	BASE	8.29	331	9.62	329	-1.7	97	-2.1	0	0	989.2	NA	0.0000	UP BR	9999	0	0	0	950
2017/06/25 03:34:00	BASE	8.94	332	10.75	331	-1.7	97	-2.1	0	0	989.1	NA	0.0000	UP BR	9999	0	0	0	920
2017/06/25 03:35:00	BASE	9.12	330	10.75	331	-1.7	97	-2.2	0	0	989.1	NA	0.0000	UP BR	9999	0	0	0	980
2017/06/25 03:36:00	BASE	9.38	328	10.75	331	-1.7	97	-2.2	0	0	989.1	NA	0.0000	UP BR	9999	0	0	0	1210
2017/06/25 03:37:00	BASE	8.98	330	10.75	331	-1.7	97	-2.1	0	0	989.1	NA	0.0000	UP BR	9999	0	0	0	1210
2017/06/25 03:38:00	BASE	8.96	328	10.75	331	-1.7	97	-2.1	0	0	989.0	NA	0.0000	UP	9999	0	0	0	1180
2017/06/25 03:39:00	BASE	8.61	327	10.75	331	-1.7	97	-2.1	0	0	989.1	NA	0.0000	UP	9999	0	0	0	1180
2017/06/25 03:40:00	BASE	7.91	329	10.75	331	-1.7	97	-2.1	0	0	989.1	NA	0.0000	UP	9999	0	0	0	1150
2017/06/25 03:41:00	BASE	8.46	328	10.75	331	-1.7	97	-2.1	0	0	989.1	NA	0.0000	UP	9999	0	0	0	1120
2017/06/25 03:42:00	BASE	9.07	328	10.75	331	-1.8	97	-2.2	0	0	989.0	NA	0.0000	UP	9999	0	0	0	1020
2017/06/25 03:43:00	BASE	9.24	326	10.75	331	-1.8	97	-2.1	0	0	989.0	NA	0.0000	UP	9999	0	0	0	980
2017/06/25 03:44:00	BASE	9.21	323	10.55	330	-1.7	97	-2.1	0	0	989.0	NA	0.0000	UP	9000	0	0	0	890
2017/06/25 03:45:00	BASE	8.88	322	10.44	330	-1.7	98	-2.0	0	0	989.0	NA	0.0000	UP	7000	0	0	0	820
2017/06/25 03:46:00	BASE	8.39	321	10.24	325	-1.7	98	-2.0	0	0	988.9	NA	0.0000	UP	7000	0	0	0	850
2017/06/25 03:47:00	BASE	8.56	326	10.24	325	-1.7	98	-1.9	0	0	988.9	NA	0.0000	UP BR	7000	0	0	0	890
2017/06/25 03:48:00	BASE	9.04	327	10.24	325	-1.7	98	-1.9	0	0	988.9	NA	0.0000	UP BR	9999	0	0	0	950
2017/06/25 03:49:00	BASE	8.74	327	10.24	325	-1.7	98	-1.9	0	0	988.9	NA	0.0000	UP BR	9999	0	0	0	980
2017/06/25 03:50:00	BASE	8.47	333	10.24	325	-1.7	98	-2.0	0	0	989.0	NA	0.0000	UP BR	9999	0	0	0	950
2017/06/25 03:51:00	BASE	8.40	336	10.24	325	-1.7	98	-2.0	0	0	988.9	NA	0.0000	UP BR	9999	0	0	0	890
2017/06/25 03:52:00	BASE	8.34	333	10.24	325	-1.8	98	-2.0	0	0	988.9	NA	0.0000	UP BR	9999	0	0	0	920
2017/06/25 03:53:00	BASE	8.67	332	10.24	325	-1.8	98	-2.1	0	0	988.9	NA	0.0000	UP BR	9999	0	0	0	850
2017/06/25 03:54:00	BASE	8.71	333	9.88	331	-1.8	98	-2.1	0	0	988.8	NA	0.0000	UP BR	9999	0	0	0	920
2017/06/25 03:55:00	BASE	8.91	334	9.88	331	-1.8	98	-2.1	0	0	988.8	NA	0.0000	UP BR	9999	0	0	0	920
2017/06/25 03:56:00	BASE	8.93	333	10.03	324	-1.8	98	-2.1	0	0	988.8	NA	0.0000	UP BR	9999	0	0	0	890
2017/06/25 03:57:00	BASE	8.66	332	10.03	324	-1.8	98	-2.0	0	0	988.9	NA	0.0000	BR	9999	0	0	0	820
2017/06/25 03:58:00	BASE	8.72	333	10.03	324	-1.7	98	-2.0	0	0	988.8	NA	0.0000	BR	9999	0	0	0	790
2017/06/25 03:59:00	BASE	8.71	336	10.34	337	-1.7	98	-2.0	0	0	988.8	NA	0.0000	BR	9999	0	0	0	920
2017/06/25 04:00:00	BASE	8.51	336	10.34	337	-1.7	98	-2.0	0	0	988.8	NA	0.0000	BR	9999	0	0	0	980
2017/06/25 04:01:00	BASE	8.54	334	10.34	337	-1.7	98	-2.0	0	0	988.8	NA	0.0000	BR	9999	0	0	0	1020
2017/06/25 04:02:00	BASE	8.52	331	10.34	337	-1.7	98	-2.0	0	0	988.8	NA	0.0000	BR	9999	0	0	0	1050
2017/06/25 04:03:00	BASE	8.18	333	10.34	337	-1.7	98	-2.0	0	0	988.8	NA	0.0000	BR	9999	0	0	0	1080
2017/06/25 04:04:00	BASE	8.01	334	10.34	337	-1.7	98	-2.0	0	0	988.8	NA	0.0000	UP BR	9999	0	0	0	1120
2017/06/25 04:05:00	BASE	8.02	333	10.34	337	-1.7	98	-2.0	0	0	988.8	NA	0.0000	UP	9999	0	0	0	1080
2017/06/25 04:06:00	BASE	8.05	333	10.34	337	-1.7	98	-2.0	0	0	988.7	NA	0.0000	UP	9999	0	0	0	1120
2017/06/25 04:07:00	BASE	7.93	333	10.34	337	-1.7	98	-2.0	0	0	988.7	NA	0.0000	UP	9999	0	0	0	1120
2017/06/25 04:08:00	BASE	7.97	335	10.34	337	-1.7	98	-2.0	0	0	988.7	NA	0.0000	UP	9999	0	0	0	1050
2017/06/25 04:09:00	BASE	8.38	334	9.57	329	-1.7	98	-2.0	0	0	988.7	NA	0.0000	UP	9999	0	0	0	1020
2017/06/25 04:10:00	BASE	8.68	334	9.57	329	-1.7	98	-1.9	0	0	988.7	NA	0.0000	UP	9999	0	0	0	1020
2017/06/25 04:11:00	BASE	8.87	335	9.67	328	-1.6	98	-1.9	0	0	988.7	NA	0.0000	UP	9999	0	0	0	1020
2017/06/25 04:12:00	BASE	8.66	333	9.67	328	-1.6	98	-1.9	0	0	988.7	NA	0.0000	UP	9999	0	0	0	1050
2017/06/25 04:13:00	BASE	8.46	334	9.67	328	-1.6	98	-1.9	0	0	988.7	NA	0.0000	UP	9999	0	0	0	1020
2017/06/25 04:14:00	BASE	8.83	335	10.13	331	-1.6	98	-1.9	0	0	988.6	NA	0.0000	UP	9999	0	0	0	920
2017/06/25 04:15:00	BASE	8.71	333	10.13	331	-1.6	98	-1.9	0	0	988.6	NA	0.0000	UP	9999	0	0	0	950
2017/06/25 04:16:00	BASE	8.16	332	10.13	331	-1.6	98	-1.9	0	0	988.7	NA	0.0000	UP	9999	0	0	0	1020
2017/06/25 04:17:00	BASE	8.62	329	10.13	328	-1.6	98	-1.9	0	0	988.6	NA	0.0000	UP	9999	0	0	0	1150
2017/06/25 04:18:00	BASE	8.76	331	10.13	328	-1.6	98	-1.9	0	0	988.6	NA	0.0000	UP	9999	0	0	0	1150
2017/06/25 04:19:00	BASE	8.78	332	10.55	327	-1.6	98	-1.9	0	0	988.6	NA	0.0000	UP	9999	0	0	0	1080
2017/06/25 04:20:00	BASE	9.18	332	10.55	327	-1.6	98	-1.8	0	0	988.6	NA	0.0000	UP	9999	0	0	0	980
2017/06/25 04:21:00	BASE	9.22	335	10.55	327	-1.5	98	-1.8	0	0	988.6	NA	0.0000	UP	9999	0	0	0	1020
2017/06/25 04:22:00	BASE	9.59	335	11.21	325	-1.5	98	-1.8	0	0	988.5	NA	0.0000	UP	9999	0	0	0	1150
2017/06/25 04:23:00	BASE	9.76	331	11.21	325	-1.5	98	-1.8	0	0	988.5	NA	0.0000	UP	9999	0	0	0	1180
2017/06/25 04:24:00	BASE	9.56	330	11.21	325	-1.5	98	-1.8	0	0	988.5	NA	0.0000	UP	9999	0	0	0	1380
2017/06/25 04:25:00	BASE	9.32	332	11.21	325	-1.5	98	-1.8	0	0	988.5	NA	0.0000	UP	9999	0	0	0	1440
2017/06/25 04:26:00	BASE	9.37	332	11.21	325	-1.5	98	-1.8	0	0	988.5	NA	0.0000	UP	9999	0	0	0	1350
2017/06/25 04:27:00	BASE	9.25	331	11.21	325	-1.5	98	-1.8	0	0	988.5	NA	0.0000	UP	9999	0	0	0	1310
2017/06/25 04:28:00	BASE	8.84	330	11.21	325	-1.5	98	-1.8	0	0	988.5	NA	0.0000	UP	9999	0	0	0	1310
2017/06/25 04:29:00	BASE	8.92	329	11.21	325	-1.5	98	-1.8	0	0	988.5	NA	0.0000		9999	0	0	0	1250
2017/06/25 04:30:00	BASE	9.00	330	11.21	325	-1.5	98	-1.8	0	0	988.5	NA	0.0000	UP	9999	0	0	0	1250
2017/06/25 04:31:00	BASE	9.14	331	11.21	325	-1.5	98	-1.8	0	0	988.5	NA	0.0000	UP	9999	0	0	0	1350
2017/06/25 04:32:00	BASE	9.27	331	10.65	329	-1.5	98	-1.8	0	0	988.5	NA	0.0000	UP	9999	0	0	0	1350
2017/06/25 04:33:00	BASE	9.15	332	10.60	324	-1.5	98	-1.8	0	0	988.6	NA	0.0000	UP	9999	0	0	0	1180
2017/06/25 04:34:00	BASE	9.16	332	10.49	337	-1.5	98	-1.8	0	0	988.6	NA	0.0000	UP	9999	0	0	0	1280
2017/06/25 04:35:00	BASE	9.04	334	10.49	337	-1.5	98	-1.8	0	0	988.6	NA	0.0000	UP	9999	0	0	0	1250
2017/06/25 04:36:00	BASE	8.99	333	10.49	331	-1.5	98	-1.8	0	0	988.5	NA	0.0000	UP	9999	0	0	0	1150
2017/06/25 04:37:00	BASE	9.18	333	11.27	329	-1.5	98	-1.8	0	0	988.5	NA	0.0000	UP	9999	0	0	0	1050
2017/06/25 04:38:00	BASE	9.15	332	11.27	329	-1.5	98	-1.8	0	0	988.5	NA	0.0000	UP	9999	0	0	0	890
2017/06/25 04:39:00	BASE	8.57	331	11.27	329	-1.5	98	-1.8	0	0	988.5	NA	0.0000	UP	9999	0	0	0	850
2017/06/25 04:40:00	BASE	8.65	331	11.27	329	-1.5	98	-1.8	0	0	988.5	NA	0.0000	UP	9999	0	0	0	820
2017/06/25 04:41:00	BASE	9.17	331	11.27	329	-1.5	98	-1.8	0	0	988.5	NA	0.0000	UP	9999	0	0	0	820
2017/06/25 04:42:00	BASE	9.29	330	11.27	329	-1.5	98	-1.8	0	0	988.5	NA	0.0000	UP	9999	0	0	0	890
2017/06/25 04:43:00	BASE	9.22	330	11.27	329	-1.5	98	-1.8	0	0	988.5	NA	0.0000	UP	9999	0	0	0	1050
2017/06/25 04:44:00	BASE	9.22	332	11.27	329	-1.5	98	-1.8	0	0	988.5	NA	0.0000	UP	9999	0	0	0	1150
2017/06/25 04:45:00	BASE	8.77	335	11.27	329	-1.5	98	-1.8	0	0	988.5	NA	0.0000	UP	9999	0	0	0	1150
2017/06/25 04:46:00	BASE	8.34	335	11.27	329	-1.5	98	-1.8	0	0	988.5	NA	0.0000	UP	9999	0	0	0	1250
2017/06/25 04:47:00	BASE	8.66	331	10.55	325	-1.5	98	-1.8	0	0	988.4	NA	0.0000	UP	9999	0	0	0	1210
2017/06/25 04:48:00	BASE	8.25	328	10.34	329	-1.5	98	-1.8	0	0	988.4	NA	0.0000	UP	9999	0	0	0	1280
2017/06/25 04:49:00	BASE	8.00	327	10.34	329	-1.5	98	-1.8	0	0	988.3	NA	0.0000	UP	9999	0	0	0	1280
2017/06/25 04:50:00	BASE	8.43	327	10.34	329	-1.5	98	-1.8	0	0	988.3	NA	0.0000	UP	9999	0	0	0	1480
2017/06/25 04:51:00	BASE	8.33	327	10.08	332	-1.5	98	-1.8	0	0	988.3	NA	0.0000		9999	0	0	0	1510
2017/06/25 04:52:00	BASE	8.34	322	10.08	332	-1.5	98	-1.8	0	0	988.3	NA	0.0000		9999	0	0	0	1540
2017/06/25 04:53:00	BASE	8.61	321	10.08	332	-1.5	98	-1.8	0	0	988.3	NA	0.0000		9999	0	0	0	1510
2017/06/25 04:54:00	BASE	8.65	323	9.67	322	-1.5	98	-1.8	0	0	988.3	NA	0.0000		9999	200	0	0	0
2017/06/25 04:55:00	BASE	8.40	324	9.67	322	-1.5	98	-1.8	0	0	988.3	NA	0.0000		9999	200	0	0	0
2017/06/25 04:56:00	BASE	8.24	324	9.67	322	-1.5	98	-1.8	0	0	988.2	NA	0.0000		9999	0	0	0	1350
2017/06/25 04:57:00	BASE	8.25	324	9.62	328	-1.5	98	-1.8	0	0	988.2	NA	0.0000		9999	0	0	0	1310
2017/06/25 04:58:00	BASE	8.48	324	9.62	328	-1.5	98	-1.8	0	0	988.2	NA	0.0000		9999	0	0	0	1380
2017/06/25 04:59:00	BASE	8.40	323	9.62	328	-1.5	98	-1.8	0	0	988.2	NA	0.0000	UP	9999	0	0	0	1350
2017/06/25 05:00:00	BASE	8.66	323	9.67	324	-1.5	98	-1.8	0	0	988.2	NA	0.0000	UP	9999	0	0	0	1350
2017/06/25 05:01:00	BASE	8.91	322	9.67	324	-1.5	98	-1.8	0	0	988.2	NA	0.0000	UP	9999	0	0	0	1310
2017/06/25 05:02:00	BASE	8.45	321	9.67	324	-1.5	98	-1.8	0	0	988.2	NA	0.0000	UP	9999	0	0	0	1180
2017/06/25 05:03:00	BASE	8.25	321	9.67	324	-1.5	98	-1.8	0	0	988.2	NA	0.0000	UP	9999	0	0	0	1210
2017/06/25 05:04:00	BASE	8.38	320	9.67	324	-1.5	98	-1.8	0	0	988.2	NA	0.0000	UP	9999	0	0	0	1250
2017/06/25 05:05:00	BASE	8.59	319	9.67	324	-1.5	98	-1.8	0	0	988.2	NA	0.0000	UP	9999	0	0	0	1150
2017/06/25 05:06:00	BASE	8.50	319	9.67	324	-1.5	98	-1.8	0	0	988.2	NA	0.0000	UP	9999	0	0	0	1020
2017/06/25 05:07:00	BASE	8.70	319	9.88	320	-1.5	98	-1.8	0	0	988.2	NA	0.0000	UP	9999	0	0	0	1120
2017/06/25 05:08:00	BASE	9.12	314	10.34	313	-1.5	98	-1.8	0	0	988.1	NA	0.0000	UP	9999	0	0	0	1020
2017/06/25 05:09:00	BASE	9.56	312	10.44	314	-1.5	98	-1.7	0	0	988.1	NA	0.0000	UP	7000	0	0	0	920
2017/06/25 05:10:00	BASE	9.63	313	10.91	312	-1.4	98	-1.7	0	0	988.1	NA	0.0000	UP BR	4800	0	0	0	980
2017/06/25 05:11:00	BASE	10.25	313	12.76	311	-1.4	98	-1.7	0	0	988.0	NA	0.0000	UP BR	5000	0	0	0	980
2017/06/25 05:12:00	BASE	10.67	314	12.76	311	-1.3	98	-1.6	0	0	988.0	NA	0.0000	UP BR	4800	0	0	0	1050
2017/06/25 05:13:00	BASE	10.41	316	12.76	311	-1.3	98	-1.5	0	0	988.0	NA	0.0000	UP BR	5000	0	0	0	1180
2017/06/25 05:14:00	BASE	10.69	314	12.76	311	-1.2	98	-1.5	0	0	988.0	NA	0.0000	UP BR	5000	0	0	0	1210
2017/06/25 05:15:00	BASE	10.51	313	12.76	311	-1.2	98	-1.5	0	0	988.0	NA	0.0000	UP BR	5000	0	0	0	1120
2017/06/25 05:16:00	BASE	10.23	314	12.76	311	-1.2	98	-1.5	0	0	988.0	NA	0.0000	UP BR	5000	0	0	0	1180
2017/06/25 05:17:00	BASE	10.23	314	12.76	311	-1.2	98	-1.5	0	0	988.0	NA	0.0000	UP BR	5000	0	0	0	1210
2017/06/25 05:18:00	BASE	10.21	313	12.76	311	-1.2	98	-1.5	0	0	988.0	NA	0.0000	UP BR	5000	0	0	0	1250
2017/06/25 05:19:00	BASE	10.04	314	12.76	311	-1.2	98	-1.5	0	0	988.0	NA	0.0000	UP BR	5000	0	0	0	1210
2017/06/25 05:20:00	BASE	9.83	314	12.76	311	-1.2	98	-1.5	0	0	988.0	NA	0.0000	UP BR	5000	0	0	0	1250
2017/06/25 05:21:00	BASE	9.84	314	11.68	319	-1.2	98	-1.5	0	0	988.0	NA	0.0000	UP BR	5000	0	0	0	1080
2017/06/25 05:22:00	BASE	9.86	314	11.63	312	-1.2	98	-1.5	0	0	988.0	NA	0.0000	UP BR	5000	0	0	0	1280
2017/06/25 05:23:00	BASE	9.85	314	11.63	312	-1.2	98	-1.5	0	0	988.0	NA	0.0000	BR	5000	0	0	0	1210
2017/06/25 05:24:00	BASE	9.63	314	11.01	307	-1.2	98	-1.5	0	0	988.0	NA	0.0000	BR	5000	0	0	0	1180
2017/06/25 05:25:00	BASE	9.34	314	11.01	307	-1.2	98	-1.5	0	0	988.0	NA	0.0000	BR	5000	0	0	0	1150
2017/06/25 05:26:00	BASE	9.21	314	11.01	307	-1.2	98	-1.5	0	0	988.0	NA	0.0000	BR	5000	0	0	0	1080
2017/06/25 05:27:00	BASE	9.42	315	11.01	307	-1.2	98	-1.5	0	0	988.0	NA	0.0000	BR	5000	0	0	0	1180
2017/06/25 05:28:00	BASE	9.63	316	11.01	307	-1.2	98	-1.4	0	0	987.9	NA	0.0000	BR	5000	0	0	0	1250
2017/06/25 05:29:00	BASE	9.76	315	11.01	307	-1.2	98	-1.4	0	0	987.9	NA	0.0000	BR	5000	0	0	0	1120
2017/06/25 05:30:00	BASE	9.77	315	11.01	307	-1.2	99	-1.4	0	0	987.9	NA	0.0000	BR	5000	0	0	0	950
2017/06/25 05:31:00	BASE	9.96	316	11.01	318	-1.2	99	-1.4	0	0	987.9	NA	0.0000	BR	5000	0	0	0	980
2017/06/25 05:32:00	BASE	10.28	316	11.01	318	-1.2	99	-1.3	0	0	987.9	NA	0.0000	BR	5000	0	0	0	1020
2017/06/25 05:33:00	BASE	10.32	315	11.11	312	-1.2	99	-1.3	0	0	987.9	NA	0.0000	UP BR	5000	0	0	0	1050
2017/06/25 05:34:00	BASE	10.40	314	11.11	312	-1.2	99	-1.3	0	0	987.9	NA	0.0000	UP BR	5000	0	0	0	1020
2017/06/25 05:35:00	BASE	10.19	314	11.11	312	-1.2	99	-1.3	0	0	987.9	NA	0.0000	UP BR	5000	0	0	0	890
2017/06/25 05:36:00	BASE	9.82	314	11.11	312	-1.2	99	-1.3	0	0	987.9	NA	0.0000	UP BR	4700	0	0	0	1440
2017/06/25 05:37:00	BASE	9.85	314	11.11	312	-1.2	99	-1.3	0	0	987.9	NA	0.0000	UP BR	4500	0	0	0	1280
2017/06/25 05:38:00	BASE	9.98	314	11.11	312	-1.2	99	-1.3	0	0	987.9	NA	0.0000	UP BR	5000	0	0	0	2130
2017/06/25 05:39:00	BASE	9.51	315	11.11	312	-1.2	99	-1.3	0	0	987.9	NA	0.0000	UP BR	5000	360	0	0	0
2017/06/25 05:40:00	BASE	8.85	315	11.11	312	-1.2	99	-1.3	0	0	987.9	NA	0.0000	UP BR	5000	330	0	0	0
2017/06/25 05:41:00	BASE	8.53	315	11.11	312	-1.2	99	-1.3	0	0	987.9	NA	0.0000	UP BR	6000	330	0	0	0
2017/06/25 05:42:00	BASE	8.80	314	11.11	312	-1.2	99	-1.3	0	0	987.9	NA	0.0000	UP BR	9999	300	0	0	0
2017/06/25 05:43:00	BASE	8.81	315	11.06	317	-1.2	99	-1.3	0	0	987.8	NA	0.0000	UP BR	9999	260	0	0	0
2017/06/25 05:44:00	BASE	8.59	316	10.91	319	-1.2	99	-1.3	0	0	987.9	NA	0.0000	UP BR	9999	230	0	0	0
2017/06/25 05:45:00	BASE	8.44	314	10.75	310	-1.2	99	-1.3	0	0	987.9	NA	0.0000	UP BR	9999	260	0	0	0
2017/06/25 05:46:00	BASE	8.54	313	10.75	310	-1.2	99	-1.3	0	0	987.8	NA	0.0000	UP BR	9000	200	0	0	0
2017/06/25 05:47:00	BASE	8.94	313	10.75	310	-1.2	99	-1.3	0	0	987.8	NA	0.0000	UP BR	8000	200	0	0	0
2017/06/25 05:48:00	BASE	8.76	312	9.93	315	-1.2	99	-1.3	0	0	987.8	NA	0.0000	UP BR	8000	230	0	0	0
2017/06/25 05:49:00	BASE	8.44	309	9.52	311	-1.2	99	-1.3	0	0	987.8	NA	0.0000	UP BR	8000	260	0	0	0
2017/06/25 05:50:00	BASE	8.45	308	9.52	311	-1.2	99	-1.3	0	0	987.7	NA	0.0000	UP BR	8000	0	0	0	950
2017/06/25 05:51:00	BASE	8.52	310	9.52	311	-1.2	99	-1.3	0	0	987.7	NA	0.0000	UP BR	8000	0	0	0	1640
2017/06/25 05:52:00	BASE	8.49	312	9.52	311	-1.2	99	-1.3	0	0	987.7	NA	0.0000	UP BR	8000	200	0	0	0
2017/06/25 05:53:00	BASE	8.51	312	9.52	304	-1.2	99	-1.3	0	0	987.7	NA	0.0000	UP BR	8000	300	0	0	0
2017/06/25 05:54:00	BASE	8.79	309	9.98	305	-1.2	99	-1.3	0	0	987.7	NA	0.0000	UP BR	8000	260	0	0	0
2017/06/25 05:55:00	BASE	9.00	307	9.98	305	-1.2	99	-1.3	0	0	987.7	NA	0.0000	UP BR	8000	230	0	0	0
2017/06/25 05:56:00	BASE	9.79	309	11.99	314	-1.2	99	-1.3	0	0	987.6	NA	0.0000	UP BR	8000	0	0	0	1740
2017/06/25 05:57:00	BASE	10.36	309	11.99	314	-1.2	99	-1.3	0	0	987.5	NA	0.0000	BR	8000	560	1250	0	0
2017/06/25 05:58:00	BASE	9.73	303	11.99	314	-1.2	99	-1.3	0	0	987.6	NA	0.0000	BR	9000	490	0	0	0
2017/06/25 05:59:00	BASE	9.53	303	11.99	317	-1.2	99	-1.3	0	0	987.6	NA	0.0000	BR	9999	460	0	0	0
2017/06/25 06:00:00	BASE	10.38	310	12.14	306	-1.2	99	-1.3	0	0	987.5	NA	0.0000	BR	9999	660	0	0	0
2017/06/25 06:01:00	BASE	10.67	312	12.14	306	-1.2	99	-1.3	0	0	987.6	NA	0.0000	BR	9999	690	0	0	0
2017/06/25 06:02:00	BASE	10.67	309	12.14	308	-1.2	99	-1.3	0	0	987.6	NA	0.0000	BR	9999	720	0	0	0
2017/06/25 06:03:00	BASE	10.42	305	12.14	308	-1.2	99	-1.4	0	0	987.6	NA	0.0000	BR	9999	1410	0	0	0
2017/06/25 06:04:00	BASE	10.23	306	12.14	308	-1.2	99	-1.4	0	0	987.5	NA	0.0000		9999	790	0	0	0
2017/06/25 06:05:00	BASE	10.37	308	12.14	308	-1.2	98	-1.4	0	0	987.6	NA	0.0000		9999	1150	1670	0	0
2017/06/25 06:06:00	BASE	10.56	309	13.22	303	-1.2	98	-1.4	0	0	987.6	NA	0.0000		9999	1180	0	0	0
2017/06/25 06:07:00	BASE	10.62	309	13.22	303	-1.2	98	-1.5	0	0	987.6	NA	0.0000		9999	750	0	0	0
2017/06/25 06:08:00	BASE	10.25	309	13.22	303	-1.2	98	-1.5	0	0	987.6	NA	0.0000		9999	890	1870	0	0
2017/06/25 06:09:00	BASE	9.67	310	13.22	303	-1.2	98	-1.5	0	0	987.7	NA	0.0000		9999	850	0	0	0
2017/06/25 06:10:00	BASE	9.29	310	13.22	303	-1.2	98	-1.5	0	0	987.6	NA	0.0000		9999	920	0	0	0
2017/06/25 06:11:00	BASE	9.26	309	13.22	303	-1.2	98	-1.5	0	0	987.7	NA	0.0000		9999	750	0	0	0
2017/06/25 06:12:00	BASE	9.68	308	13.22	303	-1.2	98	-1.5	0	0	987.6	NA	0.0000		9999	790	0	0	0
2017/06/25 06:13:00	BASE	10.03	309	13.22	303	-1.2	98	-1.5	0	0	987.6	NA	0.0000		9999	750	0	0	0
2017/06/25 06:14:00	BASE	9.62	309	13.22	303	-1.2	98	-1.5	0	0	987.6	NA	0.0000		9999	890	1510	0	0
2017/06/25 06:15:00	BASE	9.63	309	13.22	303	-1.2	98	-1.5	0	0	987.6	NA	0.0000		9999	720	0	0	0
2017/06/25 06:16:00	BASE	9.93	309	11.83	305	-1.2	98	-1.5	0	0	987.6	NA	0.0000		9999	750	1570	0	0
2017/06/25 06:17:00	BASE	10.12	309	11.42	309	-1.2	98	-1.5	0	0	987.5	NA	0.0000		9999	1250	0	0	0
2017/06/25 06:18:00	BASE	9.75	309	11.42	309	-1.2	98	-1.5	0	0	987.6	NA	0.0000		9999	1150	1740	0	0
2017/06/25 06:19:00	BASE	9.30	309	11.42	309	-1.2	98	-1.5	0	0	987.6	NA	0.0000		9999	980	0	0	0
2017/06/25 06:20:00	BASE	8.98	309	11.42	309	-1.2	98	-1.5	0	0	987.6	NA	0.0000		9999	1180	0	0	0
2017/06/25 06:21:00	BASE	8.89	308	11.42	309	-1.2	98	-1.5	0	0	987.5	NA	0.0000		9999	1080	0	0	0
2017/06/25 06:22:00	BASE	9.01	306	10.85	305	-1.2	98	-1.5	0	0	987.6	NA	0.0000		9999	1080	0	0	0
2017/06/25 06:23:00	BASE	9.11	305	10.80	311	-1.2	98	-1.5	0	0	987.6	NA	0.0000		9999	950	0	0	0
2017/06/25 06:24:00	BASE	9.24	305	10.91	303	-1.2	98	-1.5	0	0	987.5	NA	0.0000		9999	1020	0	0	0
2017/06/25 06:25:00	BASE	9.19	307	10.91	303	-1.2	98	-1.5	0	0	987.6	NA	0.0000		9999	1050	1970	0	0
2017/06/25 06:26:00	BASE	9.21	308	10.91	303	-1.2	98	-1.5	0	0	987.6	NA	0.0000		9999	1870	0	0	0
2017/06/25 06:27:00	BASE	9.39	306	10.91	303	-1.2	98	-1.5	0	0	987.6	NA	0.0000		9999	620	1740	0	0
2017/06/25 06:28:00	BASE	9.18	303	10.91	303	-1.2	98	-1.6	0	0	987.6	NA	0.0000		9999	490	0	0	0
2017/06/25 06:29:00	BASE	9.26	302	10.91	303	-1.3	97	-1.6	0	0	987.6	NA	0.0000		9999	560	0	0	0
2017/06/25 06:30:00	BASE	10.18	300	11.68	296	-1.3	97	-1.7	0	0	987.5	NA	0.0000		9999	460	0	0	0
2017/06/25 06:31:00	BASE	10.97	298	12.45	289	-1.3	97	-1.7	0	0	987.4	NA	0.0000		9999	520	0	0	0
2017/06/25 06:32:00	BASE	10.89	295	12.45	289	-1.3	97	-1.8	0	0	987.5	NA	0.0000		9999	1150	0	0	0
2017/06/25 06:33:00	BASE	10.31	296	12.45	289	-1.3	96	-1.8	0	0	987.5	NA	0.0000		9999	820	0	0	0
2017/06/25 06:34:00	BASE	10.18	297	12.45	289	-1.4	96	-1.9	0	0	987.6	NA	0.0000		9999	920	0	0	0
2017/06/25 06:35:00	BASE	9.89	295	12.45	289	-1.4	96	-1.9	0	0	987.6	NA	0.0000		9999	390	0	0	0
2017/06/25 06:36:00	BASE	9.49	296	12.45	289	-1.4	96	-2.0	0	0	987.6	NA	0.0000		9999	720	0	0	0
2017/06/25 06:37:00	BASE	9.34	296	12.45	289	-1.4	96	-2.0	0	0	987.7	NA	0.0000		9999	980	0	0	0
2017/06/25 06:38:00	BASE	8.95	294	12.45	289	-1.4	96	-2.0	0	0	987.7	NA	0.0000		9999	1480	0	0	0
2017/06/25 06:39:00	BASE	8.54	295	12.45	289	-1.4	96	-2.0	0	0	987.7	NA	0.0000		9999	1640	0	0	0
2017/06/25 06:40:00	BASE	8.08	297	12.45	289	-1.4	96	-2.0	0	0	987.7	NA	0.0000		9999	1610	0	0	0
2017/06/25 06:41:00	BASE	8.23	296	11.16	296	-1.4	96	-2.0	0	0	987.7	NA	0.0000		9999	1380	0	0	0
2017/06/25 06:42:00	BASE	8.25	295	10.85	290	-1.4	96	-2.0	0	0	987.7	NA	0.0000		9999	1510	0	0	0
2017/06/25 06:43:00	BASE	8.27	294	10.85	290	-1.4	96	-2.0	0	0	987.7	NA	0.0000		9999	1380	0	0	0
2017/06/25 06:44:00	BASE	8.85	294	10.75	293	-1.4	96	-2.0	0	0	987.7	NA	0.0000		9999	1540	0	0	0
2017/06/25 06:45:00	BASE	8.49	295	10.75	293	-1.4	96	-2.0	0	0	987.7	NA	0.0000		9999	1410	0	0	0
2017/06/25 06:46:00	BASE	7.83	297	10.39	294	-1.4	96	-2.0	0	0	987.8	NA	0.0000		9999	1710	0	0	0
2017/06/25 06:47:00	BASE	8.33	298	9.88	301	-1.4	96	-2.0	0	0	987.8	NA	0.0000		9999	1710	2260	0	0
2017/06/25 06:48:00	BASE	8.91	298	9.88	301	-1.4	96	-2.0	0	0	987.8	NA	0.0000		9999	1610	2360	0	0
2017/06/25 06:49:00	BASE	8.87	298	10.44	297	-1.4	96	-2.0	0	0	987.8	NA	0.0000		9999	1510	0	0	0
2017/06/25 06:50:00	BASE	9.05	298	10.44	297	-1.4	96	-2.0	0	0	987.8	NA	0.0000		9999	1350	0	0	0
2017/06/25 06:51:00	BASE	9.18	298	10.44	297	-1.4	96	-2.0	0	0	987.8	NA	0.0000		9999	1480	0	0	0
2017/06/25 06:52:00	BASE	8.68	299	10.44	297	-1.4	96	-2.0	0	0	987.8	NA	0.0000		9999	1350	0	0	0
2017/06/25 06:53:00	BASE	8.41	299	10.44	297	-1.4	96	-2.0	0	0	987.8	NA	0.0000		9999	1510	0	0	0
2017/06/25 06:54:00	BASE	8.80	299	10.44	297	-1.4	96	-2.0	0	0	987.8	NA	0.0000		9999	1740	0	0	0
2017/06/25 06:55:00	BASE	9.06	298	10.44	297	-1.4	96	-2.0	0	0	987.8	NA	0.0000		9999	1440	0	0	0
2017/06/25 06:56:00	BASE	9.11	296	10.44	297	-1.4	96	-2.0	0	0	987.8	NA	0.0000		9999	1480	2260	0	0
2017/06/25 06:57:00	BASE	8.90	295	10.44	297	-1.4	96	-2.0	0	0	987.8	NA	0.0000		9999	1410	2100	2620	0
2017/06/25 06:58:00	BASE	8.59	295	10.44	297	-1.4	95	-2.0	0	0	987.8	NA	0.0000		9999	1350	2360	0	0
2017/06/25 06:59:00	BASE	8.79	297	10.24	299	-1.4	95	-2.1	0	0	987.8	NA	0.0000		9999	1180	0	0	0
2017/06/25 07:00:00	BASE	8.73	297	10.24	299	-1.4	95	-2.1	0	0	987.8	NA	0.0000		9999	590	0	0	0
2017/06/25 07:01:00	BASE	8.28	296	9.88	299	-1.4	95	-2.1	0	0	987.9	NA	0.0000		9999	430	0	0	0
2017/06/25 07:02:00	BASE	8.35	296	9.88	299	-1.4	95	-2.1	0	0	987.8	NA	0.0000		9999	430	0	0	0
2017/06/25 07:03:00	BASE	8.23	296	9.88	299	-1.4	95	-2.1	0	0	987.9	NA	0.0000		9999	390	0	0	0
2017/06/25 07:04:00	BASE	8.14	297	9.88	299	-1.4	95	-2.1	0	0	987.9	NA	0.0000		9999	1250	0	0	0
2017/06/25 07:05:00	BASE	8.64	297	9.88	299	-1.4	96	-2.0	0	0	987.8	NA	0.0000		9999	1210	0	0	0
2017/06/25 07:06:00	BASE	8.85	296	9.88	299	-1.4	96	-2.0	0	0	987.8	NA	0.0000		9999	1280	0	0	0
2017/06/25 07:07:00	BASE	8.49	299	9.88	299	-1.4	96	-2.0	0	0	987.9	NA	0.0000		9999	1280	0	0	0
2017/06/25 07:08:00	BASE	8.18	302	9.88	299	-1.4	96	-2.0	0	0	987.9	NA	0.0000		9999	1050	0	0	0
2017/06/25 07:09:00	BASE	8.14	301	9.72	297	-1.4	95	-2.0	0	0	987.9	NA	0.0000		9999	750	0	0	0
2017/06/25 07:10:00	BASE	8.78	297	10.03	292	-1.4	95	-2.1	0	0	987.8	NA	0.0000		9999	330	0	0	0
2017/06/25 07:11:00	BASE	9.41	294	10.24	295	-1.4	95	-2.1	0	0	987.8	NA	0.0000		9999	300	0	0	0
2017/06/25 07:12:00	BASE	9.20	291	10.34	288	-1.4	95	-2.1	0	0	987.8	NA	0.0000		9999	330	2030	0	0
2017/06/25 07:13:00	BASE	8.60	292	10.34	288	-1.4	95	-2.1	0	0	987.8	NA	0.0000		9999	1080	0	0	0
2017/06/25 07:14:00	BASE	8.44	296	10.34	288	-1.4	95	-2.1	0	0	987.8	NA	0.0000		9999	1250	0	0	0
2017/06/25 07:15:00	BASE	8.95	296	10.34	295	-1.5	95	-2.1	0	0	987.7	NA	0.0000		9999	1150	0	0	0
2017/06/25 07:16:00	BASE	8.97	296	10.34	295	-1.5	95	-2.2	0	0	987.8	NA	0.0000		9999	1250	0	0	0
2017/06/25 07:17:00	BASE	8.61	297	10.34	295	-1.5	95	-2.2	0	0	987.7	NA	0.0000		9999	820	0	0	0
2017/06/25 07:18:00	BASE	8.74	297	10.34	295	-1.5	95	-2.2	0	0	987.6	NA	0.0000		9999	490	0	0	0
2017/06/25 07:19:00	BASE	9.19	298	10.65	298	-1.5	95	-2.2	0	0	987.5	NA	0.0000		9999	360	0	0	0
2017/06/25 07:20:00	BASE	10.05	299	11.57	296	-1.5	95	-2.2	0	0	987.4	NA	0.0000		9999	360	0	0	0
2017/06/25 07:21:00	BASE	10.42	297	11.57	296	-1.5	95	-2.2	0	0	987.4	NA	0.0000		9999	300	0	0	0
2017/06/25 07:22:00	BASE	9.62	296	11.57	296	-1.5	95	-2.2	0	0	987.4	NA	0.0000		9999	330	0	0	0
2017/06/25 07:23:00	BASE	8.39	299	11.57	296	-1.5	95	-2.1	0	0	987.5	NA	0.0000		9999	300	0	0	0
2017/06/25 07:24:00	BASE	7.84	302	11.57	296	-1.5	96	-2.1	0	0	987.5	NA	0.0000		9999	360	0	0	0
2017/06/25 07:25:00	BASE	8.02	302	11.57	296	-1.5	96	-2.1	0	0	987.5	NA	0.0000		9999	330	1180	0	0
2017/06/25 07:26:00	BASE	8.36	302	11.57	296	-1.5	96	-2.0	0	0	987.5	NA	0.0000		9999	360	1510	0	0
2017/06/25 07:27:00	BASE	9.05	304	11.57	296	-1.5	97	-2.0	0	0	987.5	NA	0.0000		9999	300	0	0	0
2017/06/25 07:28:00	BASE	8.54	304	11.57	296	-1.5	97	-1.9	0	0	987.5	NA	0.0000		9999	330	0	0	0
2017/06/25 07:29:00	BASE	8.14	303	11.57	296	-1.5	97	-1.9	0	0	987.5	NA	0.0000		9999	390	0	0	0
2017/06/25 07:30:00	BASE	8.53	304	10.80	289	-1.5	97	-1.9	0	0	987.4	NA	0.0000		9999	390	0	0	0
2017/06/25 07:31:00	BASE	8.64	306	10.55	303	-1.5	97	-1.9	0	0	987.4	NA	0.0000		9999	330	0	0	0
2017/06/25 07:32:00	BASE	8.64	306	10.55	303	-1.5	97	-1.9	0	0	987.5	NA	0.0000		9999	300	0	0	0
2017/06/25 07:33:00	BASE	8.11	308	10.55	303	-1.5	97	-1.9	0	0	987.5	NA	0.0000		9999	260	0	0	0
2017/06/25 07:34:00	BASE	8.15	305	10.55	303	-1.5	97	-1.9	0	0	987.5	NA	0.0000		9999	260	0	0	0
2017/06/25 07:35:00	BASE	8.08	304	10.55	303	-1.5	97	-1.9	0	0	987.5	NA	0.0000	UP	9999	230	0	0	0
2017/06/25 07:36:00	BASE	7.37	306	10.55	303	-1.4	97	-1.8	0	0	987.5	NA	0.0000	UP	9999	230	0	0	0
2017/06/25 07:37:00	BASE	7.09	308	9.62	305	-1.4	97	-1.8	0	0	987.5	NA	0.0000	UP	9999	300	0	0	0
2017/06/25 07:38:00	BASE	7.41	308	9.62	305	-1.4	97	-1.8	0	0	987.4	NA	0.0000	UP	9999	300	0	0	0
2017/06/25 07:39:00	BASE	7.69	309	9.62	305	-1.4	97	-1.8	0	0	987.4	NA	0.0000	UP	9999	330	0	0	0
2017/06/25 07:40:00	BASE	8.33	312	10.03	311	-1.4	97	-1.8	0	0	987.4	NA	0.0000	UP	9999	360	0	0	0
2017/06/25 07:41:00	BASE	8.61	313	10.03	311	-1.4	97	-1.8	0	0	987.4	NA	0.0000	UP	9999	820	0	0	0
2017/06/25 07:42:00	BASE	8.42	314	10.03	311	-1.4	98	-1.7	0	0	987.4	NA	0.0000	UP	9999	820	0	0	0
2017/06/25 07:43:00	BASE	8.69	314	10.03	311	-1.4	98	-1.7	0	0	987.4	NA	0.0000	UP	9999	750	0	0	0
2017/06/25 07:44:00	BASE	8.85	314	10.03	311	-1.4	98	-1.7	0	0	987.3	NA	0.0000	UP	9999	660	0	0	0
2017/06/25 07:45:00	BASE	8.88	315	10.03	311	-1.4	98	-1.7	0	0	987.3	NA	0.0000	UP	9999	520	0	0	0
2017/06/25 07:46:00	BASE	9.31	314	10.49	314	-1.4	97	-1.8	0	0	987.3	NA	0.0000	UP	9999	430	0	0	0
2017/06/25 07:47:00	BASE	9.84	314	10.60	315	-1.4	97	-1.8	0	0	987.3	NA	0.0000	UP	9999	390	0	0	0
2017/06/25 07:48:00	BASE	10.10	315	11.32	317	-1.4	97	-1.8	0	0	987.2	NA	0.0000		9999	330	0	0	0
2017/06/25 07:49:00	BASE	10.05	314	11.32	317	-1.4	97	-1.8	0	0	987.2	NA	0.0000		9999	330	0	0	0
2017/06/25 07:50:00	BASE	9.66	312	11.32	317	-1.4	98	-1.7	0	0	987.2	NA	0.0000		9999	300	0	0	0
2017/06/25 07:51:00	BASE	9.30	310	11.32	317	-1.4	98	-1.7	0	0	987.2	NA	0.0000		9999	330	0	0	0
2017/06/25 07:52:00	BASE	9.55	311	11.32	317	-1.4	98	-1.7	0	0	987.1	NA	0.0000		9999	300	0	0	0
2017/06/25 07:53:00	BASE	9.62	312	11.32	317	-1.4	98	-1.7	0	0	987.2	NA	0.0000		9999	330	0	0	0
2017/06/25 07:54:00	BASE	9.46	312	11.32	317	-1.4	98	-1.6	0	0	987.1	NA	0.0000		9999	300	0	0	0
2017/06/25 07:55:00	BASE	9.07	309	11.32	317	-1.4	98	-1.6	0	0	987.2	NA	0.0000		9999	300	0	0	0
2017/06/25 07:56:00	BASE	8.71	310	11.32	317	-1.3	98	-1.6	0	0	987.1	NA	0.0000		9999	330	0	0	0
2017/06/25 07:57:00	BASE	8.89	313	11.32	317	-1.3	98	-1.6	0	0	987.1	NA	0.0000		9999	300	0	0	0
2017/06/25 07:58:00	BASE	8.97	314	10.75	315	-1.3	98	-1.6	0	0	987.1	NA	0.0000		9999	300	0	0	0
2017/06/25 07:59:00	BASE	8.89	314	10.75	315	-1.3	98	-1.6	0	0	987.1	NA	0.0000		9999	300	0	0	0
2017/06/25 08:00:00	BASE	8.39	314	10.75	315	-1.3	98	-1.6	0	0	987.1	NA	0.0000		9999	330	0	0	0
2017/06/25 08:01:00	BASE	8.34	315	10.75	315	-1.3	98	-1.6	0	0	987.0	NA	0.0000		9999	300	0	0	0
2017/06/25 08:02:00	BASE	8.41	315	10.75	315	-1.3	98	-1.6	0	0	987.1	NA	0.0000		9999	300	0	0	0
2017/06/25 08:03:00	BASE	8.30	314	10.75	315	-1.3	98	-1.6	0	0	987.0	NA	0.0000		9999	330	0	0	0
2017/06/25 08:04:00	BASE	8.22	312	9.67	313	-1.3	98	-1.6	0	0	987.0	NA	0.0000		9999	330	1310	0	0
2017/06/25 08:05:00	BASE	7.59	315	9.67	313	-1.3	98	-1.6	0	0	987.0	NA	0.0000		9999	330	0	0	0
2017/06/25 08:06:00	BASE	7.57	316	9.67	313	-1.3	98	-1.5	0	0	986.9	NA	0.0000		9999	330	0	0	0
2017/06/25 08:07:00	BASE	8.15	314	9.67	313	-1.3	99	-1.5	0	0	986.9	NA	0.0000		9999	330	0	0	0
2017/06/25 08:08:00	BASE	7.94	314	9.67	313	-1.3	99	-1.5	0	0	986.9	NA	0.0000		9999	330	0	0	0
2017/06/25 08:09:00	BASE	7.76	315	9.31	313	-1.3	99	-1.4	0	0	986.8	NA	0.0000		9999	330	0	0	0
2017/06/25 08:10:00	BASE	7.77	313	9.31	313	-1.3	99	-1.5	0	0	986.8	NA	0.0000		9999	330	0	0	0
2017/06/25 08:11:00	BASE	7.18	314	9.31	313	-1.3	99	-1.5	0	0	986.8	NA	0.0000		9999	330	0	0	0
2017/06/25 08:12:00	BASE	6.74	318	9.31	313	-1.3	98	-1.5	0	0	986.9	NA	0.0000		9999	330	0	0	0
2017/06/25 08:13:00	BASE	6.66	318	9.05	315	-1.3	98	-1.5	0	0	986.8	NA	0.0000		9999	330	0	0	0
2017/06/25 08:14:00	BASE	6.58	316	9.05	315	-1.3	98	-1.5	0	0	986.8	NA	0.0000		9999	330	0	0	0
2017/06/25 08:15:00	BASE	6.74	315	9.05	315	-1.3	99	-1.5	0	0	986.8	NA	0.0000		9999	330	0	0	0
2017/06/25 08:16:00	BASE	6.64	315	9.05	315	-1.3	99	-1.5	0	0	986.7	NA	0.0000		9999	330	0	0	0
2017/06/25 08:17:00	BASE	6.01	318	8.64	313	-1.3	99	-1.5	0	0	986.8	NA	0.0000		9999	330	0	0	0
2017/06/25 08:18:00	BASE	6.03	321	8.64	313	-1.3	99	-1.5	0	0	986.8	NA	0.0000		9999	300	0	0	0
2017/06/25 08:19:00	BASE	6.16	321	8.64	313	-1.3	99	-1.5	0	0	986.7	NA	0.0000		9999	300	0	0	0
2017/06/25 08:20:00	BASE	6.24	320	7.77	312	-1.3	99	-1.4	0	0	986.7	NA	0.0000		9999	300	0	0	0
2017/06/25 08:21:00	BASE	6.58	320	7.77	312	-1.2	99	-1.4	0	0	986.6	NA	0.0000		9999	300	0	0	0
2017/06/25 08:22:00	BASE	6.28	318	7.77	312	-1.2	99	-1.4	0	0	986.6	NA	0.0000		9999	260	0	0	0
2017/06/25 08:23:00	BASE	6.04	316	7.77	312	-1.2	99	-1.3	0	0	986.6	NA	0.0000		9999	260	0	0	0
2017/06/25 08:24:00	BASE	6.09	320	7.77	312	-1.2	99	-1.3	0	0	986.5	NA	0.0000		9999	300	0	0	0
2017/06/25 08:25:00	BASE	6.33	319	7.61	312	-1.2	99	-1.3	0	0	986.5	NA	0.0000		9999	300	0	0	0
2017/06/25 08:26:00	BASE	6.97	316	8.08	313	-1.2	99	-1.4	0	0	986.3	NA	0.0000		9999	260	0	0	0
2017/06/25 08:27:00	BASE	7.15	315	8.08	313	-1.2	99	-1.4	0	0	986.4	NA	0.0000		9999	230	0	0	0
2017/06/25 08:28:00	BASE	6.73	314	8.08	313	-1.3	99	-1.4	0	0	986.4	NA	0.0000		9999	260	0	0	0
2017/06/25 08:29:00	BASE	6.57	316	8.08	313	-1.3	99	-1.4	0	0	986.4	NA	0.0000		9999	260	0	0	0
2017/06/25 08:30:00	BASE	6.47	317	8.08	313	-1.3	99	-1.4	0	0	986.3	NA	0.0000		9999	260	0	0	0
2017/06/25 08:31:00	BASE	6.47	316	8.08	313	-1.3	99	-1.4	0	0	986.3	NA	0.0000		9999	260	0	0	0
2017/06/25 08:32:00	BASE	6.96	313	8.08	313	-1.3	99	-1.4	0	0	986.2	NA	0.0000		9999	260	0	0	0
2017/06/25 08:33:00	BASE	7.26	311	8.08	313	-1.3	99	-1.4	0	0	986.2	NA	0.0000		9999	260	0	0	0
2017/06/25 08:34:00	BASE	6.85	311	8.08	313	-1.3	99	-1.4	0	0	986.2	NA	0.0000		9999	260	0	0	0
2017/06/25 08:35:00	BASE	6.47	313	8.08	313	-1.3	99	-1.4	0	0	986.3	NA	0.0000		9999	230	0	0	0
2017/06/25 08:36:00	BASE	6.45	314	7.97	312	-1.3	99	-1.4	0	0	986.2	NA	0.0000		9000	260	0	0	0
2017/06/25 08:37:00	BASE	6.63	315	7.97	312	-1.3	99	-1.4	0	0	986.2	NA	0.0000		9000	230	0	0	0
2017/06/25 08:38:00	BASE	6.53	314	7.97	312	-1.3	99	-1.4	0	0	986.2	NA	0.0000		9000	230	0	0	0
2017/06/25 08:39:00	BASE	6.07	313	7.97	312	-1.3	99	-1.4	0	0	986.3	NA	0.0000	BR	9000	230	0	0	0
2017/06/25 08:40:00	BASE	6.03	313	7.97	312	-1.3	99	-1.4	0	0	986.2	NA	0.0000	BR	8000	230	0	0	0
2017/06/25 08:41:00	BASE	6.28	312	7.97	312	-1.3	99	-1.4	0	0	986.2	NA	0.0000	BR	8000	200	0	0	0
2017/06/25 08:42:00	BASE	6.45	313	7.61	315	-1.3	99	-1.4	0	0	986.1	NA	0.0000	BR	9000	260	0	0	0
2017/06/25 08:43:00	BASE	6.61	311	7.41	320	-1.3	99	-1.4	0	0	986.0	NA	0.0000	BR	9000	260	0	0	0
2017/06/25 08:44:00	BASE	6.42	309	7.41	320	-1.3	99	-1.4	0	0	986.1	NA	0.0000	BR	9000	260	0	0	0
2017/06/25 08:45:00	BASE	6.16	310	7.20	317	-1.2	99	-1.4	0	0	986.1	NA	0.0000	BR	9999	260	0	0	0
2017/06/25 08:46:00	BASE	5.89	312	7.15	315	-1.2	99	-1.4	0	0	986.1	NA	0.0000	BR	9000	260	0	0	0
2017/06/25 08:47:00	BASE	5.53	313	7.05	310	-1.2	99	-1.3	0	0	986.2	NA	0.0000	BR	9000	260	0	0	0
2017/06/25 08:48:00	BASE	5.54	314	7.05	310	-1.2	99	-1.3	0	0	986.1	NA	0.0000	BR	9000	260	0	0	0
2017/06/25 08:49:00	BASE	5.69	314	7.05	310	-1.2	99	-1.3	0	0	986.1	NA	0.0000	BR	9999	300	0	0	0
2017/06/25 08:50:00	BASE	5.65	312	7.05	310	-1.2	99	-1.3	0	0	986.0	NA	0.0000	BR	9999	330	0	0	0
2017/06/25 08:51:00	BASE	5.32	311	7.05	310	-1.2	99	-1.4	0	0	986.0	NA	0.0000	BR	9999	330	0	0	0
2017/06/25 08:52:00	BASE	5.32	311	7.05	310	-1.2	99	-1.4	0	0	985.9	NA	0.0000	BR	9999	330	0	0	0
2017/06/25 08:53:00	BASE	5.38	313	6.74	312	-1.3	99	-1.4	0	0	985.9	NA	0.0000	BR	9999	300	0	0	0
2017/06/25 08:54:00	BASE	5.27	314	6.74	312	-1.3	99	-1.4	0	0	985.9	NA	0.0000	BR	9999	300	0	0	0
2017/06/25 08:55:00	BASE	5.05	313	6.28	316	-1.2	99	-1.4	0	0	985.9	NA	0.0000		9999	300	0	0	0
2017/06/25 08:56:00	BASE	5.08	313	6.28	316	-1.2	99	-1.4	0	0	985.8	NA	0.0000		9999	300	0	0	0
2017/06/25 08:57:00	BASE	5.25	315	6.28	316	-1.2	99	-1.3	0	0	985.8	NA	0.0000		9999	260	0	0	0
2017/06/25 08:58:00	BASE	5.31	315	6.28	316	-1.2	99	-1.3	0	0	985.6	NA	0.0000		9999	260	0	0	0
2017/06/25 08:59:00	BASE	5.19	315	6.02	318	-1.2	99	-1.3	0	0	985.8	NA	0.0000		9999	260	0	0	0
2017/06/25 09:00:00	BASE	5.05	315	6.02	318	-1.1	99	-1.3	0	0	985.7	NA	0.0000		9999	300	0	0	0
2017/06/25 09:01:00	BASE	4.77	315	6.02	318	-1.1	99	-1.3	0	0	985.8	NA	0.0000		9999	260	0	0	0
2017/06/25 09:02:00	BASE	4.60	315	6.02	318	-1.1	99	-1.2	0	0	985.6	NA	0.0000		9999	260	0	0	0
2017/06/25 09:03:00	BASE	4.57	316	6.02	318	-1.1	99	-1.2	0	0	985.7	NA	0.0000		9999	260	0	0	0
2017/06/25 09:04:00	BASE	4.42	315	6.02	318	-1.1	99	-1.2	0	0	985.6	NA	0.0000	UP	9000	260	0	0	0
2017/06/25 09:05:00	BASE	4.42	313	6.02	318	-1.1	99	-1.2	0	0	985.6	NA	0.0000	UP	7000	260	0	0	0
2017/06/25 09:06:00	BASE	4.19	314	6.02	318	-1.1	99	-1.3	0	0	985.7	NA	0.0000	UP BR	6000	230	0	0	0
2017/06/25 09:07:00	BASE	3.99	315	5.86	315	-1.1	99	-1.3	0	0	985.7	NA	0.0000	UP BR	5000	0	0	0	1770
2017/06/25 09:08:00	BASE	3.86	315	5.50	316	-1.2	99	-1.3	0	0	985.7	NA	0.0000	UP BR	5000	0	0	0	1770
2017/06/25 09:09:00	BASE	3.78	316	5.50	316	-1.2	99	-1.3	0	0	985.7	NA	0.0000	UP BR	5000	0	0	0	1840
2017/06/25 09:10:00	BASE	3.90	315	5.04	311	-1.2	99	-1.3	0	0	985.5	NA	0.0000	UP BR	5000	0	0	0	1710
2017/06/25 09:11:00	BASE	4.00	314	5.04	311	-1.2	99	-1.3	0	0	985.6	NA	0.0000	UP BR	5000	0	0	0	1610
2017/06/25 09:12:00	BASE	3.71	317	4.89	312	-1.2	99	-1.3	0	0	985.7	NA	0.0000	UP BR	5000	0	0	0	1610
2017/06/25 09:13:00	BASE	3.40	316	4.89	312	-1.2	99	-1.4	0	0	985.7	NA	0.0000	UP BR	6000	200	0	0	0
2017/06/25 09:14:00	BASE	3.56	314	4.73	315	-1.2	99	-1.4	0	0	985.6	NA	0.0000	UP BR	6000	260	0	0	0
2017/06/25 09:15:00	BASE	4.00	314	4.68	312	-1.2	99	-1.4	0	0	985.4	NA	0.0000	UP BR	6000	260	0	0	0
2017/06/25 09:16:00	BASE	4.06	313	4.68	312	-1.3	99	-1.4	0	0	985.6	NA	0.0000	UP BR	6000	230	0	0	0
2017/06/25 09:17:00	BASE	3.81	314	4.68	312	-1.2	99	-1.4	0	0	985.7	NA	0.0000	UP BR	6000	260	0	0	0
2017/06/25 09:18:00	BASE	3.85	313	4.68	312	-1.2	99	-1.4	0	0	985.6	NA	0.0000	UP BR	5000	0	0	0	1210
2017/06/25 09:19:00	BASE	3.93	313	4.68	312	-1.2	99	-1.4	0	0	985.6	NA	0.0000	UP BR	5000	0	0	0	1640
2017/06/25 09:20:00	BASE	3.92	314	4.68	312	-1.2	99	-1.4	0	0	985.6	NA	0.0000	UP BR	4200	0	0	0	1570
2017/06/25 09:21:00	BASE	4.01	315	4.68	312	-1.2	99	-1.4	0	0	985.6	NA	0.0000	UP BR	3600	0	0	0	1380
2017/06/25 09:22:00	BASE	3.91	315	4.68	312	-1.2	99	-1.4	0	0	985.6	NA	0.0000	UP BR	4200	0	0	0	1440
2017/06/25 09:23:00	BASE	3.95	316	4.68	312	-1.2	99	-1.4	0	0	985.6	NA	0.0000	UP BR	4400	0	0	0	1310
2017/06/25 09:24:00	BASE	4.03	316	4.68	312	-1.2	99	-1.4	0	0	985.6	NA	0.0000	UP BR	4300	0	0	0	1210
2017/06/25 09:25:00	BASE	3.86	315	4.37	319	-1.2	99	-1.4	0	0	985.7	NA	0.0000	UP BR	3700	0	0	0	1210
2017/06/25 09:26:00	BASE	3.75	313	4.37	319	-1.2	99	-1.4	0	0	985.6	NA	0.0000	UP BR	3300	0	0	0	1180
2017/06/25 09:27:00	BASE	3.61	314	4.37	319	-1.2	99	-1.4	0	0	985.7	NA	0.0000	UP BR	3100	0	0	0	1020
2017/06/25 09:28:00	BASE	3.70	316	4.37	319	-1.3	99	-1.4	0	0	985.6	NA	0.0000	UP BR	2800	0	0	0	950
2017/06/25 09:29:00	BASE	3.98	315	4.37	319	-1.3	99	-1.4	0	0	985.6	NA	0.0000	UP BR	3000	0	0	0	850
2017/06/25 09:30:00	BASE	3.84	316	4.37	319	-1.3	99	-1.4	0	0	985.7	NA	0.0000	UP BR	2900	0	0	0	850
2017/06/25 09:31:00	BASE	3.55	317	4.37	319	-1.3	99	-1.4	0	0	985.7	NA	0.0000	UP BR	3000	0	0	0	850
2017/06/25 09:32:00	BASE	3.56	318	4.37	319	-1.3	99	-1.4	0	0	985.7	NA	0.0000	UP BR	3800	0	0	0	820
2017/06/25 09:33:00	BASE	3.68	319	4.32	314	-1.3	99	-1.4	0	0	985.7	NA	0.0000	UP BR	3700	0	0	0	820
2017/06/25 09:34:00	BASE	3.66	317	4.27	321	-1.3	99	-1.4	0	0	985.7	NA	0.0000	UP BR	3200	0	0	0	750
2017/06/25 09:35:00	BASE	3.56	316	4.22	316	-1.3	99	-1.4	0	0	985.7	NA	0.0000	UP BR	2800	0	0	0	690
2017/06/25 09:36:00	BASE	3.58	316	4.22	316	-1.3	99	-1.4	0	0	985.7	NA	0.0000	UP BR	3000	0	0	0	790
2017/06/25 09:37:00	BASE	3.84	315	4.27	311	-1.3	99	-1.4	0	0	985.6	NA	0.0000	UP BR	2800	0	0	0	820
2017/06/25 09:38:00	BASE	3.78	317	4.27	311	-1.3	99	-1.4	0	0	985.7	NA	0.0000	UP BR	2800	0	0	0	890
2017/06/25 09:39:00	BASE	3.59	317	4.27	311	-1.3	99	-1.4	0	0	985.7	NA	0.0000	UP BR	3200	0	0	0	920
2017/06/25 09:40:00	BASE	3.62	315	4.27	311	-1.2	99	-1.4	0	0	985.6	NA	0.0000	UP BR	3300	0	0	0	890
2017/06/25 09:41:00	BASE	3.63	316	4.27	311	-1.2	99	-1.4	0	0	985.6	NA	0.0000	UP BR	3300	0	0	0	790
2017/06/25 09:42:00	BASE	3.54	317	4.27	311	-1.2	99	-1.4	0	0	985.7	NA	0.0000	UP BR	3300	0	0	0	850
2017/06/25 09:43:00	BASE	3.59	317	4.27	311	-1.2	99	-1.4	0	0	985.6	NA	0.0000	UP BR	3400	0	0	0	850
2017/06/25 09:44:00	BASE	3.75	319	4.27	311	-1.2	99	-1.4	0	0	985.6	NA	0.0000	UP BR	3900	0	0	0	850
2017/06/25 09:45:00	BASE	3.70	321	4.27	311	-1.2	99	-1.4	0	0	985.6	NA	0.0000	UP BR	4000	0	0	0	890
2017/06/25 09:46:00	BASE	3.72	322	4.27	311	-1.2	99	-1.4	0	0	985.6	NA	0.0000	UP BR	4000	0	0	0	920
2017/06/25 09:47:00	BASE	3.75	321	4.12	324	-1.2	99	-1.4	0	0	985.5	NA	0.0000	UP BR	4300	0	0	0	920
2017/06/25 09:48:00	BASE	3.78	320	4.17	316	-1.2	99	-1.4	0	0	985.5	NA	0.0000	UP BR	4400	0	0	0	950
2017/06/25 09:49:00	BASE	3.79	321	4.17	316	-1.2	99	-1.4	0	0	985.6	NA	0.0000	UP BR	4400	0	0	0	980
2017/06/25 09:50:00	BASE	3.75	321	4.17	316	-1.2	99	-1.4	0	0	985.6	NA	0.0000	UP BR	4300	0	0	0	980
2017/06/25 09:51:01	BASE	3.89	321	4.17	320	-1.2	99	-1.4	0	0	985.5	NA	0.0000	UP BR	4400	0	0	0	1050
2017/06/25 09:52:00	BASE	3.95	321	4.22	326	-1.2	99	-1.4	0	0	985.6	NA	0.0000	UP BR	4600	0	0	0	1120
2017/06/25 09:53:00	BASE	3.84	322	4.22	326	-1.2	99	-1.4	0	0	985.6	NA	0.0000	UP BR	4600	0	0	0	1150
2017/06/25 09:54:00	BASE	3.81	322	4.42	319	-1.2	99	-1.4	0	0	985.6	NA	0.0000	UP BR	4600	0	0	0	1250
2017/06/25 09:55:00	BASE	3.80	321	4.42	319	-1.2	99	-1.4	0	0	985.6	NA	0.0000	UP BR	4600	0	0	0	1350
2017/06/25 09:56:00	BASE	3.70	322	4.42	319	-1.2	99	-1.4	0	0	985.6	NA	0.0000	UP BR	4600	0	0	0	1480
2017/06/25 09:57:00	BASE	3.53	322	4.42	319	-1.2	99	-1.4	0	0	985.6	NA	0.0000	UP BR	4600	0	0	0	1380
2017/06/25 09:58:00	BASE	3.41	322	4.42	319	-1.3	99	-1.4	0	0	985.7	NA	0.0000	UP BR	4600	0	0	0	1350
2017/06/25 09:59:00	BASE	3.58	323	4.42	319	-1.3	99	-1.4	0	0	985.6	NA	0.0000	UP BR	4600	0	0	0	1310
2017/06/25 10:00:00	BASE	3.59	324	4.42	319	-1.3	99	-1.4	0	0	985.6	NA	0.0000	UP BR	4600	0	0	0	1280
2017/06/25 10:01:00	BASE	3.45	323	4.42	319	-1.3	99	-1.4	0	0	985.6	NA	0.0000	UP BR	4600	0	0	0	1150
2017/06/25 10:02:00	BASE	3.44	324	4.42	319	-1.3	99	-1.4	0	0	985.6	NA	0.0000	UP BR	5000	0	0	0	1210
2017/06/25 10:03:00	BASE	3.54	324	4.42	319	-1.3	99	-1.4	0	0	985.6	NA	0.0000	UP BR	7000	0	0	0	1180
2017/06/25 10:04:00	BASE	3.76	322	4.22	316	-1.2	99	-1.4	0	0	985.5	NA	0.0000	UP BR	6000	0	0	0	1150
2017/06/25 10:05:00	BASE	3.87	321	4.27	318	-1.2	99	-1.4	0	0	985.5	NA	0.0000	UP BR	6000	0	0	0	1050
2017/06/25 10:06:00	BASE	3.85	322	4.27	318	-1.2	99	-1.4	0	0	985.5	NA	0.0000	UP BR	5000	0	0	0	1080
2017/06/25 10:07:00	BASE	3.90	321	4.37	319	-1.2	99	-1.3	0	0	985.5	NA	0.0000	UP BR	4600	0	0	0	980
2017/06/25 10:08:00	BASE	4.06	321	4.58	320	-1.2	99	-1.3	0	0	985.5	NA	0.0000	UP BR	4600	0	0	0	1020
2017/06/25 10:09:00	BASE	4.05	321	4.58	320	-1.2	99	-1.3	0	0	985.5	NA	0.0000	UP BR	4700	0	0	0	950
2017/06/25 10:10:00	BASE	3.93	321	4.58	320	-1.2	99	-1.3	0	0	985.5	NA	0.0000	UP BR	5000	0	0	0	1020
2017/06/25 10:11:00	BASE	3.84	321	4.58	320	-1.2	99	-1.3	0	0	985.5	NA	0.0000	UP BR	4700	0	0	0	980
2017/06/25 10:12:00	BASE	3.79	320	4.58	320	-1.2	99	-1.3	0	0	985.5	NA	0.0000	UP BR	4100	0	0	0	1050
2017/06/25 10:13:00	BASE	3.84	321	4.58	320	-1.2	99	-1.3	0	0	985.5	NA	0.0000	UP BR	4500	0	0	0	1080
2017/06/25 10:14:00	BASE	3.91	321	4.58	320	-1.2	99	-1.3	0	0	985.4	NA	0.0000	UP BR	3900	0	0	0	1120
2017/06/25 10:15:00	BASE	3.87	320	4.58	320	-1.2	99	-1.3	0	0	985.5	NA	0.0000	UP BR	3700	0	0	0	1150
2017/06/25 10:16:00	BASE	3.68	319	4.58	320	-1.2	99	-1.3	0	0	985.5	NA	0.0000	UP BR	3400	0	0	0	1120
2017/06/25 10:17:00	BASE	3.59	319	4.58	320	-1.2	99	-1.3	0	0	985.5	NA	0.0000	UP BR	3600	0	0	0	1080
2017/06/25 10:18:00	BASE	3.65	321	4.32	314	-1.2	99	-1.3	0	0	985.4	NA	0.0000	UP BR	3800	0	0	0	1080
2017/06/25 10:19:00	BASE	3.83	322	4.32	314	-1.2	99	-1.3	0	0	985.4	NA	0.0000	UP BR	4100	0	0	0	1050
2017/06/25 10:20:00	BASE	3.84	321	4.27	318	-1.2	99	-1.3	0	0	985.4	NA	0.0000	UP BR	4300	0	0	0	1150
2017/06/25 10:21:00	BASE	3.84	317	4.37	308	-1.2	99	-1.3	0	0	985.3	NA	0.0000	UP BR	3600	0	0	0	1120
2017/06/25 10:22:00	BASE	3.95	313	4.37	315	-1.2	99	-1.3	0	0	985.3	NA	0.0000	UP BR	3000	0	0	0	1150
2017/06/25 10:23:00	BASE	3.86	314	4.37	315	-1.1	99	-1.3	0	0	985.3	NA	0.0000	UP BR	3000	0	0	0	1210
2017/06/25 10:24:00	BASE	3.99	314	4.37	315	-1.1	99	-1.3	0	0	985.3	NA	0.0000	UP BR	3000	0	0	0	1210
2017/06/25 10:25:00	BASE	4.24	314	4.58	318	-1.1	99	-1.2	0	0	985.2	NA	0.0000	UP BR	3000	0	0	0	1080
2017/06/25 10:26:00	BASE	4.36	315	4.89	314	-1.1	99	-1.2	0	0	985.2	NA	0.0000	UP BR	3000	0	0	0	980
2017/06/25 10:27:00	BASE	4.39	313	4.89	314	-1.1	99	-1.2	0	0	985.1	NA	0.0000	UP BR	3000	0	0	0	1050
2017/06/25 10:28:00	BASE	4.36	314	4.89	314	-1.1	99	-1.2	0	0	985.1	NA	0.0000	UP BR	3000	0	0	0	1210
2017/06/25 10:29:00	BASE	4.32	314	4.89	314	-1.1	99	-1.2	0	0	985.1	NA	0.0000	UP BR	3000	0	0	0	1120
2017/06/25 10:30:00	BASE	4.26	314	4.89	314	-1.1	99	-1.2	0	0	985.2	NA	0.0000	UP BR	3000	0	0	0	1080
2017/06/25 10:31:00	BASE	4.28	314	4.89	314	-1.1	99	-1.2	0	0	985.1	NA	0.0000	BR	3000	0	0	0	1020
2017/06/25 10:32:00	BASE	4.25	313	4.89	314	-1.1	99	-1.2	0	0	985.2	NA	0.0000	BR	3000	0	0	0	1120
2017/06/25 10:33:00	BASE	4.14	312	4.89	314	-1.1	99	-1.2	0	0	985.2	NA	0.0000	BR	3000	0	0	0	1020
2017/06/25 10:34:00	BASE	4.12	310	4.89	314	-1.1	99	-1.2	0	0	985.2	NA	0.0000	BR	3000	0	0	0	1150
2017/06/25 10:35:00	BASE	4.03	309	4.89	314	-1.1	99	-1.2	0	0	985.2	NA	0.0000	BR	3000	0	0	0	1050
2017/06/25 10:36:00	BASE	3.99	309	4.73	317	-1.1	99	-1.2	0	0	985.2	NA	0.0000	BR	3000	0	0	0	1020
2017/06/25 10:37:00	BASE	4.13	311	4.73	317	-1.1	99	-1.2	0	0	985.2	NA	0.0000	BR	3000	0	0	0	1050
2017/06/25 10:38:00	BASE	4.16	311	4.68	310	-1.1	99	-1.2	0	0	985.2	NA	0.0000	BR	3000	0	0	0	890
2017/06/25 10:39:00	BASE	3.95	310	4.53	311	-1.1	99	-1.2	0	0	985.3	NA	0.0000	BR	3000	0	0	0	1080
2017/06/25 10:40:00	BASE	3.63	310	4.53	311	-1.1	99	-1.2	0	0	985.3	NA	0.0000	BR	3000	0	0	0	1150
2017/06/25 10:41:00	BASE	3.59	310	4.53	311	-1.1	99	-1.2	0	0	985.3	NA	0.0000	BR	3000	0	0	0	980
2017/06/25 10:42:00	BASE	3.69	309	4.53	311	-1.1	99	-1.2	0	0	985.3	NA	0.0000	UP BR	3200	0	0	0	980
2017/06/25 10:43:00	BASE	3.69	308	4.53	311	-1.1	99	-1.2	0	0	985.3	NA	0.0000	UP BR	3400	0	0	0	1120
2017/06/25 10:44:00	BASE	3.66	309	4.53	311	-1.1	99	-1.2	0	0	985.3	NA	0.0000	UP BR	3400	0	0	0	1180
2017/06/25 10:45:00	BASE	3.56	310	4.53	311	-1.1	99	-1.2	0	0	985.3	NA	0.0000	UP BR	3400	0	0	0	1020
2017/06/25 10:46:00	BASE	3.46	309	4.53	311	-1.1	99	-1.2	0	0	985.3	NA	0.0000	UP BR	3400	0	0	0	1020
2017/06/25 10:47:00	BASE	3.44	307	4.48	310	-1.1	99	-1.2	0	0	985.3	NA	0.0000	UP BR	3400	0	0	0	950
2017/06/25 10:48:00	BASE	3.40	308	4.22	308	-1.1	99	-1.2	0	0	985.3	NA	0.0000	UP BR	3400	0	0	0	1380
2017/06/25 10:49:00	BASE	3.47	308	4.01	305	-1.1	99	-1.2	0	0	985.3	NA	0.0000	UP BR	3400	0	0	0	1180
2017/06/25 10:50:00	BASE	3.45	309	4.01	305	-1.1	99	-1.2	0	0	985.3	NA	0.0000	UP BR	3400	0	0	0	1120
2017/06/25 10:51:00	BASE	3.33	310	4.01	305	-1.1	99	-1.2	0	0	985.3	NA	0.0000	UP BR	3400	0	0	0	980
2017/06/25 10:52:00	BASE	3.38	309	4.01	305	-1.1	99	-1.2	0	0	985.2	NA	0.0000	UP BR	3400	0	0	0	1050
2017/06/25 10:53:00	BASE	3.37	309	3.91	307	-1.1	99	-1.2	0	0	985.2	NA	0.0000	BR	3400	0	0	0	920
2017/06/25 10:54:00	BASE	3.35	310	3.86	302	-1.1	99	-1.2	0	0	985.2	NA	0.0000	BR	3400	0	0	0	890
2017/06/25 10:55:00	BASE	3.34	310	3.86	302	-1.1	99	-1.2	0	0	985.2	NA	0.0000	UP BR	3200	0	0	0	920
2017/06/25 10:56:00	BASE	3.34	312	3.86	302	-1.1	99	-1.2	0	0	985.2	NA	0.0000	UP BR	2700	0	0	0	980
2017/06/25 10:57:00	BASE	3.51	313	3.91	315	-1.1	99	-1.2	0	0	985.1	NA	0.0000	UP BR	2700	0	0	0	1020
2017/06/25 10:58:00	BASE	3.53	313	3.91	315	-1.1	99	-1.2	0	0	985.2	NA	0.0000	UP BR	2700	0	0	0	1250
2017/06/25 10:59:00	BASE	3.59	313	4.06	315	-1.1	99	-1.2	0	0	985.1	NA	0.0000	UP BR	2700	0	0	0	1180
2017/06/25 11:00:00	BASE	3.84	314	4.12	313	-1.1	99	-1.2	0	0	985.0	NA	0.0000	UP BR	2700	0	0	0	1080
2017/06/25 11:01:00	BASE	3.95	314	4.22	310	-1.1	99	-1.2	0	0	985.0	NA	0.0000	UP BR	2700	230	0	0	0
2017/06/25 11:02:00	BASE	3.94	314	4.22	310	-1.1	99	-1.2	0	0	985.0	NA	0.0000	UP BR	2700	260	0	0	0
2017/06/25 11:03:00	BASE	3.96	314	4.22	308	-1.1	99	-1.2	0	0	985.0	NA	0.0000	UP BR	2700	230	0	0	0
2017/06/25 11:04:00	BASE	3.88	313	4.22	308	-1.1	99	-1.2	0	0	985.0	NA	0.0000	UP BR	2700	230	0	0	0
2017/06/25 11:05:00	BASE	3.73	312	4.22	308	-1.1	99	-1.2	0	0	985.1	NA	0.0000	UP BR	2700	230	0	0	0
2017/06/25 11:06:01	BASE	3.72	313	4.22	308	-1.1	99	-1.2	0	0	985.0	NA	0.0000	BR	2700	230	0	0	0
2017/06/25 11:07:00	BASE	3.58	314	4.22	308	-1.1	99	-1.2	0	0	985.1	NA	0.0000	BR	2700	230	0	0	0
2017/06/25 11:08:00	BASE	3.51	314	4.22	308	-1.1	99	-1.2	0	0	985.0	NA	0.0000	BR	2700	260	0	0	0
2017/06/25 11:09:00	BASE	3.70	311	4.32	313	-1.1	99	-1.2	0	0	985.0	NA	0.0000	BR	2700	260	0	0	0
2017/06/25 11:10:00	BASE	3.81	311	4.32	313	-1.1	99	-1.2	0	0	985.0	NA	0.0000	BR	2700	230	0	0	0
2017/06/25 11:11:00	BASE	3.87	312	4.32	313	-1.1	99	-1.2	0	0	985.0	NA	0.0000	BR	2700	230	0	0	0
2017/06/25 11:12:00	BASE	3.85	311	4.32	313	-1.1	99	-1.2	0	0	985.0	NA	0.0000	BR	2700	230	0	0	0
2017/06/25 11:13:00	BASE	3.81	309	4.32	313	-1.1	99	-1.2	0	0	985.0	NA	0.0000	BR	2700	0	0	0	1150
2017/06/25 11:14:00	BASE	3.78	310	4.32	313	-1.1	99	-1.2	0	0	985.0	NA	0.0000	BR	2700	230	0	0	0
2017/06/25 11:15:00	BASE	3.76	310	4.32	313	-1.1	99	-1.2	0	0	985.0	NA	0.0000	BR	2700	230	0	0	0
2017/06/25 11:16:00	BASE	3.81	309	4.32	313	-1.1	99	-1.2	0	0	985.0	NA	0.0000	BR	2700	260	0	0	0
2017/06/25 11:17:00	BASE	3.82	310	4.32	313	-1.1	99	-1.2	0	0	985.0	NA	0.0000	BR	2700	260	0	0	0
2017/06/25 11:18:00	BASE	3.71	310	4.32	313	-1.1	99	-1.2	0	0	985.0	NA	0.0000	BR	2700	300	0	0	0
2017/06/25 11:19:00	BASE	3.80	309	4.22	306	-1.1	99	-1.2	0	0	985.0	NA	0.0000	BR	3300	260	0	0	0
2017/06/25 11:20:00	BASE	4.00	310	4.32	319	-1.1	99	-1.2	0	0	984.9	NA	0.0000	BR	6000	230	0	0	0
2017/06/25 11:21:00	BASE	3.98	311	4.32	319	-1.1	99	-1.2	0	0	985.0	NA	0.0000	BR	6000	230	0	0	0
2017/06/25 11:22:00	BASE	3.94	310	4.32	306	-1.1	99	-1.2	0	0	985.0	NA	0.0000	BR	6000	230	0	0	0
2017/06/25 11:23:00	BASE	3.85	309	4.32	306	-1.1	99	-1.2	0	0	985.0	NA	0.0000	BR	6000	230	0	0	0
2017/06/25 11:24:00	BASE	3.75	310	4.32	306	-1.1	99	-1.2	0	0	985.0	NA	0.0000	BR	6000	230	0	0	0
2017/06/25 11:25:00	BASE	3.82	309	4.32	306	-1.1	99	-1.2	0	0	985.0	NA	0.0000	BR	6000	230	0	0	0
2017/06/25 11:26:00	BASE	3.87	309	4.32	306	-1.1	99	-1.2	0	0	985.0	NA	0.0000	BR	6000	230	0	0	0
2017/06/25 11:27:00	BASE	3.93	310	4.32	306	-1.1	99	-1.2	0	0	984.9	NA	0.0000	BR	6000	260	0	0	0
2017/06/25 11:28:00	BASE	3.97	309	4.32	306	-1.1	99	-1.2	0	0	985.0	NA	0.0000	BR	6000	260	0	0	0
2017/06/25 11:29:00	BASE	3.87	309	4.32	306	-1.1	99	-1.2	0	0	984.9	NA	0.0000	BR	7000	300	0	0	0
2017/06/25 11:30:00	BASE	3.83	309	4.32	310	-1.1	99	-1.2	0	0	984.9	NA	0.0000	BR	6000	260	0	0	0
2017/06/25 11:31:00	BASE	3.90	310	4.32	307	-1.1	99	-1.2	0	0	984.9	NA	0.0000	BR	6000	260	0	0	0
2017/06/25 11:32:00	BASE	3.90	309	4.32	307	-1.1	99	-1.2	0	0	984.9	NA	0.0000	BR	6000	230	0	0	0
2017/06/25 11:33:00	BASE	3.71	307	4.32	307	-1.1	99	-1.2	0	0	984.9	NA	0.0000	BR	6000	230	0	0	0
2017/06/25 11:34:00	BASE	3.60	308	4.32	307	-1.1	99	-1.2	0	0	984.9	NA	0.0000	BR	6000	230	0	0	0
2017/06/25 11:35:00	BASE	3.76	308	4.32	307	-1.1	99	-1.2	0	0	984.8	NA	0.0000	BR	6000	200	0	0	0
2017/06/25 11:36:00	BASE	3.85	308	4.32	307	-1.1	99	-1.2	0	0	984.8	NA	0.0000	BR	6000	230	0	0	0
2017/06/25 11:37:00	BASE	3.75	308	4.32	307	-1.1	99	-1.2	0	0	984.8	NA	0.0000	BR	6000	260	0	0	0
2017/06/25 11:38:00	BASE	3.77	308	4.32	307	-1.1	99	-1.2	0	0	984.8	NA	0.0000	BR	6000	230	0	0	0
2017/06/25 11:39:00	BASE	3.83	308	4.32	307	-1.1	99	-1.2	0	0	984.8	NA	0.0000	BR	5000	260	0	0	0
2017/06/25 11:40:00	BASE	3.79	309	4.32	307	-1.1	99	-1.2	0	0	984.8	NA	0.0000	BR	5000	260	0	0	0
2017/06/25 11:41:00	BASE	3.73	309	4.22	315	-1.1	99	-1.2	0	0	984.8	NA	0.0000	BR	6000	300	0	0	0
2017/06/25 11:42:00	BASE	3.82	310	4.22	307	-1.1	99	-1.2	0	0	984.7	NA	0.0000	BR	7000	390	0	0	0
2017/06/25 11:43:00	BASE	3.84	309	4.22	307	-1.1	99	-1.2	0	0	984.7	NA	0.0000	BR	8000	390	0	0	0
2017/06/25 11:44:00	BASE	3.76	310	4.22	307	-1.1	99	-1.2	0	0	984.7	NA	0.0000	BR	9000	360	0	0	0
2017/06/25 11:45:00	BASE	3.84	310	4.22	307	-1.1	99	-1.2	0	0	984.7	NA	0.0000	BR	8000	0	0	0	2200
2017/06/25 11:46:00	BASE	3.85	309	4.22	307	-1.1	99	-1.2	0	0	984.7	NA	0.0000	BR	8000	330	0	0	0
2017/06/25 11:47:00	BASE	3.80	309	4.22	307	-1.1	99	-1.2	0	0	984.7	NA	0.0000	BR	8000	330	0	0	0
2017/06/25 11:48:00	BASE	3.91	309	4.32	314	-1.1	99	-1.2	0	0	984.6	NA	0.0000	BR	8000	360	0	0	0
2017/06/25 11:49:00	BASE	4.02	311	4.32	314	-1.1	99	-1.2	0	0	984.6	NA	0.0000	BR	8000	300	0	0	0
2017/06/25 11:50:00	BASE	4.04	311	4.32	310	-1.1	99	-1.2	0	0	984.6	NA	0.0000	BR	7000	300	0	0	0
2017/06/25 11:51:00	BASE	4.00	311	4.32	310	-1.1	99	-1.2	0	0	984.6	NA	0.0000	BR	6000	300	0	0	0
2017/06/25 11:52:00	BASE	3.99	310	4.32	310	-1.1	99	-1.2	0	0	984.6	NA	0.0000	BR	6000	260	0	0	0
2017/06/25 11:53:00	BASE	3.93	310	4.32	310	-1.1	99	-1.2	0	0	984.6	NA	0.0000	BR	6000	330	1080	0	0
2017/06/25 11:54:00	BASE	3.74	311	4.32	310	-1.1	99	-1.2	0	0	984.6	NA	0.0000	BR	7000	390	0	0	0
2017/06/25 11:55:00	BASE	3.71	309	4.32	306	-1.1	99	-1.2	0	0	984.5	NA	0.0000	BR	8000	390	0	0	0
2017/06/25 11:56:00	BASE	3.88	307	4.37	308	-1.1	99	-1.2	0	0	984.5	NA	0.0000	BR	8000	620	0	0	0
2017/06/25 11:57:00	BASE	4.00	307	4.37	308	-1.1	99	-1.2	0	0	984.5	NA	0.0000	BR	8000	330	0	0	0
2017/06/25 11:58:00	BASE	3.77	307	4.37	308	-1.1	99	-1.2	0	0	984.6	NA	0.0000	BR	7000	300	0	0	0
2017/06/25 11:59:00	BASE	3.57	306	4.37	308	-1.1	99	-1.2	0	0	984.6	NA	0.0000	BR	6000	260	0	0	0
2017/06/25 12:00:00	BASE	3.67	305	4.37	308	-1.1	99	-1.2	0	0	984.5	NA	0.0000	BR	5000	260	0	0	0
2017/06/25 12:01:00	BASE	3.73	304	4.37	308	-1.1	99	-1.2	0	0	984.6	NA	0.0000	BR	5000	260	0	0	0
2017/06/25 12:02:00	BASE	3.71	304	4.37	308	-1.1	99	-1.2	0	0	984.6	NA	0.0000	BR	5000	260	0	0	0
2017/06/25 12:03:00	BASE	3.61	304	4.37	308	-1.1	99	-1.2	0	0	984.6	NA	0.0000	BR	5000	300	0	0	0
2017/06/25 12:04:00	BASE	3.53	306	4.37	308	-1.1	99	-1.2	0	0	984.5	NA	0.0000	BR	5000	260	0	0	0
2017/06/25 12:05:00	BASE	3.65	305	4.53	299	-1.1	99	-1.2	0	0	984.5	NA	0.0000	UP BR	4500	0	0	0	1410
2017/06/25 12:06:00	BASE	3.80	304	4.53	299	-1.1	99	-1.2	0	0	984.5	NA	0.0000	UP BR	4100	230	0	0	0
2017/06/25 12:07:00	BASE	3.74	306	4.53	299	-1.1	99	-1.2	0	0	984.5	NA	0.0000	UP BR	4100	300	0	0	0
2017/06/25 12:08:00	BASE	3.66	306	4.53	299	-1.1	99	-1.2	0	0	984.5	NA	0.0000	UP BR	4700	330	0	0	0
2017/06/25 12:09:00	BASE	3.64	306	4.53	299	-1.1	99	-1.2	0	0	984.5	NA	0.0000	UP BR	7000	330	0	0	0
2017/06/25 12:10:00	BASE	3.71	306	4.53	299	-1.1	99	-1.2	0	0	984.4	NA	0.0000	UP BR	7000	300	0	0	0
2017/06/25 12:11:00	BASE	3.79	306	4.53	299	-1.1	99	-1.2	0	0	984.4	NA	0.0000	UP BR	6000	200	920	0	0
2017/06/25 12:12:00	BASE	3.87	306	4.53	299	-1.1	99	-1.2	0	0	984.4	NA	0.0000	UP BR	6000	360	0	0	0
2017/06/25 12:13:00	BASE	3.88	308	4.53	299	-1.1	99	-1.2	0	0	984.4	NA	0.0000	UP BR	8000	390	0	0	0
2017/06/25 12:14:00	BASE	3.89	304	4.53	299	-1.1	99	-1.2	0	0	984.3	NA	0.0000	UP BR	8000	490	0	0	0
2017/06/25 12:15:00	BASE	4.12	299	4.42	302	-1.1	99	-1.3	0	0	984.3	NA	0.0000	BR	7000	300	0	0	0
2017/06/25 12:16:00	BASE	4.07	298	4.42	302	-1.1	99	-1.3	0	0	984.3	NA	0.0000	BR	7000	330	0	0	0
2017/06/25 12:17:00	BASE	3.82	299	4.42	302	-1.1	99	-1.3	0	0	984.4	NA	0.0000	BR	7000	300	0	0	0
2017/06/25 12:18:00	BASE	3.64	298	4.42	302	-1.2	99	-1.3	0	0	984.4	NA	0.0000	BR	7000	360	0	0	0
2017/06/25 12:19:00	BASE	3.62	299	4.42	302	-1.2	99	-1.3	0	0	984.4	NA	0.0000	BR	7000	390	0	0	0
2017/06/25 12:20:00	BASE	3.77	300	4.42	302	-1.2	99	-1.3	0	0	984.3	NA	0.0000	BR	7000	330	0	0	0
2017/06/25 12:21:00	BASE	3.64	299	4.42	302	-1.2	99	-1.3	0	0	984.4	NA	0.0000	UP BR	6000	300	0	0	0
2017/06/25 12:22:00	BASE	3.40	301	4.42	302	-1.2	99	-1.3	0	0	984.4	NA	0.0000	UP BR	4200	200	0	0	0
2017/06/25 12:23:00	BASE	3.34	301	4.42	302	-1.2	99	-1.3	0	0	984.4	NA	0.0000	UP BR	4700	260	0	0	0
2017/06/25 12:24:00	BASE	3.29	302	4.37	293	-1.2	99	-1.3	0	0	984.4	NA	0.0000	UP BR	4900	260	0	0	0
2017/06/25 12:25:00	BASE	3.25	305	4.32	295	-1.2	99	-1.3	0	0	984.4	NA	0.0000	UP BR	4900	260	0	0	0
2017/06/25 12:26:00	BASE	3.43	305	4.27	293	-1.2	99	-1.3	0	0	984.3	NA	0.0000	UP BR	4900	0	0	0	1020
2017/06/25 12:27:00	BASE	3.58	304	4.27	293	-1.2	99	-1.3	0	0	984.3	NA	0.0000	UP BR	4800	0	0	0	1440
2017/06/25 12:28:00	BASE	3.54	305	4.27	293	-1.2	99	-1.3	0	0	984.3	NA	0.0000	UP BR	4300	0	0	0	1380
2017/06/25 12:29:00	BASE	3.71	306	4.27	293	-1.2	99	-1.3	0	0	984.2	NA	0.0000	UP BR	3900	0	0	0	1570
2017/06/25 12:30:00	BASE	3.97	304	4.32	305	-1.2	99	-1.3	0	0	984.1	NA	0.0000	UP BR	3400	0	0	0	1310
2017/06/25 12:31:00	BASE	3.88	301	4.32	305	-1.2	99	-1.3	0	0	984.2	NA	0.0000	UP BR	2400	0	0	0	1180
2017/06/25 12:32:00	BASE	3.60	300	4.32	305	-1.2	99	-1.3	0	0	984.3	NA	0.0000	UP BR	1900	0	0	0	1150
2017/06/25 12:33:00	BASE	3.44	300	4.32	305	-1.2	99	-1.3	0	0	984.3	NA	0.0000	UP BR	2300	0	0	0	890
2017/06/25 12:34:00	BASE	3.07	300	4.32	305	-1.2	99	-1.3	0	0	984.4	NA	0.0000	UP BR	3100	0	0	0	890
2017/06/25 12:35:00	BASE	3.09	301	4.53	296	-1.2	99	-1.3	0	0	984.3	NA	0.0000	UP BR	3900	200	0	0	0
2017/06/25 12:36:00	BASE	3.80	301	4.53	307	-1.2	99	-1.3	0	0	984.1	NA	0.0000	UP BR	3800	0	0	0	2130
2017/06/25 12:37:00	BASE	4.01	300	4.53	307	-1.2	99	-1.3	0	0	984.1	NA	0.0000	UP BR	3500	200	0	0	0
2017/06/25 12:38:00	BASE	3.74	300	4.53	307	-1.2	99	-1.3	0	0	984.2	NA	0.0000	UP BR	4000	230	0	0	0
2017/06/25 12:39:00	BASE	3.61	300	4.53	307	-1.2	99	-1.4	0	0	984.2	NA	0.0000	UP BR	4500	260	0	0	0
2017/06/25 12:40:00	BASE	3.47	302	4.53	307	-1.2	99	-1.4	0	0	984.3	NA	0.0000	UP BR	4200	230	0	0	0
2017/06/25 12:41:00	BASE	3.51	304	4.53	307	-1.3	99	-1.4	0	0	984.2	NA	0.0000	UP BR	4700	200	0	0	0
2017/06/25 12:42:00	BASE	3.60	305	4.53	307	-1.3	99	-1.4	0	0	984.2	NA	0.0000	UP BR	4700	230	0	0	0
2017/06/25 12:43:00	BASE	3.47	306	4.53	307	-1.3	99	-1.4	0	0	984.3	NA	0.0000	UP BR	4700	0	0	0	2690
2017/06/25 12:44:00	BASE	3.34	305	4.53	307	-1.3	99	-1.4	0	0	984.3	NA	0.0000	UP BR	4700	230	0	0	0
2017/06/25 12:45:00	BASE	3.34	304	4.53	307	-1.3	99	-1.4	0	0	984.3	NA	0.0000	UP BR	4700	230	0	0	0
2017/06/25 12:46:00	BASE	3.36	304	4.17	301	-1.3	99	-1.4	0	0	984.3	NA	0.0000	UP BR	4500	230	0	0	0
2017/06/25 12:47:00	BASE	3.35	305	4.12	296	-1.2	99	-1.4	0	0	984.3	NA	0.0000	UP BR	3900	0	0	0	2070
2017/06/25 12:48:00	BASE	3.26	305	3.91	298	-1.2	99	-1.4	0	0	984.3	NA	0.0000	UP BR	3500	0	0	0	1840
2017/06/25 12:49:00	BASE	3.19	306	3.86	310	-1.2	99	-1.4	0	0	984.4	NA	0.0000	UP BR	4500	0	0	0	1770
2017/06/25 12:50:00	BASE	3.20	307	3.86	310	-1.2	99	-1.4	0	0	984.3	NA	0.0000	UP BR	4500	0	0	0	1840
2017/06/25 12:51:00	BASE	3.43	307	3.86	304	-1.2	99	-1.4	0	0	984.3	NA	0.0000	UP BR	4300	0	0	0	1510
2017/06/25 12:52:00	BASE	3.46	306	3.86	304	-1.2	99	-1.4	0	0	984.3	NA	0.0000	UP BR	3700	0	0	0	1380
2017/06/25 12:53:00	BASE	3.42	305	3.86	304	-1.2	99	-1.3	0	0	984.3	NA	0.0000	UP BR	3500	0	0	0	1310
2017/06/25 12:54:00	BASE	3.49	303	3.86	304	-1.2	99	-1.4	0	0	984.3	NA	0.0000	UP BR	3600	0	0	0	1410
2017/06/25 12:55:00	BASE	3.35	306	3.86	304	-1.2	99	-1.4	0	0	984.3	NA	0.0000	UP BR	3700	0	0	0	1380
2017/06/25 12:56:00	BASE	3.25	308	3.86	304	-1.2	99	-1.4	0	0	984.3	NA	0.0000	UP BR	3900	230	0	0	0
2017/06/25 12:57:00	BASE	3.30	309	3.86	304	-1.3	99	-1.4	0	0	984.3	NA	0.0000	UP BR	4200	230	0	0	0
2017/06/25 12:58:00	BASE	3.42	312	4.01	317	-1.3	99	-1.4	0	0	984.3	NA	0.0000	UP BR	4400	230	0	0	0
2017/06/25 12:59:00	BASE	3.50	312	4.01	317	-1.3	99	-1.4	0	0	984.2	NA	0.0000	UP BR	4500	230	0	0	0
2017/06/25 13:00:00	BASE	3.39	312	4.01	317	-1.3	99	-1.4	0	0	984.2	NA	0.0000	UP BR	5000	260	0	0	0
2017/06/25 13:01:00	BASE	3.52	314	4.01	317	-1.2	99	-1.4	0	0	984.1	NA	0.0000	UP BR	5000	300	0	0	0
2017/06/25 13:02:00	BASE	3.76	314	4.01	317	-1.2	99	-1.4	0	0	984.1	NA	0.0000	UP BR	5000	300	0	0	0
2017/06/25 13:03:00	BASE	3.68	313	4.01	317	-1.2	99	-1.3	0	0	984.1	NA	0.0000	UP BR	5000	300	0	0	0
2017/06/25 13:04:00	BASE	3.77	313	4.22	314	-1.2	99	-1.3	0	0	984.1	NA	0.0000	UP BR	5000	300	0	0	0
2017/06/25 13:05:00	BASE	3.82	313	4.22	314	-1.2	99	-1.3	0	0	984.1	NA	0.0000	UP BR	5000	300	0	0	0
2017/06/25 13:06:00	BASE	3.73	312	4.22	314	-1.2	99	-1.3	0	0	984.1	NA	0.0000	UP BR	4800	230	0	0	0
2017/06/25 13:07:00	BASE	3.78	313	4.22	314	-1.2	99	-1.3	0	0	984.1	NA	0.0000	UP BR	4100	230	0	0	0
2017/06/25 13:08:00	BASE	3.84	315	4.22	321	-1.2	99	-1.3	0	0	984.0	NA	0.0000	UP BR	4400	230	0	0	0
2017/06/25 13:09:00	BASE	3.94	316	4.27	316	-1.2	99	-1.3	0	0	984.0	NA	0.0000	UP BR	4800	300	0	0	0
2017/06/25 13:10:00	BASE	4.01	315	4.27	316	-1.2	99	-1.3	0	0	984.0	NA	0.0000	UP BR	4800	330	0	0	0
2017/06/25 13:11:00	BASE	3.90	315	4.27	316	-1.2	99	-1.3	0	0	984.0	NA	0.0000	UP BR	4800	330	0	0	0
2017/06/25 13:12:00	BASE	3.88	315	4.37	312	-1.2	99	-1.3	0	0	984.0	NA	0.0000	UP BR	4800	330	0	0	0
2017/06/25 13:13:00	BASE	3.95	314	4.37	312	-1.2	99	-1.3	0	0	984.0	NA	0.0000	UP BR	4800	330	0	0	0
2017/06/25 13:14:00	BASE	3.92	315	4.37	312	-1.2	99	-1.3	0	0	984.0	NA	0.0000	UP BR	4800	300	0	0	0
2017/06/25 13:15:00	BASE	3.96	314	4.48	320	-1.2	99	-1.3	0	0	984.0	NA	0.0000	UP BR	4800	300	0	0	0
2017/06/25 13:16:00	BASE	3.90	315	4.48	320	-1.2	99	-1.3	0	0	984.0	NA	0.0000	UP BR	4800	230	0	0	0
2017/06/25 13:17:00	BASE	3.76	315	4.48	320	-1.1	99	-1.3	0	0	984.0	NA	0.0000	UP BR	5000	200	0	0	0
2017/06/25 13:18:00	BASE	3.81	315	4.48	320	-1.1	99	-1.3	0	0	983.9	NA	0.0000	UP BR	5000	0	0	0	1410
2017/06/25 13:19:01	BASE	3.86	316	4.48	320	-1.1	99	-1.3	0	0	983.9	NA	0.0000	UP BR	5000	0	0	0	1350
2017/06/25 13:20:00	BASE	3.74	317	4.48	320	-1.1	99	-1.3	0	0	983.9	NA	0.0000	UP BR	4900	230	0	0	0
2017/06/25 13:21:00	BASE	3.67	316	4.48	320	-1.1	99	-1.2	0	0	983.9	NA	0.0000	UP BR	5000	230	0	0	0
2017/06/25 13:22:00	BASE	3.72	314	4.48	320	-1.1	99	-1.2	0	0	983.9	NA	0.0000	UP BR	5000	260	0	0	0
2017/06/25 13:23:00	BASE	3.87	314	4.48	320	-1.1	99	-1.2	0	0	983.8	NA	0.0000	UP BR	5000	300	0	0	0
2017/06/25 13:24:00	BASE	3.92	316	4.48	320	-1.1	99	-1.2	0	0	983.9	NA	0.0000	UP BR	5000	330	0	0	0
2017/06/25 13:25:00	BASE	3.63	320	4.37	311	-1.1	99	-1.2	0	0	983.9	NA	0.0000	UP BR	5000	330	0	0	0
2017/06/25 13:26:00	BASE	3.54	318	4.37	311	-1.1	99	-1.2	0	0	983.9	NA	0.0000	UP BR	5000	330	0	0	0
2017/06/25 13:27:00	BASE	3.55	316	4.37	311	-1.1	99	-1.2	0	0	983.9	NA	0.0000	UP BR	5000	330	0	0	0
2017/06/25 13:28:00	BASE	3.58	316	4.32	312	-1.1	99	-1.2	0	0	983.8	NA	0.0000	UP BR	5000	260	0	0	0
2017/06/25 13:29:00	BASE	3.78	315	4.42	318	-1.1	99	-1.2	0	0	983.8	NA	0.0000	UP BR	5000	230	0	0	0
2017/06/25 13:30:00	BASE	3.97	316	4.42	312	-1.1	99	-1.2	0	0	983.7	NA	0.0000	UP BR	5000	230	0	0	0
2017/06/25 13:31:00	BASE	3.98	315	4.42	312	-1.1	99	-1.2	0	0	983.8	NA	0.0000	UP BR	5000	0	0	0	1180
2017/06/25 13:32:00	BASE	3.78	315	4.42	312	-1.1	99	-1.2	0	0	983.8	NA	0.0000	UP BR	5000	230	0	0	0
2017/06/25 13:33:00	BASE	3.69	314	4.42	312	-1.1	99	-1.2	0	0	983.8	NA	0.0000	UP BR	5000	0	0	0	1180
2017/06/25 13:34:00	BASE	3.72	316	4.42	312	-1.1	99	-1.2	0	0	983.9	NA	0.0000	UP BR	5000	0	0	0	1180
2017/06/25 13:35:00	BASE	3.75	316	4.42	312	-1.1	99	-1.2	0	0	983.8	NA	0.0000	UP BR	5000	260	0	0	0
2017/06/25 13:36:00	BASE	3.61	313	4.42	312	-1.1	99	-1.2	0	0	983.9	NA	0.0000	UP BR	5000	300	0	0	0
2017/06/25 13:37:00	BASE	3.66	314	4.42	312	-1.1	99	-1.2	0	0	983.8	NA	0.0000	UP BR	5000	300	0	0	0
2017/06/25 13:38:00	BASE	3.85	314	4.42	312	-1.1	99	-1.2	0	0	983.9	NA	0.0000	UP BR	5000	300	0	0	0
2017/06/25 13:39:00	BASE	3.86	314	4.42	312	-1.1	99	-1.2	0	0	983.8	NA	0.0000	UP BR	5000	300	0	0	0
2017/06/25 13:40:00	BASE	3.70	313	4.32	317	-1.1	99	-1.2	0	0	983.9	NA	0.0000	UP BR	5000	260	0	0	0
2017/06/25 13:41:00	BASE	3.55	315	4.32	317	-1.1	99	-1.2	0	0	983.9	NA	0.0000	UP BR	5000	230	0	0	0
2017/06/25 13:42:00	BASE	3.50	315	4.32	317	-1.1	99	-1.2	0	0	983.9	NA	0.0000	UP BR	5000	230	0	0	0
2017/06/25 13:43:00	BASE	3.45	314	4.32	317	-1.1	99	-1.2	0	0	984.0	NA	0.0000	UP BR	4500	230	0	0	0
2017/06/25 13:44:00	BASE	3.52	314	4.32	317	-1.1	99	-1.2	0	0	983.9	NA	0.0000	UP BR	4500	0	0	0	1710
2017/06/25 13:45:00	BASE	3.62	317	4.32	317	-1.1	99	-1.2	0	0	983.8	NA	0.0000	UP BR	4500	300	0	0	0
2017/06/25 13:46:00	BASE	3.61	317	4.32	317	-1.1	99	-1.2	0	0	983.9	NA	0.0000	UP BR	4500	230	0	0	0
2017/06/25 13:47:00	BASE	3.68	315	4.32	317	-1.1	99	-1.2	0	0	983.8	NA	0.0000	UP BR	4500	200	0	0	0
2017/06/25 13:48:00	BASE	3.73	315	4.32	317	-1.1	99	-1.2	0	0	983.8	NA	0.0000	UP BR	4500	230	0	0	0
2017/06/25 13:49:00	BASE	3.68	314	4.22	308	-1.1	99	-1.2	1	0	983.8	NA	0.0000	UP BR	4500	260	0	0	0
2017/06/25 13:50:00	BASE	3.70	313	4.22	308	-1.1	99	-1.2	0	0	983.8	NA	0.0000	UP BR	4500	230	0	0	0
2017/06/25 13:51:00	BASE	3.60	314	4.22	308	-1.1	99	-1.2	0	0	983.8	NA	0.0000	UP BR	4500	200	0	0	0
2017/06/25 13:52:00	BASE	3.41	315	4.22	308	-1.1	99	-1.2	0	0	983.9	NA	0.0000	UP BR	4500	260	0	0	0
2017/06/25 13:53:00	BASE	3.45	315	4.22	308	-1.1	99	-1.2	1	0	983.7	NA	0.0000	UP BR	4500	300	0	0	0
2017/06/25 13:54:00	BASE	3.65	315	4.22	308	-1.1	99	-1.2	1	0	983.7	NA	0.0000	UP BR	4500	300	0	0	0
2017/06/25 13:55:00	BASE	3.64	317	4.22	308	-1.1	99	-1.2	1	0	983.7	NA	0.0000	UP BR	4500	300	0	0	0
2017/06/25 13:56:00	BASE	3.50	317	4.22	308	-1.0	99	-1.2	1	0	983.7	NA	0.0000	UP BR	2900	300	0	0	0
2017/06/25 13:57:00	BASE	3.73	316	4.68	319	-1.0	99	-1.2	1	0	983.6	NA	0.0000	UP BR	2900	300	0	0	0
2017/06/25 13:58:00	BASE	4.00	316	4.68	319	-1.0	99	-1.2	1	0	983.5	NA	0.0000	UP BR	2900	330	0	0	0
2017/06/25 13:59:00	BASE	3.82	316	4.68	319	-1.0	99	-1.2	1	0	983.6	NA	0.0000	UP BR	2900	330	0	0	0
2017/06/25 14:00:00	BASE	3.87	314	4.68	319	-1.0	99	-1.2	1	0	983.5	NA	0.0000	UP BR	2900	330	0	0	0
2017/06/25 14:01:00	BASE	4.23	313	4.68	313	-1.0	99	-1.2	1	0	983.4	NA	0.0000	UP BR	2900	330	0	0	0
2017/06/25 14:02:00	BASE	4.31	312	4.68	313	-1.0	99	-1.1	1	0	983.4	NA	0.0000	UP BR	2900	330	0	0	0
2017/06/25 14:03:00	BASE	4.19	313	4.68	313	-1.0	99	-1.1	1	0	983.5	NA	0.0000	UP BR	2900	300	0	0	0
2017/06/25 14:04:00	BASE	4.16	315	4.68	313	-1.0	99	-1.1	1	0	983.4	NA	0.0000	BR	2900	300	0	0	0
2017/06/25 14:05:00	BASE	4.27	315	4.68	315	-1.0	99	-1.1	1	0	983.3	NA	0.0000	BR	2900	300	0	0	0
2017/06/25 14:06:00	BASE	4.28	315	4.68	315	-1.0	99	-1.1	1	0	983.4	NA	0.0000	BR	2900	300	0	0	0
2017/06/25 14:07:00	BASE	4.11	315	4.68	315	-1.0	99	-1.1	1	0	983.4	NA	0.0000	BR	2900	300	0	0	0
2017/06/25 14:08:00	BASE	3.96	314	4.68	315	-1.0	99	-1.1	1	0	983.4	NA	0.0000	BR	2900	260	0	0	0
2017/06/25 14:09:00	BASE	3.99	313	4.68	315	-1.0	99	-1.1	1	0	983.3	NA	0.0000	BR	2900	260	0	0	0
2017/06/25 14:10:00	BASE	3.89	315	4.68	315	-1.0	99	-1.1	1	0	983.3	NA	0.0000	BR	2900	230	0	0	0
2017/06/25 14:11:00	BASE	3.76	315	4.68	315	-1.0	99	-1.1	1	0	983.3	NA	0.0000	BR	2900	260	0	0	0
2017/06/25 14:12:00	BASE	3.95	313	4.68	315	-1.0	99	-1.1	1	0	983.2	NA	0.0000	BR	2900	230	0	0	0
2017/06/25 14:13:00	BASE	3.95	314	4.68	315	-1.0	99	-1.2	1	0	983.2	NA	0.0000	UP BR	3000	230	0	0	0
2017/06/25 14:14:00	BASE	3.74	317	4.68	315	-1.0	99	-1.2	1	0	983.2	NA	0.0000	UP BR	3200	230	0	0	0
2017/06/25 14:15:00	BASE	3.69	317	4.48	314	-1.0	99	-1.2	1	0	983.2	NA	0.0000	UP BR	3100	0	0	0	1210
2017/06/25 14:16:00	BASE	3.61	317	4.48	314	-1.0	99	-1.2	1	0	983.2	NA	0.0000	UP BR	2800	230	0	0	0
2017/06/25 14:17:00	BASE	3.60	319	4.48	314	-1.1	99	-1.2	1	0	983.1	NA	0.0000	UP BR	2800	260	0	0	0
2017/06/25 14:18:00	BASE	3.65	317	4.48	314	-1.1	99	-1.2	1	0	983.0	NA	0.0000	UP BR	2800	260	0	0	0
2017/06/25 14:19:00	BASE	3.57	318	4.48	314	-1.1	99	-1.2	1	0	983.1	NA	0.0000	UP BR	2800	260	0	0	0
2017/06/25 14:20:00	BASE	3.64	321	4.48	314	-1.1	99	-1.2	2	0	983.0	NA	0.0000	UP BR	2800	260	0	0	0
2017/06/25 14:21:00	BASE	3.71	322	4.48	314	-1.1	99	-1.2	2	0	983.0	NA	0.0000	UP BR	2800	230	0	0	0
2017/06/25 14:22:00	BASE	3.70	321	4.12	316	-1.1	99	-1.2	2	0	982.9	NA	0.0000	UP BR	2800	0	0	0	2460
2017/06/25 14:23:00	BASE	3.76	322	4.01	322	-1.1	99	-1.2	2	0	982.9	NA	0.0000	UP BR	3300	0	0	0	2300
2017/06/25 14:24:00	BASE	3.76	322	4.06	322	-1.1	99	-1.2	2	0	982.9	NA	0.0000	UP BR	4800	0	0	0	2260
2017/06/25 14:25:00	BASE	3.80	322	4.12	326	-1.1	99	-1.2	2	0	982.8	NA	0.0000	UP BR	4500	260	0	0	0
2017/06/25 14:26:00	BASE	3.87	322	4.17	320	-1.1	99	-1.2	2	0	982.8	NA	0.0000	UP BR	4500	0	0	0	2100
2017/06/25 14:27:00	BASE	3.80	322	4.17	320	-1.1	99	-1.2	2	0	982.8	NA	0.0000	UP BR	4500	330	0	0	0
2017/06/25 14:28:00	BASE	3.88	322	4.42	325	-1.1	99	-1.2	2	0	982.7	NA	0.0000	UP BR	4500	300	0	0	0
2017/06/25 14:29:00	BASE	3.88	322	4.42	325	-1.1	99	-1.2	2	0	982.7	NA	0.0000	UP BR	4500	260	0	0	0
2017/06/25 14:30:00	BASE	3.91	321	4.42	325	-1.1	99	-1.2	2	0	982.6	NA	0.0000	UP BR	4500	230	0	0	0
2017/06/25 14:31:01	BASE	4.00	321	4.42	325	-1.1	99	-1.2	2	0	982.6	NA	0.0000	UP BR	4500	230	0	0	0
2017/06/25 14:32:00	BASE	3.93	321	4.42	325	-1.1	99	-1.2	3	0	982.6	NA	0.0000	UP BR	4500	230	0	0	0
2017/06/25 14:33:00	BASE	3.93	320	4.42	325	-1.1	99	-1.2	3	0	982.6	NA	0.0000	UP BR	4500	0	0	0	1480
2017/06/25 14:34:00	BASE	3.99	321	4.48	327	-1.1	99	-1.2	3	0	982.5	NA	0.0000	UP BR	4500	0	0	0	1250
2017/06/25 14:35:00	BASE	4.05	320	4.48	327	-1.1	99	-1.2	3	0	982.5	NA	0.0000	UP BR	4500	0	0	0	1480
2017/06/25 14:36:00	BASE	4.05	321	4.48	321	-1.0	99	-1.2	3	0	982.4	NA	0.0000	BR	4500	0	0	0	1480
2017/06/25 14:37:00	BASE	4.18	321	4.53	322	-1.0	99	-1.2	3	0	982.3	NA	0.0000	UP BR	4100	0	0	0	2000
2017/06/25 14:38:00	BASE	4.25	319	4.58	319	-1.0	99	-1.2	3	0	982.3	NA	0.0000	UP BR	3200	0	0	0	1940
2017/06/25 14:39:00	BASE	4.22	319	4.58	319	-1.0	99	-1.1	3	0	982.3	NA	0.0000	UP BR	2700	0	0	0	2490
2017/06/25 14:40:00	BASE	4.13	322	4.58	319	-1.0	99	-1.1	4	0	982.3	NA	0.0000	UP BR	2700	0	0	0	3050
2017/06/25 14:41:00	BASE	4.08	322	4.58	319	-1.0	99	-1.2	4	0	982.3	NA	0.0000	UP BR	2700	0	0	0	2990
2017/06/25 14:42:00	BASE	4.19	320	4.58	327	-1.0	99	-1.2	4	0	982.1	NA	0.0000	UP BR	2700	1570	0	0	0
2017/06/25 14:43:00	BASE	4.26	321	4.58	320	-1.0	99	-1.2	5	0	982.1	NA	0.0000	UP BR	2700	0	0	0	2790
2017/06/25 14:44:00	BASE	4.30	321	4.63	321	-1.0	99	-1.2	5	0	982.1	NA	0.0000	UP BR	2700	330	0	0	0
2017/06/25 14:45:00	BASE	4.17	322	4.63	321	-1.0	99	-1.1	5	0	982.1	NA	0.0000	UP BR	2700	330	0	0	0
2017/06/25 14:46:01	BASE	4.03	321	4.63	321	-1.0	99	-1.1	5	0	982.1	NA	0.0000	UP BR	2700	330	0	0	0
2017/06/25 14:47:00	BASE	4.05	320	4.63	321	-1.0	99	-1.1	5	0	982.0	NA	0.0000	UP BR	2700	330	0	0	0
2017/06/25 14:48:00	BASE	4.04	319	4.63	321	-1.0	99	-1.1	5	0	982.0	NA	0.0000	UP BR	2700	300	0	0	0
2017/06/25 14:49:00	BASE	3.99	320	4.63	321	-1.0	99	-1.1	6	0	982.0	NA	0.0000	UP BR	2700	0	0	0	2400
2017/06/25 14:50:00	BASE	4.03	320	4.63	316	-1.0	99	-1.1	6	0	981.9	NA	0.0000	UP BR	2700	260	0	0	0
2017/06/25 14:51:00	BASE	4.14	321	4.78	320	-1.0	99	-1.1	6	0	981.9	NA	0.0000	UP BR	3200	0	0	0	1970
2017/06/25 14:52:00	BASE	4.15	322	4.78	320	-1.0	99	-1.1	6	0	981.9	NA	0.0000	UP BR	4600	230	0	0	0
2017/06/25 14:53:00	BASE	4.13	322	4.78	320	-1.0	99	-1.1	6	0	981.8	NA	0.0000	UP BR	4600	230	0	0	0
2017/06/25 14:54:00	BASE	4.14	321	4.78	320	-1.0	99	-1.1	6	0	981.8	NA	0.0000	UP BR	4600	0	0	0	5810
2017/06/25 14:55:00	BASE	4.08	321	4.78	320	-1.0	99	-1.1	6	0	981.8	NA	0.0000	UP BR	4600	200	0	0	0
2017/06/25 14:56:00	BASE	4.05	321	4.78	320	-1.0	99	-1.1	6	0	981.7	NA	0.0000	UP BR	4400	0	0	0	5740
2017/06/25 14:57:00	BASE	4.04	321	4.78	320	-1.0	99	-1.1	6	0	981.7	NA	0.0000	UP BR	3900	0	0	0	5350
2017/06/25 14:58:00	BASE	3.87	322	4.78	320	-1.0	99	-1.1	6	0	981.7	NA	0.0000	UP BR	3800	0	0	0	4170
2017/06/25 14:59:00	BASE	3.77	324	4.78	320	-1.0	99	-1.1	6	0	981.7	NA	0.0000	UP BR	4300	230	0	0	0
2017/06/25 15:00:00	BASE	3.82	324	4.78	320	-1.0	99	-1.1	6	0	981.7	NA	0.0000	UP BR	4800	230	0	0	0
2017/06/25 15:01:01	BASE	3.85	325	4.63	320	-1.0	99	-1.1	6	0	981.7	NA	0.0000	UP BR	5000	260	0	0	0
2017/06/25 15:02:00	BASE	3.77	327	4.63	320	-1.0	99	-1.1	6	0	981.7	NA	0.0000	UP BR	6000	300	0	0	0
2017/06/25 15:03:00	BASE	3.72	327	4.58	315	-1.0	99	-1.1	6	0	981.6	NA	0.0000	UP BR	6000	330	0	0	0
2017/06/25 15:04:01	BASE	3.76	326	4.48	321	-1.0	99	-1.1	6	0	981.6	NA	0.0000	UP BR	6000	330	0	0	0
2017/06/25 15:05:01	BASE	3.76	326	4.42	320	-1.0	99	-1.2	6	0	981.6	NA	0.0000	UP BR	6000	330	0	0	0
2017/06/25 15:06:00	BASE	3.84	326	4.42	320	-1.0	99	-1.2	6	0	981.5	NA	0.0000	UP BR	6000	330	0	0	0
2017/06/25 15:07:00	BASE	3.97	327	4.53	329	-1.0	99	-1.2	6	0	981.4	NA	0.0000	UP BR	6000	330	0	0	0
2017/06/25 15:08:01	BASE	3.99	326	4.53	329	-1.0	99	-1.2	6	0	981.4	NA	0.0000	UP BR	6000	300	0	0	0
2017/06/25 15:09:01	BASE	3.81	325	4.53	329	-1.0	99	-1.2	6	0	981.5	NA	0.0000	UP BR	6000	260	0	0	0
2017/06/25 15:10:00	BASE	3.66	324	4.53	329	-1.0	99	-1.2	6	0	981.4	NA	0.0000	UP BR	6000	200	0	0	0
2017/06/25 15:11:01	BASE	3.77	321	4.53	329	-1.0	99	-1.2	6	0	981.3	NA	0.0000	UP BR	6000	200	0	0	0
2017/06/25 15:12:01	BASE	3.99	322	4.53	329	-1.0	99	-1.1	6	0	981.2	NA	0.0000	BR	6000	230	0	0	0
2017/06/25 15:13:01	BASE	3.94	325	4.53	329	-1.0	99	-1.1	6	0	981.2	NA	0.0000	BR	6000	230	0	0	0
2017/06/25 15:14:01	BASE	3.99	325	4.63	329	-1.0	99	-1.1	6	0	981.2	NA	0.0000	BR	6000	200	0	0	0
2017/06/25 15:15:01	BASE	4.26	327	5.04	331	-1.0	99	-1.1	6	0	981.0	NA	0.0000	BR	6000	0	0	0	2530
2017/06/25 15:16:01	BASE	4.23	328	5.04	331	-1.0	99	-1.1	7	0	981.0	NA	0.0000	BR	6000	200	0	0	0
2017/06/25 15:17:01	BASE	4.08	327	5.04	331	-1.0	99	-1.1	7	0	981.0	NA	0.0000	BR	6000	200	0	0	0
2017/06/25 15:18:01	BASE	4.08	327	5.04	331	-1.0	99	-1.1	7	0	981.0	NA	0.0000	BR	6000	230	0	0	0
2017/06/25 15:19:01	BASE	4.24	326	5.04	331	-1.0	99	-1.1	8	0	980.9	NA	0.0000	BR	6000	200	0	0	0
2017/06/25 15:20:01	BASE	4.38	325	5.04	331	-1.0	99	-1.1	8	0	980.9	NA	0.0000	BR	6000	200	0	0	0
2017/06/25 15:21:01	BASE	4.26	322	5.04	331	-1.0	99	-1.1	8	0	980.9	NA	0.0000	UP BR	5000	230	0	0	0
2017/06/25 15:22:01	BASE	4.03	323	5.04	331	-1.0	99	-1.1	9	0	980.9	NA	0.0000	UP BR	4800	230	0	0	0
2017/06/25 15:23:01	BASE	4.09	326	5.04	331	-1.0	99	-1.1	9	0	980.8	NA	0.0000	UP BR	5000	0	0	0	3770
2017/06/25 15:24:01	BASE	4.28	328	5.04	331	-0.9	98	-1.2	8	0	980.8	NA	0.0000	UP BR	5000	300	0	0	0
2017/06/25 15:25:01	BASE	4.41	326	5.04	326	-0.9	98	-1.2	8	0	980.7	NA	0.0000	UP BR	5000	300	1180	0	0
2017/06/25 15:26:01	BASE	4.44	325	5.04	326	-0.9	98	-1.2	8	0	980.7	NA	0.0000	UP BR	5000	300	0	0	0
2017/06/25 15:27:01	BASE	4.20	323	5.04	326	-0.9	98	-1.2	8	0	980.7	NA	0.0000	UP BR	5000	330	0	0	0
2017/06/25 15:28:01	BASE	4.23	320	5.04	326	-0.9	98	-1.2	8	0	980.6	NA	0.0000	UP BR	5000	330	0	0	0
2017/06/25 15:29:01	BASE	4.35	321	5.04	326	-0.9	98	-1.2	8	0	980.6	NA	0.0000	UP BR	5000	300	0	0	0
2017/06/25 15:30:01	BASE	4.34	324	5.04	327	-0.9	98	-1.2	8	0	980.6	NA	0.0000	UP BR	5000	300	0	0	0
2017/06/25 15:31:01	BASE	4.65	326	5.25	327	-0.9	98	-1.2	8	0	980.4	NA	0.0000	UP BR	5000	260	0	0	0
2017/06/25 15:32:01	BASE	4.71	326	5.25	327	-0.9	98	-1.2	8	0	980.4	NA	0.0000	BR	5000	260	0	0	0
2017/06/25 15:33:01	BASE	4.55	326	5.25	327	-0.9	98	-1.2	8	0	980.4	NA	0.0000	BR	5000	300	0	0	0
2017/06/25 15:34:01	BASE	4.59	325	5.25	327	-0.9	98	-1.2	9	0	980.4	NA	0.0000	BR	5000	260	0	0	0
2017/06/25 15:35:01	BASE	4.59	325	5.25	327	-0.9	98	-1.2	9	0	980.3	NA	0.0000	BR	5000	0	0	0	1510
2017/06/25 15:36:01	BASE	4.46	325	5.25	327	-0.9	98	-1.2	9	0	980.4	NA	0.0000	BR	5000	0	0	0	1410
2017/06/25 15:37:01	BASE	4.31	327	5.25	327	-0.9	98	-1.2	10	0	980.4	NA	0.0000	UP BR	5000	0	0	0	1670
2017/06/25 15:38:01	BASE	4.39	327	5.25	327	-0.9	98	-1.2	10	0	980.3	NA	0.0000	UP BR	5000	0	0	0	1840
2017/06/25 15:39:01	BASE	4.52	324	5.30	324	-0.9	98	-1.2	10	0	980.3	NA	0.0000	UP BR	5000	0	0	0	1840
2017/06/25 15:40:01	BASE	4.48	324	5.30	324	-0.9	98	-1.2	10	0	980.3	NA	0.0000	UP BR	5000	0	0	0	1940
2017/06/25 15:41:01	BASE	4.39	325	5.30	324	-0.9	98	-1.2	11	0	980.2	NA	0.0000	UP BR	5000	260	1080	0	0
2017/06/25 15:42:01	BASE	4.59	325	7.15	327	-0.9	98	-1.2	10	0	980.2	NA	0.0000	UP BR	5000	300	1250	0	0
2017/06/25 15:43:01	BASE	8.18	325	12.76	331	-0.9	98	-1.2	10	0	980.2	NA	0.0000	BR	5000	330	0	0	0
2017/06/25 15:44:01	BASE	11.83	324	12.91	318	-0.9	98	-1.2	10	0	980.1	NA	0.0000	BR	6000	330	0	0	0
2017/06/25 15:45:01	BASE	12.06	322	12.91	318	-0.9	98	-1.2	10	0	980.1	NA	0.0000	BR	7000	330	0	0	0
2017/06/25 15:46:01	BASE	11.99	322	13.12	318	-0.9	98	-1.2	10	0	980.1	NA	0.0000	BR	7000	300	0	0	0
2017/06/25 15:47:01	BASE	12.95	321	15.28	315	-0.9	98	-1.2	10	0	979.8	NA	0.0000	BR	7000	300	0	0	0
2017/06/25 15:48:01	BASE	13.95	319	15.28	315	-0.9	98	-1.1	10	0	979.8	NA	0.0000	BR	7000	230	0	0	0
2017/06/25 15:49:01	BASE	13.66	320	15.28	315	-0.8	98	-1.1	11	0	979.8	NA	0.0000	BR	7000	230	0	0	0
2017/06/25 15:50:01	BASE	13.51	320	15.28	315	-0.8	98	-1.1	10	0	979.7	NA	0.0000	BR	7000	230	0	0	0
2017/06/25 15:51:01	BASE	14.46	320	17.54	321	-0.8	98	-1.1	10	0	979.5	NA	0.0000	BR	7000	0	0	0	1610
2017/06/25 15:52:01	BASE	14.81	322	17.54	321	-0.8	98	-1.0	10	0	979.6	NA	0.0000	BR	7000	260	0	0	0
2017/06/25 15:53:01	BASE	14.81	322	17.54	321	-0.7	98	-1.0	10	0	979.5	NA	0.0000	BR	7000	260	0	0	0
2017/06/25 15:54:01	BASE	15.17	321	17.54	321	-0.7	98	-1.0	10	0	979.4	NA	0.0000	BR	7000	0	0	0	1970
2017/06/25 15:55:01	BASE	14.77	321	17.54	321	-0.7	98	-1.0	10	0	979.5	NA	0.0000	BR	7000	230	0	0	0
2017/06/25 15:56:01	BASE	14.66	320	17.54	321	-0.7	98	-1.0	10	0	979.4	NA	0.0000	UP BR	5000	0	0	0	1710
2017/06/25 15:57:01	BASE	14.66	319	17.54	321	-0.7	98	-1.0	10	0	979.4	NA	0.0000	UP BR	3700	230	0	0	0
2017/06/25 15:58:01	BASE	14.73	320	17.54	321	-0.7	98	-1.0	10	0	979.4	NA	0.0000	UP BR	3700	230	0	0	0
2017/06/25 15:59:01	BASE	14.89	321	17.54	321	-0.7	98	-1.0	10	0	979.3	NA	0.0000	UP BR	3800	0	0	0	1670
2017/06/25 16:00:01	BASE	14.58	320	17.54	321	-0.7	98	-1.0	10	0	979.4	NA	0.0000	UP BR	3900	230	0	0	0
2017/06/25 16:01:01	BASE	14.50	321	16.72	319	-0.7	98	-1.0	10	0	979.2	NA	0.0000	UP BR	3800	230	0	0	0
2017/06/25 16:02:01	BASE	14.87	323	16.72	319	-0.7	98	-0.9	11	0	979.2	NA	0.0000	UP BR	3400	0	0	0	1640
2017/06/25 16:03:01	BASE	14.79	322	16.72	319	-0.7	98	-0.9	11	0	979.2	NA	0.0000	UP BR	3500	0	0	0	1310
2017/06/25 16:04:01	BASE	14.17	322	16.72	319	-0.7	99	-0.9	11	0	979.2	NA	0.0000	UP BR	3300	0	0	0	1440
2017/06/25 16:05:01	BASE	14.32	320	16.72	319	-0.7	99	-0.9	12	0	979.2	NA	0.0000	UP BR	3100	0	0	0	1710
2017/06/25 16:06:01	BASE	14.48	320	16.57	323	-0.7	99	-0.8	12	0	979.3	NA	0.0000	UP BR	3000	0	0	0	1250
2017/06/25 16:07:01	BASE	14.30	321	16.57	323	-0.7	99	-0.8	12	0	979.2	NA	0.0000	UP BR	3500	0	0	0	1380
2017/06/25 16:08:01	BASE	14.14	318	16.57	323	-0.7	99	-0.8	12	0	979.3	NA	0.0000	UP BR	3500	0	0	0	1380
2017/06/25 16:09:01	BASE	13.93	318	16.57	325	-0.7	99	-0.8	12	0	979.2	NA	0.0000	UP BR	3500	0	0	0	1480
2017/06/25 16:10:01	BASE	14.40	320	16.57	325	-0.7	99	-0.8	12	0	979.1	NA	0.0000	UP BR	3500	0	0	0	1410
2017/06/25 16:11:01	BASE	15.01	321	17.08	324	-0.7	99	-0.8	12	0	979.0	NA	0.0000	UP BR	3600	230	0	0	0
2017/06/25 16:12:01	BASE	15.01	320	17.08	324	-0.7	99	-0.8	12	0	979.0	NA	0.0000	UP BR	3500	260	0	0	0
2017/06/25 16:13:01	BASE	14.55	322	17.08	324	-0.7	99	-0.8	11	0	979.0	NA	0.0000	UP BR	3100	260	0	0	0
2017/06/25 16:14:01	BASE	14.11	321	17.08	324	-0.7	99	-0.8	11	0	979.0	NA	0.0000	UP BR	3100	260	0	0	0
2017/06/25 16:15:01	BASE	13.63	320	17.08	324	-0.7	99	-0.8	11	0	979.1	NA	0.0000	UP BR	3100	260	0	0	0
2017/06/25 16:16:01	BASE	13.49	319	17.08	324	-0.7	99	-0.8	11	0	979.0	NA	0.0000	UP BR	3100	260	0	0	0
2017/06/25 16:17:01	BASE	13.21	318	17.08	324	-0.7	99	-0.8	12	0	979.1	NA	0.0000	UP BR	3100	260	0	0	0
2017/06/25 16:18:01	BASE	13.06	319	17.08	324	-0.7	99	-0.8	11	0	979.0	NA	0.0000	UP BR	3100	230	0	0	0
2017/06/25 16:19:01	BASE	13.59	320	17.08	324	-0.7	99	-0.8	11	0	978.9	NA	0.0000	UP BR	3100	230	0	0	0
2017/06/25 16:20:01	BASE	14.51	320	17.08	324	-0.7	99	-0.8	11	0	978.8	NA	0.0000	UP BR	3100	300	0	0	0
2017/06/25 16:21:01	BASE	15.44	321	16.72	319	-0.7	99	-0.8	12	0	978.6	NA	0.0000	UP BR	3100	260	0	0	0
2017/06/25 16:22:01	BASE	15.27	322	16.93	324	-0.7	99	-0.8	12	0	978.7	NA	0.0000	BR	3500	300	0	0	0
2017/06/25 16:23:01	BASE	14.83	321	16.93	324	-0.7	99	-0.8	11	0	978.6	NA	0.0000	BR	4800	330	0	0	0
2017/06/25 16:24:01	BASE	14.99	321	16.93	324	-0.7	99	-0.8	11	0	978.6	NA	0.0000	BR	4700	360	0	0	0
2017/06/25 16:25:01	BASE	15.70	320	18.62	318	-0.7	99	-0.8	11	0	978.4	NA	0.0000	BR	5000	590	0	0	0
2017/06/25 16:26:01	BASE	15.56	320	18.62	318	-0.7	99	-0.8	11	0	978.5	NA	0.0000	BR	5000	390	0	0	0
2017/06/25 16:27:01	BASE	15.15	321	18.62	318	-0.7	99	-0.8	11	0	978.5	NA	0.0000	BR	5000	330	0	0	0
2017/06/25 16:28:01	BASE	15.65	321	18.62	318	-0.7	99	-0.8	11	0	978.4	NA	0.0000	BR	4900	300	0	0	0
2017/06/25 16:29:01	BASE	15.23	320	18.62	318	-0.7	99	-0.8	11	0	978.5	NA	0.0000	BR	4500	260	0	0	0
2017/06/25 16:30:01	BASE	14.52	319	18.62	318	-0.7	99	-0.8	11	0	978.6	NA	0.0000	BR	4300	0	0	0	1480
2017/06/25 16:31:01	BASE	14.98	320	18.62	318	-0.7	99	-0.8	10	0	978.4	NA	0.0000	BR	4300	330	0	0	0
2017/06/25 16:32:01	BASE	15.78	320	18.62	318	-0.7	99	-0.8	11	0	978.3	NA	0.0000	BR	4500	330	0	0	0
2017/06/25 16:33:01	BASE	15.80	320	18.62	318	-0.7	99	-0.8	11	0	978.4	NA	0.0000	BR	5000	330	0	0	0
2017/06/25 16:34:01	BASE	15.08	320	18.62	318	-0.7	99	-0.8	10	0	978.4	NA	0.0000	BR	5000	360	0	0	0
2017/06/25 16:35:01	BASE	15.00	319	18.11	326	-0.7	99	-0.8	10	0	978.4	NA	0.0000	BR	5000	360	0	0	0
2017/06/25 16:36:01	BASE	15.19	321	18.11	326	-0.7	99	-0.8	10	0	978.3	NA	0.0000	BR	4800	360	0	0	0
2017/06/25 16:37:01	BASE	14.85	321	18.11	326	-0.7	99	-0.8	9	0	978.4	NA	0.0000	BR	5000	360	0	0	0
2017/06/25 16:38:01	BASE	15.03	321	18.11	326	-0.7	99	-0.8	8	0	978.2	NA	0.0000	BR	6000	360	0	0	0
2017/06/25 16:39:01	BASE	15.32	321	18.11	326	-0.7	99	-0.8	8	0	978.3	NA	0.0000	BR	5000	390	0	0	0
2017/06/25 16:40:01	BASE	15.30	321	18.11	326	-0.7	99	-0.8	8	0	978.2	NA	0.0000	BR	5000	390	0	0	0
2017/06/25 16:41:01	BASE	15.87	322	18.11	326	-0.7	99	-0.8	8	0	978.1	NA	0.0000	BR	6000	590	0	0	0
2017/06/25 16:42:01	BASE	15.98	322	18.11	326	-0.7	99	-0.8	7	0	978.1	NA	0.0000	BR	5000	590	0	0	0
2017/06/25 16:43:01	BASE	15.87	321	18.11	326	-0.7	99	-0.8	7	0	978.1	NA	0.0000	BR	5000	390	0	0	0
2017/06/25 16:44:01	BASE	15.94	321	18.11	326	-0.7	99	-0.8	7	0	978.1	NA	0.0000	BR	5000	360	0	0	0
2017/06/25 16:45:01	BASE	15.86	321	17.44	322	-0.7	99	-0.8	7	0	978.0	NA	0.0000	BR	5000	330	0	0	0
2017/06/25 16:46:01	BASE	15.54	320	17.44	322	-0.7	99	-0.8	7	0	978.1	NA	0.0000	BR	4400	330	0	0	0
2017/06/25 16:47:01	BASE	14.46	321	17.44	322	-0.7	99	-0.8	7	0	978.1	NA	0.0000	BR	4700	330	0	0	0
2017/06/25 16:48:01	BASE	14.39	322	17.44	322	-0.7	99	-0.8	7	0	978.0	NA	0.0000	BR	4600	300	0	0	0
2017/06/25 16:49:01	BASE	15.30	322	17.44	322	-0.7	99	-0.8	7	0	978.0	NA	0.0000	BR	5000	300	0	0	0
2017/06/25 16:50:01	BASE	15.00	321	17.44	322	-0.7	99	-0.8	7	0	978.0	NA	0.0000	BR	5000	300	0	0	0
2017/06/25 16:51:01	BASE	14.51	319	17.44	322	-0.7	99	-0.8	7	0	978.0	NA	0.0000	BR	5000	330	0	0	0
2017/06/25 16:52:01	BASE	14.83	319	17.44	322	-0.7	99	-0.8	6	0	977.9	NA	0.0000	BR	4800	330	0	0	0
2017/06/25 16:53:01	BASE	14.82	320	17.44	322	-0.7	99	-0.8	6	0	977.9	NA	0.0000	BR	4500	300	0	0	0
2017/06/25 16:54:01	BASE	15.08	320	17.44	320	-0.7	99	-0.8	6	0	977.8	NA	0.0000	BR	4800	330	0	0	0
2017/06/25 16:55:01	BASE	15.44	319	17.44	320	-0.7	99	-0.8	6	0	977.8	NA	0.0000	BR	5000	330	0	0	0
2017/06/25 16:56:01	BASE	15.47	320	18.01	325	-0.7	99	-0.8	6	0	977.7	NA	0.0000	BR	5000	360	0	0	0
2017/06/25 16:57:01	BASE	15.58	320	18.01	325	-0.6	99	-0.8	5	0	977.7	NA	0.0000	BR	5000	360	0	0	0
2017/06/25 16:58:01	BASE	15.19	320	18.01	325	-0.6	99	-0.8	5	0	977.7	NA	0.0000	BR	5000	390	0	0	0
2017/06/25 16:59:01	BASE	15.17	320	18.01	325	-0.6	99	-0.8	5	0	977.6	NA	0.0000	BR	6000	360	0	0	0
2017/06/25 17:00:01	BASE	15.58	321	18.01	325	-0.6	99	-0.8	5	0	977.5	NA	0.0000	BR	5000	330	0	0	0
2017/06/25 17:01:01	BASE	15.64	322	18.01	325	-0.7	99	-0.8	5	0	977.5	NA	0.0000	BR	4400	300	0	0	0
2017/06/25 17:02:01	BASE	15.48	321	18.01	325	-0.7	99	-0.8	5	0	977.5	NA	0.0000	BR	4500	300	0	0	0
2017/06/25 17:03:01	BASE	15.36	321	18.01	325	-0.7	99	-0.8	5	0	977.4	NA	0.0000	BR	5000	330	0	0	0
2017/06/25 17:04:01	BASE	15.19	321	18.01	325	-0.7	99	-0.8	4	0	977.4	NA	0.0000	BR	5000	330	0	0	0
2017/06/25 17:05:01	BASE	15.20	321	18.01	325	-0.7	99	-0.8	4	0	977.3	NA	0.0000	BR	5000	330	0	0	0
2017/06/25 17:06:01	BASE	15.63	322	17.75	320	-0.7	99	-0.8	4	0	977.3	NA	0.0000	BR	5000	300	0	0	0
2017/06/25 17:07:01	BASE	16.09	321	17.54	323	-0.7	99	-0.8	4	0	977.1	NA	0.0000	BR	4600	300	0	0	0
2017/06/25 17:08:01	BASE	16.01	319	17.54	323	-0.7	99	-0.8	5	0	977.1	NA	0.0000	BR	4200	330	0	0	0
2017/06/25 17:09:01	BASE	15.24	320	17.54	323	-0.7	99	-0.8	5	0	977.2	NA	0.0000	BR	4800	300	0	0	0
2017/06/25 17:10:01	BASE	15.33	321	17.54	323	-0.6	99	-0.8	5	0	977.1	NA	0.0000	BR	5000	330	0	0	0
2017/06/25 17:11:01	BASE	15.64	321	17.54	320	-0.6	99	-0.8	5	0	977.1	NA	0.0000	BR	5000	300	0	0	0
2017/06/25 17:12:01	BASE	15.20	321	17.54	320	-0.6	99	-0.8	5	0	977.1	NA	0.0000	BR	5000	330	0	0	0
2017/06/25 17:13:01	BASE	14.87	321	17.54	320	-0.7	99	-0.8	5	0	977.1	NA	0.0000	BR	5000	330	0	0	0
2017/06/25 17:14:01	BASE	14.76	320	17.54	320	-0.7	99	-0.8	5	0	977.0	NA	0.0000	BR	5000	330	0	0	0
2017/06/25 17:15:01	BASE	14.09	321	17.54	320	-0.7	99	-0.8	5	0	977.0	NA	0.0000	BR	4900	300	0	0	0
2017/06/25 17:16:01	BASE	13.47	322	17.54	320	-0.7	99	-0.8	5	0	977.0	NA	0.0000	BR	4600	260	0	0	0
2017/06/25 17:17:01	BASE	13.92	322	17.54	320	-0.7	99	-0.8	5	0	976.8	NA	0.0000	BR	4900	260	0	0	0
2017/06/25 17:18:01	BASE	13.87	323	17.54	320	-0.7	99	-0.8	5	0	976.9	NA	0.0000	BR	4600	300	0	0	0
2017/06/25 17:19:01	BASE	14.01	325	17.54	320	-0.7	99	-0.8	5	0	976.8	NA	0.0000	BR	4600	360	0	0	0
2017/06/25 17:20:01	BASE	14.55	323	17.54	320	-0.7	99	-0.8	5	0	976.8	NA	0.0000	BR	4900	360	0	0	0
2017/06/25 17:21:01	BASE	13.72	323	16.93	314	-0.7	99	-0.8	5	0	976.9	NA	0.0000	BR	5000	330	0	0	0
2017/06/25 17:22:01	BASE	12.94	325	16.93	314	-0.7	99	-0.8	5	0	976.8	NA	0.0000	BR	6000	330	0	0	0
2017/06/25 17:23:01	BASE	13.32	326	16.93	314	-0.7	99	-0.8	4	0	976.7	NA	0.0000	BR	6000	360	0	0	0
2017/06/25 17:24:01	BASE	14.08	325	16.93	314	-0.7	99	-0.8	4	0	976.6	NA	0.0000	BR	6000	360	0	0	0
2017/06/25 17:25:01	BASE	14.77	326	16.93	314	-0.7	99	-0.8	4	0	976.5	NA	0.0000	BR	6000	360	0	0	0
2017/06/25 17:26:01	BASE	14.97	326	16.93	314	-0.7	99	-0.8	4	0	976.4	NA	0.0000	BR	7000	330	0	0	0
2017/06/25 17:27:01	BASE	14.31	324	16.93	314	-0.7	99	-0.8	5	0	976.5	NA	0.0000	BR	6000	300	0	0	0
2017/06/25 17:28:01	BASE	14.11	325	16.93	314	-0.7	99	-0.8	5	0	976.3	NA	0.0000	BR	7000	330	0	0	0
2017/06/25 17:29:01	BASE	15.35	328	16.98	330	-0.7	99	-0.8	5	0	976.1	NA	0.0000	BR	7000	300	0	0	0
2017/06/25 17:30:01	BASE	15.91	327	17.03	327	-0.7	99	-0.8	5	0	976.2	NA	0.0000	BR	6000	260	0	0	0
2017/06/25 17:31:01	BASE	16.07	325	18.47	327	-0.7	99	-0.8	5	0	976.0	NA	0.0000	BR	4700	0	0	0	2230
2017/06/25 17:32:01	BASE	15.64	325	18.47	327	-0.7	99	-0.8	5	0	976.1	NA	0.0000	BR	4300	0	0	0	2030
2017/06/25 17:33:01	BASE	15.52	327	18.47	327	-0.7	99	-0.8	5	0	976.0	NA	0.0000	BR	5000	0	0	0	2000
2017/06/25 17:34:01	BASE	16.37	328	18.47	327	-0.7	99	-0.8	6	0	975.8	NA	0.0000	BR	5000	260	1210	0	0
2017/06/25 17:35:01	BASE	16.59	329	18.47	327	-0.7	99	-0.8	6	0	975.8	NA	0.0000	BR	6000	330	0	0	0
2017/06/25 17:36:01	BASE	16.62	329	18.47	327	-0.7	99	-0.8	5	0	975.7	NA	0.0000	BR	6000	330	0	0	0
2017/06/25 17:37:01	BASE	16.53	329	18.47	327	-0.7	99	-0.8	5	0	975.7	NA	0.0000	BR	6000	0	0	0	1670
2017/06/25 17:38:01	BASE	16.17	329	18.47	327	-0.7	99	-0.8	5	0	975.7	NA	0.0000	BR	5000	300	0	0	0
2017/06/25 17:39:01	BASE	16.14	328	19.45	322	-0.7	99	-0.8	5	0	975.6	NA	0.0000	BR	5000	300	0	0	0
2017/06/25 17:40:01	BASE	16.57	326	19.45	322	-0.7	99	-0.8	5	0	975.6	NA	0.0000	BR	5000	300	0	0	0
2017/06/25 17:41:01	BASE	16.97	327	19.45	322	-0.7	99	-0.8	4	0	975.5	NA	0.0000	BR	5000	330	0	0	0
2017/06/25 17:42:01	BASE	16.73	328	19.45	322	-0.7	99	-0.8	4	0	975.4	NA	0.0000	BR	5000	0	0	0	2100
2017/06/25 17:43:01	BASE	16.84	327	19.45	322	-0.7	99	-0.8	3	0	975.3	NA	0.0000	BR	6000	330	0	0	0
2017/06/25 17:44:01	BASE	17.05	327	19.45	322	-0.7	99	-0.8	3	0	975.3	NA	0.0000	BR	5000	0	0	0	2300
2017/06/25 17:45:01	BASE	16.97	326	19.45	322	-0.7	99	-0.8	4	0	975.3	NA	0.0000	BR	5000	0	0	0	2400
2017/06/25 17:46:01	BASE	17.04	326	19.45	322	-0.7	99	-0.8	3	0	975.3	NA	0.0000	BR	5000	300	0	0	0
2017/06/25 17:47:01	BASE	16.31	327	19.45	322	-0.6	99	-0.8	3	0	975.3	NA	0.0000	BR	5000	300	0	0	0
2017/06/25 17:48:01	BASE	16.38	327	19.45	322	-0.6	99	-0.8	3	0	975.1	NA	0.0000	BR	6000	360	0	0	0
2017/06/25 17:49:01	BASE	17.20	327	19.14	331	-0.6	99	-0.8	3	0	974.9	NA	0.0000	BR	6000	390	0	0	0
2017/06/25 17:50:01	BASE	17.91	327	19.81	321	-0.6	99	-0.8	3	0	974.9	NA	0.0000	BR	5000	790	0	0	0
2017/06/25 17:51:01	BASE	17.78	327	19.81	321	-0.6	99	-0.7	3	0	975.0	NA	0.0000	BR	7000	750	0	0	0
2017/06/25 17:52:01	BASE	16.97	326	19.86	331	-0.6	99	-0.7	3	0	975.0	NA	0.0000	BR	7000	790	0	0	0
2017/06/25 17:53:01	BASE	17.90	326	22.58	325	-0.6	99	-0.7	2	0	974.7	NA	0.0000	BR	6000	720	0	0	0
2017/06/25 17:54:01	BASE	17.50	324	22.58	325	-0.6	99	-0.7	2	0	974.9	NA	0.0000	BR	6000	790	0	0	0
2017/06/25 17:55:01	BASE	16.12	324	22.58	325	-0.6	99	-0.7	2	0	974.8	NA	0.0000	BR	5000	720	0	0	0
2017/06/25 17:56:01	BASE	16.88	326	22.58	325	-0.6	99	-0.7	2	0	974.7	NA	0.0000	BR	5000	820	0	0	0
2017/06/25 17:57:00	BASE	17.62	327	22.58	325	-0.6	99	-0.7	2	0	974.6	NA	0.0000	BR	7000	820	0	0	0
2017/06/25 17:58:00	BASE	16.95	329	22.58	325	-0.6	99	-0.7	2	0	974.7	NA	0.0000	BR	7000	690	0	0	0
2017/06/25 17:59:00	BASE	17.16	330	22.58	325	-0.6	99	-0.7	2	0	974.5	NA	0.0000	BR	7000	620	0	0	0
2017/06/25 18:00:00	BASE	18.60	330	22.58	325	-0.6	99	-0.7	2	0	974.4	NA	0.0000	BR	7000	750	0	0	0
2017/06/25 18:01:00	BASE	18.05	330	22.58	325	-0.6	99	-0.7	2	0	974.6	NA	0.0000	BR	9000	590	0	0	0
2017/06/25 18:02:00	BASE	17.58	327	22.58	325	-0.5	99	-0.7	2	0	974.4	NA	0.0000	BR	9000	850	0	0	0
2017/06/25 18:03:00	BASE	17.69	327	20.78	328	-0.5	99	-0.7	2	0	974.4	NA	0.0000	BR	7000	620	0	0	0
2017/06/25 18:04:00	BASE	17.76	326	20.78	328	-0.5	99	-0.6	1	0	974.3	NA	0.0000	BR	7000	560	0	0	0
2017/06/25 18:05:00	BASE	17.49	327	20.78	328	-0.5	99	-0.6	1	0	974.4	NA	0.0000	BR	6000	430	0	0	0
2017/06/25 18:06:00	BASE	17.88	328	21.40	323	-0.5	99	-0.6	1	0	974.1	NA	0.0000	BR	7000	390	0	0	0
2017/06/25 18:07:00	BASE	19.01	327	21.40	323	-0.5	99	-0.6	1	0	974.1	NA	0.0000	BR	7000	390	0	0	0
2017/06/25 18:08:00	BASE	19.06	328	21.40	323	-0.5	99	-0.6	1	0	974.1	NA	0.0000	BR	6000	360	0	0	0
2017/06/25 18:09:00	BASE	18.50	328	21.40	323	-0.5	99	-0.6	1	0	974.1	NA	0.0000	BR	7000	300	0	0	0
2017/06/25 18:10:00	BASE	16.83	327	21.40	323	-0.5	99	-0.6	1	0	974.2	NA	0.0000	BR	6000	260	0	0	0
2017/06/25 18:11:00	BASE	16.65	327	21.40	323	-0.5	99	-0.6	1	0	974.1	NA	0.0000	BR	6000	300	0	0	0
2017/06/25 18:12:00	BASE	18.53	327	21.40	323	-0.5	99	-0.6	1	0	973.8	NA	0.0000	BR	6000	0	0	0	1250
2017/06/25 18:13:00	BASE	18.85	328	21.40	323	-0.5	99	-0.6	1	0	973.8	NA	0.0000	UP BR	5000	0	0	0	1510
2017/06/25 18:14:00	BASE	17.21	330	21.40	323	-0.5	99	-0.6	1	0	973.9	NA	0.0000	UP BR	5000	260	0	0	0
2017/06/25 18:15:00	BASE	16.70	330	21.40	323	-0.5	99	-0.6	1	0	973.9	NA	0.0000	UP BR	6000	300	0	0	0
2017/06/25 18:16:00	BASE	16.79	328	20.42	324	-0.5	99	-0.6	1	0	973.8	NA	0.0000	UP BR	6000	260	0	0	0
2017/06/25 18:17:00	BASE	16.29	331	20.17	328	-0.5	99	-0.6	1	0	973.8	NA	0.0000	UP BR	6000	0	0	0	2000
2017/06/25 18:18:00	BASE	16.30	332	20.17	328	-0.5	99	-0.6	1	0	973.8	NA	0.0000	UP BR	8000	260	0	0	0
2017/06/25 18:19:00	BASE	15.99	331	20.17	328	-0.5	99	-0.6	1	0	973.8	NA	0.0000	UP BR	8000	0	0	0	1770
2017/06/25 18:20:00	BASE	16.20	330	20.17	328	-0.5	99	-0.6	1	0	973.7	NA	0.0000	UP BR	7000	0	0	0	1640
2017/06/25 18:21:00	BASE	16.55	329	20.17	328	-0.5	99	-0.6	1	0	973.7	NA	0.0000	UP BR	8000	0	0	0	1540
2017/06/25 18:22:00	BASE	15.63	329	19.70	328	-0.5	99	-0.6	1	0	973.7	NA	0.0000	UP BR	7000	0	0	0	1740
2017/06/25 18:23:00	BASE	15.58	329	18.93	324	-0.4	99	-0.6	1	0	973.6	NA	0.0000	UP BR	7000	0	0	0	2200
2017/06/25 18:24:00	BASE	16.46	331	18.93	324	-0.4	99	-0.6	1	0	973.4	NA	0.0000	UP BR	7000	230	0	0	0
2017/06/25 18:25:00	BASE	16.83	331	19.34	328	-0.4	99	-0.6	1	0	973.4	NA	0.0000	UP BR	8000	230	0	0	0
2017/06/25 18:26:00	BASE	16.64	331	19.34	328	-0.4	99	-0.6	1	0	973.4	NA	0.0000	UP BR	8000	260	0	0	0
2017/06/25 18:27:00	BASE	17.08	331	21.09	326	-0.4	99	-0.6	1	0	973.1	NA	0.0000	UP BR	6000	0	0	0	1870
2017/06/25 18:28:00	BASE	17.84	331	21.09	326	-0.4	99	-0.5	1	0	973.1	NA	0.0000	UP BR	4700	0	0	0	1900
2017/06/25 18:29:00	BASE	16.97	331	21.09	326	-0.4	99	-0.5	1	0	973.2	NA	0.0000	UP BR	5000	0	0	0	1540
2017/06/25 18:30:00	BASE	16.29	331	21.09	326	-0.4	99	-0.5	1	0	973.1	NA	0.0000	UP BR	6000	0	0	0	1540
2017/06/25 18:31:00	BASE	17.59	330	21.09	326	-0.4	99	-0.5	1	0	972.9	NA	0.0000	UP BR	6000	0	0	0	1380
2017/06/25 18:32:00	BASE	17.97	329	21.09	326	-0.4	99	-0.5	1	0	972.9	NA	0.0000	UP BR	5000	0	0	0	1350
2017/06/25 18:33:00	BASE	17.08	329	21.09	326	-0.4	99	-0.5	1	0	973.0	NA	0.0000	UP BR	4400	0	0	0	1440
2017/06/25 18:34:00	BASE	17.41	327	21.09	326	-0.4	99	-0.5	1	0	972.8	NA	0.0000	UP BR	4800	0	0	0	1310
2017/06/25 18:35:00	BASE	17.80	327	21.09	326	-0.4	99	-0.5	1	0	972.8	NA	0.0000	UP BR	4400	0	0	0	1280
2017/06/25 18:36:00	BASE	17.86	329	21.09	326	-0.4	99	-0.5	1	0	972.7	NA	0.0000	UP BR	4200	0	0	0	1210
2017/06/25 18:37:00	BASE	18.27	330	20.94	328	-0.4	99	-0.5	1	0	972.6	NA	0.0000	UP BR	4000	0	0	0	1210
2017/06/25 18:38:00	BASE	18.22	329	20.94	328	-0.4	99	-0.5	1	0	972.7	NA	0.0000	UP BR	4600	0	0	0	1280
2017/06/25 18:39:00	BASE	16.85	329	20.94	328	-0.4	99	-0.5	1	0	972.8	NA	0.0000	UP BR	4300	0	0	0	1250
2017/06/25 18:40:00	BASE	16.65	331	20.94	328	-0.4	99	-0.5	1	0	972.6	NA	0.0000	UP BR	4700	0	0	0	1770
2017/06/25 18:41:00	BASE	18.71	330	22.17	328	-0.4	99	-0.5	1	0	972.2	NA	0.0000	UP BR	3800	0	0	0	1800
2017/06/25 18:42:00	BASE	19.08	330	22.17	328	-0.4	99	-0.5	1	0	972.2	NA	0.0000	UP BR	5000	0	0	0	1870
2017/06/25 18:43:00	BASE	18.40	331	22.17	328	-0.4	99	-0.5	1	0	972.3	NA	0.0000	UP BR	6000	0	0	0	2200
2017/06/25 18:44:00	BASE	18.71	329	22.17	328	-0.3	99	-0.5	1	0	972.3	NA	0.0000	UP BR	6000	0	0	0	2070
2017/06/25 18:45:00	BASE	18.57	330	22.17	328	-0.3	99	-0.5	1	0	972.3	NA	0.0000	UP BR	6000	0	0	0	2360
2017/06/25 18:46:00	BASE	18.72	329	22.17	328	-0.3	99	-0.5	1	0	972.1	NA	0.0000	UP BR	6000	0	0	0	2360
2017/06/25 18:47:00	BASE	18.85	329	22.17	328	-0.3	99	-0.5	1	0	972.1	NA	0.0000	UP BR	6000	0	0	0	2400
2017/06/25 18:48:00	BASE	17.72	330	22.17	328	-0.3	99	-0.5	1	0	972.3	NA	0.0000	UP BR	6000	0	0	0	2000
2017/06/25 18:49:00	BASE	17.08	329	22.17	328	-0.3	99	-0.5	1	0	972.2	NA	0.0000	UP BR	6000	0	0	0	1940
2017/06/25 18:50:00	BASE	17.47	328	22.17	328	-0.3	99	-0.4	1	0	972.2	NA	0.0000	UP BR	7000	0	0	0	1670
2017/06/25 18:51:00	BASE	18.29	329	21.40	328	-0.3	99	-0.4	1	0	972.0	NA	0.0000	UP BR	7000	0	0	0	1840
2017/06/25 18:52:00	BASE	18.54	329	21.40	328	-0.3	99	-0.4	1	0	972.0	NA	0.0000	UP BR	7000	0	0	0	1800
2017/06/25 18:53:00	BASE	17.67	330	21.40	328	-0.3	99	-0.4	1	0	972.2	NA	0.0000	UP BR	7000	0	0	0	1970
2017/06/25 18:54:00	BASE	16.96	330	21.40	328	-0.3	99	-0.4	0	0	972.2	NA	0.0000	UP BR	7000	0	0	0	1870
2017/06/25 18:55:00	BASE	17.82	328	21.40	328	-0.3	99	-0.4	0	0	971.9	NA	0.0000	BR	6000	0	0	0	1670
2017/06/25 18:56:00	BASE	19.78	328	22.48	329	-0.3	99	-0.4	0	0	971.7	NA	0.0000	BR	8000	0	0	0	1610
2017/06/25 18:57:00	BASE	19.68	331	22.48	329	-0.3	99	-0.5	0	0	971.9	NA	0.0000	BR	9000	0	0	0	1640
2017/06/25 18:58:00	BASE	18.36	330	22.48	329	-0.3	99	-0.5	0	0	972.0	NA	0.0000	BR	9000	0	0	0	1640
2017/06/25 18:59:00	BASE	18.23	329	22.48	329	-0.3	99	-0.5	0	0	971.9	NA	0.0000	UP BR	9000	0	0	0	1770
2017/06/25 19:00:00	BASE	18.67	329	22.48	329	-0.3	98	-0.5	0	0	971.8	NA	0.0000	UP BR	9000	260	0	0	0
2017/06/25 19:01:00	BASE	19.07	327	22.48	329	-0.3	98	-0.5	0	0	971.8	NA	0.0000	UP BR	9000	260	0	0	0
2017/06/25 19:02:00	BASE	19.47	326	22.48	329	-0.3	98	-0.5	0	0	971.7	NA	0.0000	UP BR	8000	260	0	0	0
2017/06/25 19:03:00	BASE	19.03	330	22.48	329	-0.3	99	-0.5	0	0	971.8	NA	0.0000	UP BR	8000	0	0	0	1770
2017/06/25 19:04:00	BASE	18.24	331	22.48	329	-0.3	99	-0.5	0	0	971.7	NA	0.0000	UP BR	9000	230	0	0	0
2017/06/25 19:05:00	BASE	18.96	329	22.48	329	-0.3	99	-0.5	0	0	971.5	NA	0.0000	UP BR	8000	0	0	0	1640
2017/06/25 19:06:00	BASE	18.99	327	22.02	325	-0.3	99	-0.4	0	0	971.7	NA	0.0000	UP BR	8000	0	0	0	1800
2017/06/25 19:07:00	BASE	18.53	327	22.02	325	-0.3	99	-0.5	0	0	971.6	NA	0.0000	UP BR	8000	0	0	0	1940
2017/06/25 19:08:00	BASE	18.87	328	22.02	325	-0.3	99	-0.5	0	0	971.5	NA	0.0000	UP BR	8000	0	0	0	1840
2017/06/25 19:09:00	BASE	18.46	326	22.02	325	-0.4	99	-0.5	0	0	971.6	NA	0.0000	BR	8000	0	0	0	1610
2017/06/25 19:10:00	BASE	17.81	324	22.02	325	-0.4	99	-0.5	0	0	971.5	NA	0.0000	BR	8000	300	0	0	0
2017/06/25 19:11:00	BASE	17.87	326	21.56	332	-0.4	99	-0.5	0	0	971.5	NA	0.0000	BR	8000	300	0	0	0
2017/06/25 19:12:00	BASE	17.76	327	21.56	332	-0.4	99	-0.5	0	0	971.5	NA	0.0000	BR	9000	260	0	0	0
2017/06/25 19:13:00	BASE	17.64	327	21.56	332	-0.4	99	-0.5	0	0	971.4	NA	0.0000	BR	8000	260	0	0	0
2017/06/25 19:14:00	BASE	17.91	327	21.56	332	-0.4	99	-0.5	0	0	971.4	NA	0.0000	BR	7000	260	0	0	0
2017/06/25 19:15:00	BASE	18.00	327	20.68	326	-0.4	99	-0.5	0	0	971.3	NA	0.0000	BR	8000	0	0	0	1940
2017/06/25 19:16:00	BASE	18.40	327	20.68	320	-0.4	99	-0.5	0	0	971.2	NA	0.0000	BR	8000	0	0	0	1840
2017/06/25 19:17:00	BASE	17.76	327	20.68	320	-0.4	99	-0.5	0	0	971.3	NA	0.0000	BR	8000	260	0	0	0
2017/06/25 19:18:00	BASE	17.57	326	20.78	324	-0.4	99	-0.5	0	0	971.1	NA	0.0000	BR	8000	0	0	0	1940
2017/06/25 19:19:00	BASE	18.42	326	20.78	324	-0.3	99	-0.5	0	0	971.2	NA	0.0000	BR	8000	0	0	0	2330
2017/06/25 19:20:00	BASE	17.97	326	20.78	324	-0.3	99	-0.5	0	0	971.2	NA	0.0000	BR	8000	260	0	0	0
2017/06/25 19:21:00	BASE	17.56	326	21.20	328	-0.3	99	-0.5	0	0	971.2	NA	0.0000	BR	8000	260	0	0	0
2017/06/25 19:22:00	BASE	17.46	327	21.20	328	-0.3	99	-0.5	0	0	971.2	NA	0.0000	BR	8000	0	0	0	1540
2017/06/25 19:23:00	BASE	16.54	326	21.20	328	-0.4	99	-0.5	0	0	971.3	NA	0.0000	BR	7000	300	0	0	0
2017/06/25 19:24:00	BASE	15.79	325	21.20	328	-0.4	99	-0.5	0	0	971.3	NA	0.0000	BR	7000	300	0	0	0
2017/06/25 19:25:00	BASE	15.90	324	21.20	328	-0.4	99	-0.5	0	0	971.1	NA	0.0000	BR	7000	0	0	0	1740
2017/06/25 19:26:00	BASE	15.90	323	21.20	328	-0.4	99	-0.5	0	0	971.1	NA	0.0000	UP BR	7000	0	0	0	1410
2017/06/25 19:27:00	BASE	16.94	325	21.20	328	-0.4	99	-0.5	0	0	970.9	NA	0.0000	UP BR	7000	0	0	0	1640
2017/06/25 19:28:00	BASE	17.50	324	21.20	328	-0.4	99	-0.5	0	0	971.0	NA	0.0000	UP BR	6000	0	0	0	1640
2017/06/25 19:29:00	BASE	16.49	324	21.20	328	-0.4	99	-0.5	0	0	971.0	NA	0.0000	UP BR	6000	0	0	0	1480
2017/06/25 19:30:00	BASE	16.54	325	21.20	328	-0.4	99	-0.5	0	0	970.8	NA	0.0000	UP BR	6000	0	0	0	1350
2017/06/25 19:31:00	BASE	16.66	323	19.55	318	-0.4	99	-0.5	0	0	970.9	NA	0.0000	UP BR	6000	0	0	0	1380
2017/06/25 19:32:00	BASE	17.07	322	19.55	318	-0.4	99	-0.5	0	0	970.6	NA	0.0000	UP BR	6000	0	0	0	1570
2017/06/25 19:33:00	BASE	17.24	323	19.55	318	-0.4	99	-0.5	0	0	970.8	NA	0.0000	UP BR	6000	0	0	0	1610
2017/06/25 19:34:00	BASE	17.47	322	20.42	320	-0.4	99	-0.5	0	0	970.6	NA	0.0000	UP BR	6000	0	0	0	1440
2017/06/25 19:35:00	BASE	17.49	321	20.42	320	-0.4	99	-0.5	0	0	970.7	NA	0.0000	UP BR	6000	0	0	0	1480
2017/06/25 19:36:00	BASE	17.89	320	21.25	321	-0.3	99	-0.5	0	0	970.4	NA	0.0000	UP BR	6000	0	0	0	1510
2017/06/25 19:37:00	BASE	18.44	320	21.25	321	-0.3	99	-0.5	0	0	970.5	NA	0.0000	UP BR	6000	260	0	0	0
2017/06/25 19:38:00	BASE	18.60	318	21.25	321	-0.3	99	-0.4	0	0	970.2	NA	0.0000	UP BR	6000	0	0	0	1280
2017/06/25 19:39:00	BASE	18.93	318	21.25	321	-0.3	99	-0.4	0	0	970.4	NA	0.0000	UP BR	5000	0	0	0	1210
2017/06/25 19:40:00	BASE	18.64	320	21.61	320	-0.3	99	-0.4	0	0	970.2	NA	0.0000	UP BR	4800	0	0	0	1350
2017/06/25 19:41:00	BASE	19.51	319	21.71	311	-0.2	99	-0.4	0	0	970.1	NA	0.0000	UP BR	5000	0	0	0	1310
2017/06/25 19:42:00	BASE	19.83	320	21.71	314	-0.2	99	-0.4	0	0	970.1	NA	0.0000	UP BR	5000	0	0	0	1440
2017/06/25 19:43:00	BASE	20.02	319	21.92	322	-0.2	99	-0.4	0	0	969.9	NA	0.0000	UP BR	5000	0	0	0	1480
2017/06/25 19:44:00	BASE	19.65	318	21.92	322	-0.2	99	-0.3	0	0	970.2	NA	0.0000	UP BR	5000	0	0	0	1640
2017/06/25 19:45:00	BASE	18.99	320	21.92	322	-0.2	99	-0.3	0	0	970.1	NA	0.0000	UP BR	5000	0	0	0	1350
2017/06/25 19:46:00	BASE	18.84	320	22.74	319	-0.2	99	-0.3	0	0	970.3	NA	0.0000	UP BR	5000	0	0	0	1610
2017/06/25 19:47:00	BASE	19.20	318	22.74	319	-0.2	99	-0.3	0	0	969.9	NA	0.0000	UP BR	5000	0	0	0	1610
2017/06/25 19:48:00	BASE	19.13	317	22.74	319	-0.2	99	-0.3	0	0	970.2	NA	0.0000	UP BR	6000	0	0	0	1510
2017/06/25 19:49:00	BASE	19.02	319	22.74	319	-0.2	99	-0.3	0	0	969.9	NA	0.0000	UP BR	6000	0	0	0	1410
2017/06/25 19:50:00	BASE	19.50	319	22.74	319	-0.2	99	-0.3	0	0	970.0	NA	0.0000	UP BR	5000	0	0	0	1480
2017/06/25 19:51:00	BASE	18.97	319	22.74	319	-0.2	99	-0.3	0	0	969.9	NA	0.0000	UP BR	5000	0	0	0	1510
2017/06/25 19:52:00	BASE	19.19	319	22.74	319	-0.2	99	-0.3	0	0	969.7	NA	0.0000	UP BR	5000	0	0	0	1440
2017/06/25 19:53:00	BASE	19.46	318	22.74	319	-0.2	99	-0.3	0	0	969.7	NA	0.0000	UP BR	6000	0	0	0	1440
2017/06/25 19:54:00	BASE	19.26	317	22.74	319	-0.2	99	-0.3	0	0	969.7	NA	0.0000	UP BR	6000	0	0	0	1310
2017/06/25 19:55:00	BASE	18.55	319	22.74	319	-0.2	99	-0.3	0	0	969.9	NA	0.0000	UP BR	6000	0	0	0	1310
2017/06/25 19:56:00	BASE	16.93	320	22.38	321	-0.2	99	-0.3	0	0	970.0	NA	0.0000	UP BR	6000	0	0	0	1870
2017/06/25 19:57:00	BASE	16.93	318	22.38	321	-0.2	99	-0.4	0	0	969.8	NA	0.0000	UP BR	6000	0	0	0	1540
2017/06/25 19:58:00	BASE	18.07	318	22.38	321	-0.3	99	-0.4	0	0	969.6	NA	0.0000	UP BR	5000	0	0	0	1710
2017/06/25 19:59:00	BASE	18.23	319	22.38	321	-0.3	99	-0.4	0	0	969.6	NA	0.0000	UP BR	5000	0	0	0	1440
2017/06/25 20:00:00	BASE	17.59	318	22.38	321	-0.3	99	-0.4	0	0	969.7	NA	0.0000	UP BR	5000	260	0	0	0
2017/06/25 20:01:00	BASE	17.69	319	22.38	321	-0.3	99	-0.4	0	0	969.5	NA	0.0000	UP BR	5000	260	0	0	0
2017/06/25 20:02:00	BASE	17.43	319	22.38	321	-0.3	99	-0.4	0	0	969.7	NA	0.0000	UP BR	5000	0	0	0	1480
2017/06/25 20:03:00	BASE	17.39	319	21.71	316	-0.2	99	-0.4	0	0	969.5	NA	0.0000	UP BR	5000	0	0	0	1380
2017/06/25 20:04:00	BASE	18.05	318	21.71	316	-0.2	99	-0.4	0	0	969.4	NA	0.0000	UP BR	5000	0	0	0	1440
2017/06/25 20:05:00	BASE	17.55	317	21.71	316	-0.2	99	-0.3	0	0	969.5	NA	0.0000	UP BR	5000	0	0	0	1280
2017/06/25 20:06:00	BASE	17.31	318	21.71	316	-0.2	99	-0.3	0	0	969.5	NA	0.0000	UP BR	5000	0	0	0	1410
2017/06/25 20:07:00	BASE	17.71	319	21.71	316	-0.2	99	-0.3	0	0	969.3	NA	0.0000	UP BR	5000	0	0	0	1480
2017/06/25 20:08:00	BASE	17.64	319	21.71	316	-0.2	99	-0.3	0	0	969.5	NA	0.0000	UP BR	5000	0	0	0	1380
2017/06/25 20:09:00	BASE	17.31	319	20.83	309	-0.2	99	-0.3	0	0	969.3	NA	0.0000	UP BR	5000	0	0	0	1570
2017/06/25 20:10:00	BASE	17.74	320	20.83	309	-0.2	99	-0.3	0	0	969.4	NA	0.0000	UP BR	6000	0	0	0	1410
2017/06/25 20:11:00	BASE	17.88	319	20.83	309	-0.2	99	-0.3	0	0	969.4	NA	0.0000	UP BR	6000	0	0	0	1610
2017/06/25 20:12:00	BASE	18.40	319	20.83	318	-0.2	99	-0.3	0	0	969.1	NA	0.0000	UP BR	6000	0	0	0	1480
2017/06/25 20:13:00	BASE	18.49	320	20.83	318	-0.2	99	-0.4	0	0	969.3	NA	0.0000	UP BR	5000	0	0	0	1410
2017/06/25 20:14:00	BASE	17.45	320	20.83	318	-0.2	99	-0.4	0	0	969.3	NA	0.0000	UP BR	5000	0	0	0	1570
2017/06/25 20:15:00	BASE	17.87	320	20.83	318	-0.2	99	-0.4	0	0	969.1	NA	0.0000	UP BR	5000	0	0	0	1540
2017/06/25 20:16:00	BASE	18.68	321	20.83	318	-0.3	99	-0.3	0	0	969.2	NA	0.0000	UP BR	5000	0	0	0	1380
2017/06/25 20:17:00	BASE	18.67	321	20.83	318	-0.3	100	-0.3	0	0	969.1	NA	0.0000	UP BR	5000	0	0	0	1480
2017/06/25 20:18:00	BASE	18.38	320	20.83	318	-0.3	100	-0.3	0	0	969.1	NA	0.0000	UP BR	5000	0	0	0	1380
2017/06/25 20:19:00	BASE	17.12	319	20.83	318	-0.2	100	-0.3	0	0	969.3	NA	0.0000	UP BR	5000	0	0	0	1540
2017/06/25 20:20:00	BASE	16.96	319	20.83	318	-0.2	100	-0.3	0	0	969.1	NA	0.0000	UP BR	5000	0	0	0	1440
2017/06/25 20:21:00	BASE	17.48	320	20.83	318	-0.2	100	-0.3	0	0	969.2	NA	0.0000	UP BR	5000	0	0	0	1480
2017/06/25 20:22:00	BASE	17.04	321	20.63	317	-0.2	100	-0.3	0	0	969.2	NA	0.0000	UP BR	5000	0	0	0	1510
2017/06/25 20:23:00	BASE	17.34	322	20.63	317	-0.2	100	-0.3	0	0	969.1	NA	0.0000	UP BR	5000	0	0	0	1740
2017/06/25 20:24:00	BASE	17.49	320	20.63	317	-0.3	100	-0.3	0	0	969.1	NA	0.0000	UP BR	5000	0	0	0	1540
2017/06/25 20:25:00	BASE	17.56	319	20.63	317	-0.3	100	-0.3	0	0	969.1	NA	0.0000	UP BR	5000	0	0	0	1410
2017/06/25 20:26:00	BASE	18.47	319	21.40	309	-0.3	100	-0.3	0	0	968.9	NA	0.0000	UP BR	5000	0	0	0	1610
2017/06/25 20:27:00	BASE	18.95	319	21.40	309	-0.3	100	-0.3	0	0	969.0	NA	0.0000	UP BR	5000	0	0	0	1210
2017/06/25 20:28:00	BASE	17.89	320	21.40	309	-0.3	100	-0.3	0	0	969.1	NA	0.0000	UP BR	5000	0	0	0	1250
2017/06/25 20:29:00	BASE	16.88	319	21.40	309	-0.3	100	-0.3	0	0	969.0	NA	0.0000	UP BR	5000	300	0	0	0
2017/06/25 20:30:00	BASE	16.98	319	21.40	309	-0.3	100	-0.3	0	0	969.0	NA	0.0000	UP BR	6000	330	0	0	0
2017/06/25 20:31:00	BASE	17.55	320	21.40	309	-0.3	100	-0.3	0	0	969.0	NA	0.0000	UP BR	6000	0	0	0	1350
2017/06/25 20:32:00	BASE	17.18	319	21.40	309	-0.3	100	-0.3	0	0	969.1	NA	0.0000	UP BR	5000	330	0	0	0
2017/06/25 20:33:00	BASE	16.78	317	21.40	309	-0.3	100	-0.3	0	0	969.1	NA	0.0000	UP BR	4800	0	0	0	1210
2017/06/25 20:34:00	BASE	17.15	315	21.40	309	-0.3	100	-0.3	0	0	968.9	NA	0.0000	UP BR	4800	0	0	0	1410
2017/06/25 20:35:00	BASE	17.23	313	21.40	309	-0.3	100	-0.3	0	0	968.9	NA	0.0000	UP BR	4800	260	0	0	0
2017/06/25 20:36:00	BASE	17.11	313	19.81	315	-0.3	100	-0.3	0	0	968.9	NA	0.0000	UP BR	5000	0	0	0	1250
2017/06/25 20:37:00	BASE	16.81	313	19.34	318	-0.3	100	-0.3	0	0	969.0	NA	0.0000	UP BR	5000	260	0	0	0
2017/06/25 20:38:00	BASE	16.95	313	19.91	304	-0.3	100	-0.3	0	0	968.9	NA	0.0000	UP BR	6000	330	0	0	0
2017/06/25 20:39:00	BASE	17.97	314	20.22	307	-0.3	100	-0.3	0	0	968.8	NA	0.0000	UP BR	6000	360	0	0	0
2017/06/25 20:40:00	BASE	17.85	313	20.22	307	-0.3	100	-0.3	0	0	969.0	NA	0.0000	UP BR	6000	330	0	0	0
2017/06/25 20:41:00	BASE	17.63	313	20.22	307	-0.3	100	-0.3	0	0	968.8	NA	0.0000	UP BR	8000	330	0	0	0
2017/06/25 20:42:00	BASE	18.72	315	20.78	310	-0.3	100	-0.3	0	0	968.7	NA	0.0000	UP BR	7000	330	0	0	0
2017/06/25 20:43:00	BASE	18.24	314	20.78	310	-0.3	100	-0.3	0	0	968.9	NA	0.0000	UP BR	7000	330	0	0	0
2017/06/25 20:44:00	BASE	16.52	312	20.78	310	-0.3	100	-0.3	0	0	969.1	NA	0.0000	UP BR	7000	360	0	0	0
2017/06/25 20:45:00	BASE	17.06	310	20.78	310	-0.3	100	-0.4	0	0	968.8	NA	0.0000	UP BR	7000	300	0	0	0
2017/06/25 20:46:00	BASE	17.36	311	20.78	310	-0.3	99	-0.4	0	0	969.0	NA	0.0000	BR	6000	300	0	0	0
2017/06/25 20:47:00	BASE	16.84	311	20.78	310	-0.3	99	-0.4	0	0	968.9	NA	0.0000	BR	6000	330	0	0	0
2017/06/25 20:48:00	BASE	17.08	310	20.78	310	-0.3	99	-0.4	0	0	968.9	NA	0.0000	BR	6000	330	1280	0	0
2017/06/25 20:49:00	BASE	16.39	309	20.78	310	-0.3	99	-0.4	0	0	969.0	NA	0.0000	BR	6000	300	0	0	0
2017/06/25 20:50:00	BASE	16.41	310	20.78	310	-0.3	99	-0.4	0	0	968.8	NA	0.0000	BR	7000	360	0	0	0
2017/06/25 20:51:00	BASE	17.14	309	20.78	310	-0.3	99	-0.4	0	0	968.8	NA	0.0000	BR	6000	330	0	0	0
2017/06/25 20:52:00	BASE	17.07	306	20.68	308	-0.3	99	-0.4	0	0	968.9	NA	0.0000	BR	7000	330	0	0	0
2017/06/25 20:53:00	BASE	16.33	304	20.68	308	-0.3	99	-0.4	0	0	969.1	NA	0.0000	BR	7000	330	0	0	0
2017/06/25 20:54:00	BASE	16.04	304	20.68	308	-0.3	99	-0.4	0	0	969.0	NA	0.0000	BR	6000	300	0	0	0
2017/06/25 20:55:00	BASE	16.30	299	19.55	311	-0.3	99	-0.5	0	0	969.0	NA	0.0000	BR	4600	0	0	0	1050
2017/06/25 20:56:00	BASE	15.57	285	19.55	311	-0.3	99	-0.5	0	0	969.4	NA	0.0000	BR	3500	0	0	0	980
2017/06/25 20:57:00	BASE	14.33	251	19.55	311	-0.5	99	-0.7	0	0	970.6	NA	0.0000	BR	3100	0	0	0	1570
2017/06/25 20:58:00	BASE	13.75	228	18.98	294	-0.9	98	-1.1	0	0	970.7	NA	0.0000	UP BR	3300	2100	0	0	0
2017/06/25 20:59:00	BASE	13.10	229	18.98	294	-1.2	98	-1.5	0	0	970.7	NA	0.0000	UP BR	4600	2130	0	0	0
2017/06/25 21:00:00	BASE	12.43	231	18.98	294	-1.6	97	-1.9	0	0	970.8	NA	0.0000	UP BR	4600	2260	0	0	0
2017/06/25 21:01:00	BASE	12.34	231	18.98	294	-2.0	97	-2.4	0	0	970.9	NA	0.0000	UP BR	4600	2260	0	0	0
2017/06/25 21:02:00	BASE	11.60	231	18.57	311	-2.2	97	-2.6	0	0	971.0	NA	0.0000	UP BR	4600	660	2430	0	0
2017/06/25 21:03:00	BASE	11.06	232	18.57	311	-2.3	97	-2.7	0	0	971.1	NA	0.0000	UP BR	4600	560	0	0	0
2017/06/25 21:04:00	BASE	11.35	232	18.57	311	-2.3	97	-2.7	0	0	971.1	NA	0.0000	UP BR	4600	360	0	0	0
2017/06/25 21:05:00	BASE	11.24	234	16.10	232	-2.4	98	-2.7	0	0	971.2	NA	0.0000	UP BR	4600	330	0	0	0
2017/06/25 21:06:00	BASE	9.85	235	16.10	232	-2.4	98	-2.7	0	0	971.2	NA	0.0000	UP BR	4600	430	3150	0	0
2017/06/25 21:07:00	BASE	10.29	238	16.00	223	-2.4	98	-2.7	0	0	971.2	NA	0.0000	UP BR	4600	790	0	0	0
2017/06/25 21:08:00	BASE	12.52	239	15.07	242	-2.4	98	-2.7	0	0	971.3	NA	0.0000	UP BR	4600	660	0	0	0
2017/06/25 21:09:00	BASE	13.20	237	15.38	234	-2.5	98	-2.8	0	0	971.4	NA	0.0000	UP BR	4600	660	0	0	0
2017/06/25 21:10:00	BASE	13.07	234	15.38	234	-2.5	98	-2.9	0	0	971.4	NA	0.0000	UP BR	4600	920	4000	0	0
2017/06/25 21:11:00	BASE	11.98	235	15.38	234	-2.6	98	-2.9	0	0	971.5	NA	0.0000	UP BR	4600	690	0	0	0
2017/06/25 21:12:00	BASE	11.57	240	15.38	234	-2.6	98	-2.9	0	0	971.5	NA	0.0000	UP BR	4600	390	0	0	0
2017/06/25 21:13:00	BASE	11.06	244	15.38	234	-2.6	98	-3.0	0	0	971.5	NA	0.0000	UP BR	5000	390	0	0	0
2017/06/25 21:14:00	BASE	9.77	243	15.38	234	-2.6	98	-2.9	0	0	971.7	NA	0.0000	UP BR	6000	660	0	0	0
2017/06/25 21:15:00	BASE	10.27	244	15.38	234	-2.6	98	-2.9	0	0	971.6	NA	0.0000	UP BR	6000	430	0	0	0
2017/06/25 21:16:00	BASE	11.14	245	15.38	234	-2.6	98	-2.9	0	0	971.7	NA	0.0000	UP BR	5000	360	0	0	0
2017/06/25 21:17:00	BASE	11.43	244	15.38	234	-2.6	98	-2.9	0	0	971.7	NA	0.0000	UP BR	5000	330	0	0	0
2017/06/25 21:18:00	BASE	12.66	241	15.59	235	-2.7	98	-2.9	0	0	971.7	NA	0.0000	UP BR	5000	360	0	0	0
2017/06/25 21:19:00	BASE	13.67	238	15.84	239	-2.7	98	-3.0	0	0	971.7	NA	0.0000	UP BR	4000	360	0	0	0
2017/06/25 21:20:00	BASE	13.38	234	16.05	235	-2.8	98	-3.1	0	0	972.0	NA	0.0000	UP BR	3900	330	0	0	0
2017/06/25 21:21:00	BASE	13.83	230	16.72	231	-2.8	97	-3.2	0	0	972.1	NA	0.0000	UP BR	4200	950	0	0	0
2017/06/25 21:22:00	BASE	14.26	229	16.72	231	-3.0	97	-3.4	0	0	972.2	NA	0.0000	UP BR	4200	1080	0	0	0
2017/06/25 21:23:00	BASE	13.49	228	16.72	231	-3.1	96	-3.6	0	0	972.2	NA	0.0000	UP BR	5000	1250	0	0	0
2017/06/25 21:24:00	BASE	12.96	228	16.72	231	-3.2	96	-3.7	0	0	972.2	NA	0.0000	UP BR	5000	1250	0	0	0
2017/06/25 21:25:00	BASE	11.74	230	16.72	231	-3.3	96	-3.8	0	0	972.2	NA	0.0000	UP BR	5000	1710	0	0	0
2017/06/25 21:26:00	BASE	11.74	234	16.72	231	-3.3	96	-3.9	0	0	972.3	NA	0.0000	UP BR	5000	1840	0	0	0
2017/06/25 21:27:00	BASE	12.38	236	16.72	231	-3.3	96	-3.9	0	0	972.3	NA	0.0000	UP BR	5000	1020	0	0	0
2017/06/25 21:28:00	BASE	12.48	235	16.72	231	-3.3	96	-3.9	0	0	972.2	NA	0.0000	UP BR	5000	1020	1670	0	0
2017/06/25 21:29:00	BASE	11.87	233	16.72	231	-3.3	96	-3.8	0	0	972.3	NA	0.0000	UP BR	7000	1180	0	0	0
2017/06/25 21:30:00	BASE	11.50	233	16.72	231	-3.3	96	-3.8	0	0	972.4	NA	0.0000	UP BR	8000	1800	0	0	0
2017/06/25 21:31:00	BASE	12.68	236	16.15	236	-3.2	96	-3.8	0	0	972.3	NA	0.0000	UP BR	8000	1570	0	0	0
2017/06/25 21:32:00	BASE	12.93	235	16.15	236	-3.2	95	-3.9	0	0	972.3	NA	0.0000	UP BR	9000	2000	0	0	0
2017/06/25 21:33:00	BASE	12.62	234	16.15	236	-3.3	95	-3.9	0	0	972.4	NA	0.0000	BR	9000	1120	0	0	0
2017/06/25 21:34:00	BASE	11.86	235	16.15	236	-3.3	95	-3.9	0	0	972.4	NA	0.0000	BR	8000	1210	2530	0	0
2017/06/25 21:35:00	BASE	11.24	235	16.15	236	-3.2	95	-3.9	0	0	972.4	NA	0.0000	BR	6000	1080	0	0	0
2017/06/25 21:36:00	BASE	11.63	241	16.15	236	-3.3	95	-3.9	0	0	972.3	NA	0.0000	BR	8000	1050	0	0	0
2017/06/25 21:37:00	BASE	12.99	244	16.15	236	-3.3	95	-4.0	0	0	972.3	NA	0.0000	BR	8000	1120	1940	0	0
2017/06/25 21:38:00	BASE	13.07	244	16.15	236	-3.3	95	-4.0	0	0	972.3	NA	0.0000	BR	8000	2260	0	0	0
2017/06/25 21:39:00	BASE	12.14	245	16.15	236	-3.3	94	-4.0	0	0	972.3	NA	0.0000	BR	7000	1670	2620	0	0
2017/06/25 21:40:00	BASE	11.75	243	16.15	236	-3.3	94	-4.1	0	0	972.4	NA	0.0000	BR	8000	1440	2850	0	0
2017/06/25 21:41:00	BASE	11.83	243	15.95	244	-3.3	94	-4.1	0	0	972.4	NA	0.0000	BR	8000	1740	2850	0	0
2017/06/25 21:42:00	BASE	11.90	246	15.95	244	-3.3	94	-4.1	0	0	972.4	NA	0.0000	BR	7000	1310	2950	0	0
2017/06/25 21:43:00	BASE	11.49	247	15.95	244	-3.3	94	-4.1	0	0	972.4	NA	0.0000	BR	8000	3050	0	0	0
2017/06/25 21:44:00	BASE	10.89	243	15.95	244	-3.3	94	-4.1	0	0	972.5	NA	0.0000	BR	8000	1540	3150	0	0
2017/06/25 21:45:00	BASE	10.23	243	15.95	244	-3.3	94	-4.1	0	0	972.4	NA	0.0000	BR	8000	1280	2100	0	0
2017/06/25 21:46:00	BASE	9.47	244	15.95	244	-3.3	94	-4.1	0	0	972.4	NA	0.0000	BR	9000	1350	0	0	0
2017/06/25 21:47:00	BASE	8.60	243	15.23	240	-3.3	94	-4.1	0	0	972.5	NA	0.0000	BR	9999	1280	0	0	0
2017/06/25 21:48:00	BASE	9.27	241	15.23	240	-3.3	94	-4.1	0	0	972.5	NA	0.0000	BR	9999	1380	0	0	0
2017/06/25 21:49:00	BASE	11.56	238	15.23	240	-3.3	94	-4.1	0	0	972.5	NA	0.0000	BR	9000	1480	3350	0	0
2017/06/25 21:50:00	BASE	11.52	237	15.23	240	-3.3	94	-4.2	0	0	972.4	NA	0.0000	BR	8000	1310	3450	0	0
2017/06/25 21:51:00	BASE	9.43	238	14.82	238	-3.3	94	-4.1	0	0	972.5	NA	0.0000	BR	9000	2230	3480	0	0
2017/06/25 21:52:00	BASE	8.78	244	14.82	238	-3.3	94	-4.2	0	0	972.4	NA	0.0000	BR	9999	1840	0	0	0
2017/06/25 21:53:00	BASE	9.30	244	14.82	238	-3.3	93	-4.2	0	0	972.4	NA	0.0000	BR	9999	1280	0	0	0
2017/06/25 21:54:00	BASE	9.49	239	14.82	238	-3.3	94	-4.2	0	0	972.5	NA	0.0000	BR	9000	1210	2130	0	0
2017/06/25 21:55:00	BASE	8.98	239	14.82	238	-3.3	94	-4.1	0	0	972.6	NA	0.0000	BR	8000	1180	0	0	0
2017/06/25 21:56:00	BASE	8.79	236	14.82	238	-3.2	94	-4.1	0	0	972.6	NA	0.0000	BR	8000	430	0	0	0
2017/06/25 21:57:00	BASE	10.55	233	14.82	238	-3.2	94	-4.1	0	0	972.6	NA	0.0000	BR	7000	1150	0	0	0
2017/06/25 21:58:00	BASE	12.11	232	14.82	238	-3.2	94	-4.1	0	0	972.6	NA	0.0000	BR	5000	360	0	0	0
2017/06/25 21:59:00	BASE	11.37	234	13.89	230	-3.2	94	-4.1	0	0	972.6	NA	0.0000	-SN BR	3800	230	1180	0	0
2017/06/25 22:00:00	BASE	10.74	234	13.89	230	-3.3	94	-4.1	0	0	972.7	NA	0.0000	-SN BR	3600	230	0	0	0
2017/06/25 22:01:00	BASE	10.31	234	13.89	230	-3.3	94	-4.1	0	0	972.6	NA	0.0000	-SN BR	3800	300	0	0	0
2017/06/25 22:02:00	BASE	9.42	240	13.89	230	-3.3	95	-4.1	0	0	972.6	NA	0.0000	-SN BR	4200	300	0	0	0
2017/06/25 22:04:14	BASE	9.45	244	13.89	230	-3.3	95	-4.0	0	0	972.5	NA	0.0000	-SN BR	5000	0	0	0	2760
2017/06/25 22:04:21	BASE	M	M	13.89	230	-3.3	96	-4.0	0	0	M	NA	0.0000	-SN BR	M	0	0	0	2760
2017/06/25 22:05:00	BASE	M	M	13.89	230	-3.3	96	-4.0	0	0	972.6	NA	0.0000	-SN BR	5000	260	1250	0	0
2017/06/25 22:06:00	BASE	10.96	234	13.89	230	-3.3	96	-3.9	0	0	972.6	NA	0.0000	-SN BR	5000	300	1080	0	0
2017/06/25 22:07:00	BASE	10.54	235	13.58	234	-3.3	95	-4.0	0	0	972.5	NA	0.0000	-SN BR	5000	330	0	0	0
2017/06/25 22:08:00	BASE	9.65	236	13.02	237	-3.3	95	-4.0	0	0	972.6	NA	0.0000	-SN BR	5000	300	0	0	0
2017/06/25 22:09:00	BASE	9.20	241	13.02	237	-3.3	95	-4.0	0	0	972.5	NA	0.0000	-SN BR	4700	0	0	0	1480
2017/06/25 22:10:00	BASE	9.55	241	13.02	237	-3.3	95	-3.9	0	0	972.5	NA	0.0000	-SN BR	4100	0	0	0	1250
2017/06/25 22:11:00	BASE	9.07	239	13.02	237	-3.3	96	-3.9	0	0	972.5	NA	0.0000	-SN BR	3400	0	0	0	1540
2017/06/25 22:12:00	BASE	8.12	245	13.02	237	-3.3	96	-3.8	0	0	972.4	NA	0.0000	-SN BR	3500	0	0	0	1150
2017/06/25 22:13:00	BASE	8.09	250	13.02	237	-3.3	96	-3.8	0	0	972.4	NA	0.0000	-SN BR	3200	0	0	0	1310
2017/06/25 22:14:00	BASE	8.62	249	13.02	237	-3.3	96	-3.8	0	0	972.5	NA	0.0000	-SN BR	2300	0	0	0	1150
2017/06/25 22:15:00	BASE	8.75	249	12.55	244	-3.3	96	-3.8	0	0	972.5	NA	0.0000	-SN BR	2100	0	0	0	950
2017/06/25 22:16:00	BASE	8.67	250	11.63	239	-3.2	96	-3.8	0	0	972.5	NA	0.0000	-SN BR	2500	0	0	0	1020
2017/06/25 22:17:00	BASE	8.81	245	11.63	239	-3.2	96	-3.7	0	0	972.6	NA	0.0000	-SN BR	3100	0	0	0	980
2017/06/25 22:18:00	BASE	9.68	240	14.04	243	-3.2	97	-3.7	0	0	972.7	NA	0.0000	-SN BR	3700	0	0	0	920
2017/06/25 22:19:00	BASE	11.77	239	14.82	240	-3.2	97	-3.7	0	0	972.5	NA	0.0000	-SN BR	3500	0	0	0	1050
2017/06/25 22:20:00	BASE	12.57	242	14.82	233	-3.3	97	-3.7	0	0	972.6	NA	0.0000	-SN BR	3200	0	0	0	1610
2017/06/25 22:21:00	BASE	12.20	240	14.82	233	-3.4	97	-3.8	0	0	972.8	NA	0.0000	-SN BR	3600	0	0	0	1380
2017/06/25 22:22:00	BASE	11.65	237	14.82	233	-3.4	97	-3.9	0	0	972.7	NA	0.0000	-SN BR	4000	0	0	0	1570
2017/06/25 22:23:00	BASE	10.73	240	14.82	233	-3.5	97	-4.0	0	0	972.8	NA	0.0000	-SN BR	3600	0	0	0	1050
2017/06/25 22:24:00	BASE	11.19	243	14.82	233	-3.6	97	-4.1	0	0	972.8	NA	0.0000	-SN BR	2700	0	0	0	890
2017/06/25 22:25:00	BASE	12.71	243	16.31	239	-3.7	97	-4.1	0	0	972.8	NA	0.0000	-SN BR	2500	0	0	0	1180
2017/06/25 22:26:00	BASE	14.03	241	18.67	228	-3.7	97	-4.1	0	0	972.8	NA	0.0000	-SN BR	3400	0	0	0	1510
2017/06/25 22:27:00	BASE	15.20	236	18.67	228	-3.7	97	-4.1	0	0	973.0	NA	0.0000	-SN BR	4100	0	0	0	1940
2017/06/25 22:28:00	BASE	15.56	232	18.67	228	-3.7	97	-4.1	0	0	972.9	NA	0.0000	-SN BR	6000	0	0	0	2000
2017/06/25 22:29:00	BASE	14.93	228	18.67	228	-3.8	97	-4.2	0	0	973.2	NA	0.0000	-SN BR	7000	0	0	0	2400
2017/06/25 22:30:00	BASE	15.10	223	18.67	228	-3.8	97	-4.3	0	0	973.2	NA	0.0000	-SN BR	7000	260	0	0	0
2017/06/25 22:31:00	BASE	15.41	218	18.67	228	-3.9	97	-4.4	0	0	973.2	NA	0.0000	-SN BR	9999	430	0	0	0
2017/06/25 22:32:00	BASE	14.78	218	18.67	228	-4.0	96	-4.5	0	0	973.3	NA	0.0000	-SN BR	9000	1210	0	0	0
2017/06/25 22:33:00	BASE	13.61	222	18.67	228	-4.1	96	-4.6	0	0	973.2	NA	0.0000	-SN BR	9999	1870	0	0	0
2017/06/25 22:34:00	BASE	12.46	223	18.67	228	-4.1	96	-4.7	0	0	973.2	NA	0.0000	-SN BR	9999	2360	0	0	0
2017/06/25 22:35:00	BASE	11.68	221	18.67	228	-4.1	96	-4.7	0	0	973.2	NA	0.0000	-SN BR	9999	3410	0	0	0
2017/06/25 22:36:00	BASE	11.32	219	18.47	220	-4.1	96	-4.6	0	0	973.2	NA	0.0000	-SN BR	9999	620	0	0	0
2017/06/25 22:37:00	BASE	11.49	223	18.47	220	-4.0	96	-4.6	0	0	973.1	NA	0.0000	-SN BR	9999	1800	3840	5380	0
2017/06/25 22:38:00	BASE	12.13	227	18.47	220	-4.0	96	-4.5	0	0	973.1	NA	0.0000	-SN	9999	3640	5410	0	0
2017/06/25 22:39:00	BASE	12.32	225	18.47	220	-4.0	96	-4.5	0	0	973.1	NA	0.0000	-SN	9999	3670	5740	0	0
2017/06/25 22:40:00	BASE	11.72	221	18.16	214	-3.9	96	-4.5	0	0	973.2	NA	0.0000	-SN	9999	3810	4270	0	0
2017/06/25 22:41:00	BASE	11.06	224	16.05	214	-3.9	95	-4.5	0	0	973.0	NA	0.0000	-SN	9999	3840	6460	0	0
2017/06/25 22:42:00	BASE	10.93	223	15.23	217	-3.9	95	-4.6	0	0	973.1	NA	0.0000		9999	4950	0	0	0
2017/06/25 22:43:00	BASE	12.50	223	15.23	239	-3.9	93	-4.8	0	0	973.2	NA	0.0000		9999	5280	0	0	0
2017/06/25 22:44:00	BASE	13.70	226	15.23	239	-3.8	92	-5.0	0	0	973.2	NA	0.0000		9999	5710	0	0	0
2017/06/25 22:45:00	BASE	13.61	223	15.23	239	-3.9	91	-5.1	0	0	973.2	NA	0.0000		9999	5770	0	0	0
2017/06/25 22:46:00	BASE	13.67	224	15.23	239	-3.9	90	-5.3	0	0	973.2	NA	0.0000		9999	4660	0	0	0
2017/06/25 22:47:00	BASE	13.20	227	15.23	239	-3.9	89	-5.4	0	0	973.1	NA	0.0000		9999	4300	0	0	0
2017/06/25 22:48:00	BASE	12.10	228	15.23	239	-3.9	89	-5.4	0	0	973.1	NA	0.0000		9999	4170	0	0	0
2017/06/25 22:49:00	BASE	11.76	227	15.23	239	-3.9	89	-5.4	0	0	973.1	NA	0.0000		9999	4720	0	0	0
2017/06/25 22:50:00	BASE	11.00	223	15.23	239	-3.8	89	-5.4	0	0	973.1	NA	0.0000		9999	1940	4820	0	0
2017/06/25 22:51:00	BASE	10.04	224	15.23	239	-3.8	89	-5.4	0	0	973.1	NA	0.0000		9999	2170	0	0	0
2017/06/25 22:52:00	BASE	10.50	226	15.23	239	-3.7	88	-5.4	0	0	973.1	NA	0.0000		9999	2100	6690	0	0
2017/06/25 22:53:00	BASE	11.12	230	15.18	229	-3.7	88	-5.4	0	0	973.0	NA	0.0000		9999	1940	0	0	0
2017/06/25 22:54:00	BASE	11.16	230	14.92	228	-3.7	89	-5.3	0	0	973.0	NA	0.0000		9999	2130	0	0	0
2017/06/25 22:55:00	BASE	10.92	226	14.92	228	-3.7	89	-5.3	0	0	973.1	NA	0.0000		9999	1970	0	0	0
2017/06/25 22:56:00	BASE	10.88	222	14.35	221	-3.6	88	-5.3	0	0	973.1	NA	0.0000		9999	2400	0	0	0
2017/06/25 22:57:00	BASE	11.22	222	13.38	224	-3.6	88	-5.3	0	0	973.1	NA	0.0000		9999	2490	0	0	0
2017/06/25 22:58:00	BASE	12.09	225	13.94	218	-3.6	87	-5.4	0	0	973.1	NA	0.0000		9999	3580	0	0	0
2017/06/25 22:59:00	BASE	12.59	227	14.10	229	-3.6	86	-5.5	0	0	973.0	NA	0.0000		9999	2430	0	0	0
2017/06/25 23:00:00	BASE	12.24	227	14.10	229	-3.6	85	-5.7	0	0	973.0	NA	0.0000		9999	2720	0	0	0
2017/06/25 23:01:00	BASE	11.60	225	14.10	229	-3.6	85	-5.7	0	0	973.1	NA	0.0000		9999	2530	6100	0	0
2017/06/25 23:02:00	BASE	12.60	227	15.33	228	-3.6	84	-5.9	0	0	973.0	NA	0.0000		9999	2950	6070	0	0
2017/06/25 23:03:00	BASE	14.19	230	15.33	228	-3.7	84	-6.0	0	0	973.0	NA	0.0000		9999	2330	2850	0	0
2017/06/25 23:04:00	BASE	13.77	231	15.33	228	-3.7	84	-6.1	0	0	972.9	NA	0.0000		9999	2660	6690	0	0
2017/06/25 23:05:00	BASE	12.60	227	15.33	228	-3.7	84	-6.1	0	0	973.0	NA	0.0000		9999	2000	0	0	0
2017/06/25 23:06:00	BASE	11.36	220	15.33	228	-3.7	84	-6.0	0	0	973.0	NA	0.0000		9999	1800	0	0	0
2017/06/25 23:07:00	BASE	11.13	217	15.33	228	-3.6	84	-5.9	0	0	973.1	NA	0.0000		9999	1870	2560	0	0
2017/06/25 23:08:00	BASE	11.22	218	15.33	228	-3.6	85	-5.7	0	0	973.0	NA	0.0000		9999	1870	0	0	0
2017/06/25 23:09:00	BASE	11.65	216	15.33	228	-3.6	86	-5.6	0	0	973.1	NA	0.0000		7000	360	2560	0	0
2017/06/25 23:10:00	BASE	12.87	216	15.54	218	-3.6	87	-5.5	0	0	973.1	NA	0.0000		3500	230	0	0	0
2017/06/25 23:11:00	BASE	12.65	215	15.54	218	-3.7	88	-5.4	0	0	973.0	NA	0.0000	-SN BR	3400	0	0	0	3380
2017/06/25 23:12:00	BASE	10.88	217	15.54	218	-3.8	90	-5.3	0	0	972.8	NA	0.0000	-SN BR	4400	260	0	0	0
2017/06/25 23:13:00	BASE	9.39	218	15.54	218	-4.0	91	-5.3	0	0	972.8	NA	0.0000	-SN BR	7000	7250	0	0	0
2017/06/25 23:14:00	BASE	10.67	214	15.54	218	-4.0	91	-5.2	0	0	972.9	NA	0.0000	-SN BR	9999	11450	0	0	0
2017/06/25 23:15:00	BASE	12.12	217	15.54	218	-4.0	91	-5.3	0	0	972.9	NA	0.0000	-SN BR	9999	9550	0	0	0
2017/06/25 23:16:00	BASE	11.73	222	15.54	218	-4.0	91	-5.3	0	0	973.0	NA	0.0000	-SN BR	9999	5640	0	0	0
2017/06/25 23:17:00	BASE	11.52	224	15.54	218	-4.0	90	-5.4	0	0	973.0	NA	0.0000	-SN BR	9999	5540	0	0	0
2017/06/25 23:18:00	BASE	11.55	227	15.54	218	-4.0	89	-5.5	0	0	973.0	NA	0.0000	-SN BR	9999	4660	0	0	0
2017/06/25 23:19:00	BASE	12.11	231	15.54	218	-4.0	89	-5.6	0	0	973.0	NA	0.0000	-SN BR	9999	2230	2950	0	0
2017/06/25 23:20:00	BASE	12.88	233	15.95	236	-4.1	88	-5.7	0	0	972.9	NA	0.0000	-SN BR	9999	2590	5220	0	0
2017/06/25 23:21:00	BASE	12.51	234	15.95	236	-4.1	88	-5.7	0	0	973.0	NA	0.0000	-SN	9999	2490	0	0	0
2017/06/25 23:22:00	BASE	11.67	234	15.95	236	-4.1	88	-5.8	0	0	973.0	NA	0.0000	-SN	9999	3280	0	0	0
2017/06/25 23:23:00	BASE	12.38	234	15.95	236	-4.1	88	-5.8	0	0	972.9	NA	0.0000	-SN	9999	3450	0	0	0
2017/06/25 23:24:00	BASE	13.22	235	15.95	236	-4.1	87	-5.8	0	0	973.0	NA	0.0000	-SN	9999	5320	0	0	0
2017/06/25 23:25:00	BASE	12.84	237	15.95	236	-4.0	87	-5.9	0	0	972.9	NA	0.0000		9999	2790	0	0	0
2017/06/25 23:26:00	BASE	13.16	238	15.95	236	-4.1	87	-6.0	0	0	972.9	NA	0.0000		9999	2460	0	0	0
2017/06/25 23:27:00	BASE	12.83	233	15.95	236	-4.1	86	-6.0	0	0	973.1	NA	0.0000		9999	1770	2660	0	0
2017/06/25 23:28:00	BASE	12.25	226	15.95	236	-4.0	86	-6.0	0	0	973.2	NA	0.0000	-SN	9999	1540	0	0	0
2017/06/25 23:29:00	BASE	12.59	224	15.95	236	-4.0	86	-6.0	0	0	973.1	NA	0.0000	-SN	9999	1410	0	0	0
2017/06/25 23:30:00	BASE	12.59	220	15.18	243	-4.0	86	-6.0	0	0	973.2	NA	0.0000	-SN	9999	1710	0	0	0
2017/06/25 23:31:00	BASE	13.82	215	17.23	214	-4.0	86	-6.0	0	0	973.3	NA	0.0000	-SN	9999	2690	0	0	0
2017/06/25 23:32:00	BASE	15.06	213	17.75	213	-4.1	86	-6.1	0	0	973.3	NA	0.0000	-SN	9999	0	0	0	3250
2017/06/25 23:33:00	BASE	15.18	213	17.75	213	-4.2	85	-6.3	0	0	973.4	NA	0.0000	-SN	9999	1410	0	0	0
2017/06/25 23:34:00	BASE	14.95	216	17.75	213	-4.3	85	-6.4	0	0	973.4	NA	0.0000	-SN	9999	0	0	0	2890
2017/06/25 23:35:00	BASE	13.63	218	17.75	213	-4.3	85	-6.5	0	0	973.4	NA	0.0000	-SN	9999	1150	0	0	0
2017/06/25 23:36:00	BASE	12.74	218	17.75	213	-4.4	84	-6.6	0	0	973.6	NA	0.0000	-SN	9999	1250	0	0	0
2017/06/25 23:37:00	BASE	12.66	221	17.75	213	-4.4	84	-6.6	0	0	973.5	NA	0.0000	-SN	9999	0	0	0	3900
2017/06/25 23:38:00	BASE	11.79	225	17.75	213	-4.4	84	-6.6	0	0	973.4	NA	0.0000	-SN	9999	0	0	0	2920
2017/06/25 23:39:00	BASE	11.60	221	17.75	213	-4.4	85	-6.6	0	0	973.6	NA	0.0000	-SN	9999	360	0	0	0
2017/06/25 23:40:00	BASE	12.68	216	17.75	213	-4.4	85	-6.5	0	0	973.6	NA	0.0000	-SN	9000	430	0	0	0
2017/06/25 23:41:01	BASE	13.40	213	17.75	213	-4.4	85	-6.5	0	0	973.6	NA	0.0000	-SN	9999	360	1640	0	0
2017/06/25 23:42:00	BASE	13.11	211	17.23	218	-4.5	85	-6.6	0	0	973.6	NA	0.0000	-SN	9999	1150	0	0	0
2017/06/25 23:43:00	BASE	13.59	211	16.72	216	-4.5	85	-6.6	0	0	973.6	NA	0.0000	-SN	9999	0	0	0	3870
2017/06/25 23:44:00	BASE	13.94	212	15.64	208	-4.5	85	-6.6	0	0	973.6	NA	0.0000	-SN	9999	0	0	0	3670
2017/06/25 23:45:00	BASE	13.41	214	15.64	208	-4.5	85	-6.7	0	0	973.5	NA	0.0000	-SN	9999	1770	0	0	0
2017/06/25 23:46:00	BASE	13.23	215	15.64	208	-4.4	85	-6.6	0	0	973.6	NA	0.0000	-SN	9999	1350	0	0	0
2017/06/25 23:47:00	BASE	12.59	216	15.64	208	-4.4	85	-6.6	0	0	973.6	NA	0.0000	-SN	9999	1640	0	0	0
2017/06/25 23:48:00	BASE	12.28	219	15.64	208	-4.4	84	-6.6	0	0	973.6	NA	0.0000	-SN	9999	1410	2530	0	0
2017/06/25 23:49:00	BASE	13.96	221	17.39	212	-4.5	83	-6.9	0	0	973.7	NA	0.0000	-SN	9999	0	0	0	3080
2017/06/25 23:50:00	BASE	15.06	222	17.39	212	-4.6	82	-7.1	0	0	973.6	NA	0.0000	-SN	9999	390	0	0	0
2017/06/25 23:51:00	BASE	13.92	221	17.39	212	-4.7	82	-7.3	0	0	973.6	NA	0.0000	-SN	8000	2430	0	0	0
2017/06/25 23:52:00	BASE	12.60	220	17.39	212	-4.7	81	-7.5	0	0	973.6	NA	0.0000	-SN	8000	1840	0	0	0
2017/06/25 23:53:00	BASE	11.71	221	17.39	212	-4.7	80	-7.6	0	0	973.7	NA	0.0000	-SN	8000	2460	0	0	0
2017/06/25 23:54:00	BASE	11.00	221	17.39	212	-4.7	80	-7.6	0	0	973.6	NA	0.0000	-SN	9999	2430	0	0	0
2017/06/25 23:55:00	BASE	11.25	222	17.39	212	-4.6	80	-7.5	0	0	973.7	NA	0.0000	-SN	9999	2490	3020	0	0
2017/06/25 23:56:00	BASE	11.74	223	17.39	212	-4.6	79	-7.6	0	0	973.7	NA	0.0000	-SN	9999	3580	0	0	0
2017/06/25 23:57:00	BASE	10.89	223	17.39	212	-4.5	79	-7.6	0	0	973.7	NA	0.0000	-SN	9999	6070	0	0	0
2017/06/25 23:58:00	BASE	10.85	222	17.39	212	-4.6	79	-7.6	0	0	973.7	NA	0.0000	-SN	9999	2850	0	0	0
2017/06/25 23:59:00	BASE	11.72	221	16.51	229	-4.5	79	-7.7	0	0	973.7	NA	0.0000	-SN	9999	2760	0	0	0